Darstellungsparameter: Aktuell verwendete Einstellungen:
Skalierung der Graphiken ... ?
xyx+y,   Skalierungsfaktor:      Skalierung: Modus: x, Faktor: 1
Darstellungszeitraum ... ?
Vom - - bis: - -   Zeitraum: 18.12.2019 - 17.03.2020
Min/Max/Avg-Anzeige ... ?
Zeige MMA aktuell
Zeige MMA Monat
Zeige MMA alles
Zeige --A aktuell
Zeige --A Monat
Zeige --A alles
Keine MMA-Anzeige
MMA:
Keine MMA-Graphiken
MMA-Basis: 18.12.2019 - 17.03.2020
Quicknavigation für Darstellung... ?
Tage:      1T, 2T, 3T, 5T -1T -2T -3T -5T +1T +2T +3T +5T
Wochen: 1W, 2W, 3W -1W -2W -3W +1W +2W +3W
Monate: 1M, 3M, 6M -1M -3M -6M +1M +3M +6M
Jahre:    1J, 3J, 5J, 10J -1J -3J -5J -10J +1J +3J +5J +10J
Nutze für die Darstellung ... ?
Originaldaten oder Mittelwerte auf ...
Stundenbasis Tagesbasis Wochenbasis
Monatsbasis Jahresbasis      Datenbasis: Original-Daten
Darstellen als:
Statistik (Auto) Statistik J:M      Darstellung:
Zur Graphik,    zurück zur Übersicht aller Sensoren.
 
Tabellarische Datenbersicht: ?
 
Sensor: Nr:Datum:Temp:Abs-Feuchte:Windchill:Wind:
Aussen-T/F 1 18-12-2019 00:00:00 11.7 C 9.41 g/m*3 11.7 C 1.6 km/h
2 18-12-2019 00:05:00 11.6 C 9.46 g/m*3 11.6 C 9.7 km/h
3 18-12-2019 00:10:00 11.4 C 9.34 g/m*3 11.4 C 8.1 km/h
4 18-12-2019 00:15:00 11.4 C 9.34 g/m*3 11.4 C 4.8 km/h
5 18-12-2019 00:20:00 11.3 C 9.28 g/m*3 11.3 C 9.7 km/h
6 18-12-2019 00:25:00 11.3 C 9.28 g/m*3 11.3 C 4.8 km/h
7 18-12-2019 00:30:00 11.3 C 9.28 g/m*3 11.3 C 12.9 km/h
8 18-12-2019 00:35:00 11.3 C 9.18 g/m*3 11.3 C 20.9 km/h
9 18-12-2019 00:40:00 11.3 C 9.18 g/m*3 11.3 C 20.9 km/h
10 18-12-2019 00:45:00 11.4 C 9.14 g/m*3 11.4 C 14.5 km/h
11 18-12-2019 00:50:00 11.4 C 9.14 g/m*3 11.4 C 12.9 km/h
12 18-12-2019 00:55:00 11.4 C 9.14 g/m*3 11.4 C 16.1 km/h
13 18-12-2019 01:00:00 11.4 C 9.14 g/m*3 11.4 C 14.5 km/h
14 18-12-2019 01:05:00 11.4 C 9.14 g/m*3 11.4 C 12.9 km/h
15 18-12-2019 01:10:00 11.4 C 9.14 g/m*3 11.4 C 12.9 km/h
16 18-12-2019 01:15:00 11.4 C 9.14 g/m*3 11.4 C 12.9 km/h
17 18-12-2019 01:20:00 11.3 C 9.08 g/m*3 11.3 C 11.3 km/h
18 18-12-2019 01:25:00 11.3 C 9.08 g/m*3 11.3 C 12.9 km/h
19 18-12-2019 01:30:00 11.4 C 9.14 g/m*3 11.4 C 11.3 km/h
20 18-12-2019 01:35:00 11.3 C 9.08 g/m*3 11.3 C 6.4 km/h
21 18-12-2019 01:40:00 11.3 C 9.08 g/m*3 11.3 C 6.4 km/h
22 18-12-2019 01:45:00 11.2 C 9.02 g/m*3 11.2 C 9.7 km/h
23 18-12-2019 01:50:00 11.2 C 9.02 g/m*3 11.2 C 9.7 km/h
24 18-12-2019 01:55:00 11.2 C 9.12 g/m*3 11.2 C 8.1 km/h
25 18-12-2019 02:00:00 11.3 C 9.18 g/m*3 11.3 C 16.1 km/h
Sensor: Nr:Datum:Temp:Abs-Feuchte:Windchill:Wind:
Aussen-T/F 26 18-12-2019 02:05:00 11.3 C 9.18 g/m*3 11.3 C 6.4 km/h
27 18-12-2019 02:10:00 11.3 C 9.18 g/m*3 11.3 C 11.3 km/h
28 18-12-2019 02:15:00 11.4 C 9.24 g/m*3 11.4 C 6.4 km/h
29 18-12-2019 02:20:00 11.4 C 9.24 g/m*3 11.4 C 9.7 km/h
30 18-12-2019 02:25:00 11.4 C 9.24 g/m*3 11.4 C 9.7 km/h
31 18-12-2019 02:30:00 11.6 C 9.35 g/m*3 11.6 C 14.5 km/h
32 18-12-2019 02:35:00 11.6 C 9.35 g/m*3 11.6 C 6.4 km/h
33 18-12-2019 02:40:00 11.6 C 9.25 g/m*3 11.6 C 6.4 km/h
34 18-12-2019 02:45:00 11.6 C 9.35 g/m*3 11.6 C 4.8 km/h
35 18-12-2019 02:50:00 11.5 C 9.3 g/m*3 11.5 C 6.4 km/h
36 18-12-2019 02:55:00 11.5 C 9.3 g/m*3 11.5 C 8.1 km/h
37 18-12-2019 03:00:00 11.5 C 9.4 g/m*3 11.5 C 4.8 km/h
38 18-12-2019 03:05:00 11.4 C 9.34 g/m*3 11.4 C 3.2 km/h
39 18-12-2019 03:10:00 11.4 C 9.34 g/m*3 11.4 C 3.2 km/h
40 18-12-2019 03:15:00 11.3 C 9.28 g/m*3 11.3 C 3.2 km/h
41 18-12-2019 03:20:00 11.3 C 9.38 g/m*3 11.3 C 1.6 km/h
42 18-12-2019 03:25:00 11.2 C 9.33 g/m*3 11.2 C 4.8 km/h
43 18-12-2019 03:30:00 11.2 C 9.33 g/m*3 11.2 C 1.6 km/h
44 18-12-2019 03:35:00 11.1 C 9.27 g/m*3 11.1 C 0 km/h
45 18-12-2019 03:40:00 11.1 C 9.37 g/m*3 11.1 C 0 km/h
46 18-12-2019 03:45:00 11 C 9.31 g/m*3 11 C 0 km/h
47 18-12-2019 03:50:00 10.9 C 9.25 g/m*3 10.9 C 3.2 km/h
48 18-12-2019 03:55:00 10.9 C 9.25 g/m*3 10.9 C 0 km/h
49 18-12-2019 04:00:00 10.8 C 9.19 g/m*3 10.8 C 0 km/h
50 18-12-2019 04:05:00 10.8 C 9.19 g/m*3 10.8 C 3.2 km/h
Sensor: Nr:Datum:Temp:Abs-Feuchte:Windchill:Wind:
Aussen-T/F 51 18-12-2019 04:10:00 10.8 C 9.19 g/m*3 10.8 C 0 km/h
52 18-12-2019 04:15:00 10.8 C 9.19 g/m*3 10.29 C 6.4 km/h
53 18-12-2019 04:20:00 10.7 C 9.13 g/m*3 9.26 C 11.3 km/h
54 18-12-2019 04:25:00 10.6 C 8.98 g/m*3 9.69 C 8.1 km/h
55 18-12-2019 04:30:00 10.5 C 8.92 g/m*3 9.28 C 9.7 km/h
56 18-12-2019 04:35:00 10.4 C 8.87 g/m*3 9.83 C 6.4 km/h
57 18-12-2019 04:40:00 10.3 C 8.71 g/m*3 10.3 C 4.8 km/h
58 18-12-2019 04:45:00 10.3 C 8.71 g/m*3 10.3 C 4.8 km/h
59 18-12-2019 04:50:00 10.2 C 8.66 g/m*3 10.2 C 3.2 km/h
60 18-12-2019 04:55:00 10.2 C 8.66 g/m*3 10.2 C 1.6 km/h
61 18-12-2019 05:00:00 10.1 C 8.61 g/m*3 10.1 C 0 km/h
62 18-12-2019 05:05:00 10.1 C 8.61 g/m*3 10.1 C 0 km/h
63 18-12-2019 05:10:00 10 C 8.55 g/m*3 10 C 3.2 km/h
64 18-12-2019 05:15:00 9.9 C 8.5 g/m*3 9.9 C 0 km/h
65 18-12-2019 05:20:00 9.8 C 8.44 g/m*3 9.8 C 0 km/h
66 18-12-2019 05:25:00 9.7 C 8.39 g/m*3 9.7 C 0 km/h
67 18-12-2019 05:30:00 9.7 C 8.39 g/m*3 9.7 C 1.6 km/h
68 18-12-2019 05:35:00 9.6 C 8.43 g/m*3 9.6 C 0 km/h
69 18-12-2019 05:40:00 9.5 C 8.37 g/m*3 9.5 C 0 km/h
70 18-12-2019 05:45:00 9.4 C 8.32 g/m*3 9.4 C 0 km/h
71 18-12-2019 05:50:00 9.3 C 8.27 g/m*3 9.3 C 0 km/h
72 18-12-2019 05:55:00 9.2 C 8.22 g/m*3 9.2 C 0 km/h
73 18-12-2019 06:00:00 9.2 C 8.3 g/m*3 9.2 C 0 km/h
74 18-12-2019 06:05:00 9.1 C 8.16 g/m*3 9.1 C 1.6 km/h
75 18-12-2019 06:10:00 8.9 C 8.06 g/m*3 8.9 C 1.6 km/h
Sensor: Nr:Datum:Temp:Abs-Feuchte:Windchill:Wind:
Aussen-T/F 76 18-12-2019 06:15:00 8.8 C 8.09 g/m*3 8.8 C 0 km/h
77 18-12-2019 06:20:00 8.8 C 8.09 g/m*3 8.8 C 0 km/h
78 18-12-2019 06:25:00 8.7 C 8.04 g/m*3 8.7 C 1.6 km/h
79 18-12-2019 06:30:00 8.7 C 8.04 g/m*3 8.7 C 0 km/h
80 18-12-2019 06:35:00 8.6 C 7.99 g/m*3 8.6 C 0 km/h
81 18-12-2019 06:40:00 8.6 C 7.99 g/m*3 8.6 C 0 km/h
82 18-12-2019 06:45:00 8.4 C 7.89 g/m*3 8.4 C 0 km/h
83 18-12-2019 06:50:00 8.3 C 7.84 g/m*3 8.3 C 0 km/h
84 18-12-2019 06:55:00 8.3 C 7.84 g/m*3 8.3 C 0 km/h
85 18-12-2019 07:00:00 8.2 C 7.79 g/m*3 8.2 C 0 km/h
86 18-12-2019 07:05:00 8.2 C 7.87 g/m*3 8.2 C 0 km/h
87 18-12-2019 07:10:00 8.1 C 7.82 g/m*3 8.1 C 0 km/h
88 18-12-2019 07:15:00 8.1 C 7.82 g/m*3 8.1 C 0 km/h
89 18-12-2019 07:20:00 8.1 C 7.82 g/m*3 8.1 C 1.6 km/h
90 18-12-2019 07:25:00 8.1 C 7.82 g/m*3 8.1 C 0 km/h
91 18-12-2019 07:30:00 8 C 7.77 g/m*3 8 C 0 km/h
92 18-12-2019 07:35:00 7.9 C 7.72 g/m*3 7.9 C 0 km/h
93 18-12-2019 07:40:00 7.8 C 7.67 g/m*3 7.8 C 0 km/h
94 18-12-2019 07:45:00 7.8 C 7.67 g/m*3 7.8 C 0 km/h
95 18-12-2019 07:50:00 7.8 C 7.67 g/m*3 7.8 C 0 km/h
96 18-12-2019 07:55:00 7.8 C 7.67 g/m*3 7.8 C 0 km/h
97 18-12-2019 08:00:00 7.7 C 7.62 g/m*3 7.7 C 0 km/h
98 18-12-2019 08:05:00 7.7 C 7.62 g/m*3 7.7 C 0 km/h
99 18-12-2019 08:10:00 7.6 C 7.65 g/m*3 7.6 C 0 km/h
100 18-12-2019 08:15:00 7.6 C 7.65 g/m*3 7.6 C 0 km/h
Sensor: Nr:Datum:Temp:Abs-Feuchte:Windchill:Wind:
Aussen-T/F 101 18-12-2019 08:20:00 7.6 C 7.65 g/m*3 7.6 C 0 km/h
102 18-12-2019 08:25:00 7.5 C 7.6 g/m*3 7.5 C 0 km/h
103 18-12-2019 08:30:00 7.4 C 7.55 g/m*3 7.4 C 0 km/h
104 18-12-2019 08:35:00 7.4 C 7.55 g/m*3 7.4 C 0 km/h
105 18-12-2019 08:40:00 7.3 C 7.51 g/m*3 7.3 C 0 km/h
106 18-12-2019 08:45:00 7.3 C 7.51 g/m*3 7.3 C 0 km/h
107 18-12-2019 08:50:00 7.3 C 7.51 g/m*3 7.3 C 0 km/h
108 18-12-2019 08:55:00 7.3 C 7.51 g/m*3 7.3 C 0 km/h
109 18-12-2019 09:00:00 7.4 C 7.55 g/m*3 7.4 C 0 km/h
110 18-12-2019 09:05:00 7.3 C 7.51 g/m*3 7.3 C 0 km/h
111 18-12-2019 09:10:00 7.3 C 7.51 g/m*3 7.3 C 0 km/h
112 18-12-2019 09:15:00 7.2 C 7.46 g/m*3 7.2 C 0 km/h
113 18-12-2019 09:20:00 7.1 C 7.41 g/m*3 7.1 C 0 km/h
114 18-12-2019 09:25:00 7.1 C 7.41 g/m*3 7.1 C 0 km/h
115 18-12-2019 09:30:00 7.2 C 7.54 g/m*3 7.2 C 0 km/h
116 18-12-2019 09:35:00 7.3 C 7.58 g/m*3 7.3 C 0 km/h
117 18-12-2019 09:40:00 7.3 C 7.58 g/m*3 7.3 C 0 km/h
118 18-12-2019 09:45:00 7.4 C 7.63 g/m*3 7.4 C 0 km/h
119 18-12-2019 09:50:00 7.4 C 7.63 g/m*3 7.4 C 0 km/h
120 18-12-2019 09:55:00 7.5 C 7.68 g/m*3 7.5 C 0 km/h
121 18-12-2019 10:00:00 7.6 C 7.73 g/m*3 7.6 C 0 km/h
122 18-12-2019 10:05:00 7.6 C 7.73 g/m*3 7.6 C 0 km/h
123 18-12-2019 10:10:00 7.7 C 7.78 g/m*3 7.7 C 0 km/h
124 18-12-2019 10:15:00 7.7 C 7.78 g/m*3 7.7 C 0 km/h
125 18-12-2019 10:20:00 7.8 C 7.83 g/m*3 7.8 C 1.6 km/h
Sensor: Nr:Datum:Temp:Abs-Feuchte:Windchill:Wind:
Aussen-T/F 126 18-12-2019 10:25:00 7.8 C 7.83 g/m*3 7.8 C 0 km/h
127 18-12-2019 10:30:00 7.9 C 7.89 g/m*3 7.9 C 0 km/h
128 18-12-2019 10:35:00 7.9 C 7.89 g/m*3 7.9 C 0 km/h
129 18-12-2019 10:40:00 7.9 C 7.89 g/m*3 7.9 C 0 km/h
130 18-12-2019 10:45:00 7.9 C 7.89 g/m*3 7.9 C 0 km/h
131 18-12-2019 10:50:00 7.9 C 7.89 g/m*3 7.9 C 0 km/h
132 18-12-2019 10:55:00 7.8 C 7.83 g/m*3 7.8 C 0 km/h
133 18-12-2019 11:00:00 7.7 C 7.7 g/m*3 7.7 C 3.2 km/h
134 18-12-2019 11:05:00 7.7 C 7.7 g/m*3 7.7 C 0 km/h
135 18-12-2019 11:10:00 7.6 C 7.65 g/m*3 7.6 C 0 km/h
136 18-12-2019 11:15:00 7.6 C 7.65 g/m*3 7.6 C 1.6 km/h
137 18-12-2019 11:20:00 7.6 C 7.65 g/m*3 7.6 C 0 km/h
138 18-12-2019 11:25:00 7.5 C 7.6 g/m*3 7.5 C 0 km/h
139 18-12-2019 11:30:00 7.4 C 7.55 g/m*3 7.4 C 3.2 km/h
140 18-12-2019 11:35:00 7.5 C 7.6 g/m*3 7.5 C 0 km/h
141 18-12-2019 11:40:00 7.6 C 7.65 g/m*3 7.6 C 1.6 km/h
142 18-12-2019 11:45:00 7.6 C 7.65 g/m*3 7.6 C 1.6 km/h
143 18-12-2019 11:50:00 7.7 C 7.7 g/m*3 7.7 C 0 km/h
144 18-12-2019 11:55:00 7.8 C 7.83 g/m*3 7.8 C 1.6 km/h
145 18-12-2019 12:00:00 7.9 C 7.8 g/m*3 7.9 C 4.8 km/h
146 18-12-2019 12:05:00 8.1 C 7.9 g/m*3 8.1 C 3.2 km/h
147 18-12-2019 12:10:00 8.2 C 7.96 g/m*3 8.2 C 1.6 km/h
148 18-12-2019 12:15:00 8.2 C 7.96 g/m*3 8.2 C 3.2 km/h
149 18-12-2019 12:20:00 8.3 C 7.92 g/m*3 7.41 C 6.4 km/h
150 18-12-2019 12:25:00 8.4 C 7.97 g/m*3 8.4 C 3.2 km/h
Sensor: Nr:Datum:Temp:Abs-Feuchte:Windchill:Wind:
Aussen-T/F 151 18-12-2019 12:30:00 8.4 C 7.97 g/m*3 8.4 C 3.2 km/h
152 18-12-2019 12:35:00 8.5 C 7.85 g/m*3 6.9 C 9.7 km/h
153 18-12-2019 12:40:00 8.6 C 7.82 g/m*3 7.01 C 9.7 km/h
154 18-12-2019 12:45:00 8.8 C 7.83 g/m*3 7.58 C 8.1 km/h
155 18-12-2019 12:50:00 8.9 C 7.88 g/m*3 7.37 C 9.7 km/h
156 18-12-2019 12:55:00 8.9 C 7.88 g/m*3 8.9 C 3.2 km/h
157 18-12-2019 13:00:00 8.9 C 7.88 g/m*3 8.9 C 4.8 km/h
158 18-12-2019 13:05:00 8.8 C 7.83 g/m*3 8.8 C 3.2 km/h
159 18-12-2019 13:10:00 8.8 C 7.83 g/m*3 8.8 C 4.8 km/h
160 18-12-2019 13:15:00 8.8 C 7.83 g/m*3 8.8 C 3.2 km/h
161 18-12-2019 13:20:00 8.7 C 7.78 g/m*3 8.7 C 1.6 km/h
162 18-12-2019 13:25:00 8.7 C 7.78 g/m*3 8.7 C 0 km/h
163 18-12-2019 13:30:00 8.7 C 7.78 g/m*3 8.7 C 1.6 km/h
164 18-12-2019 13:35:00 8.6 C 7.73 g/m*3 8.6 C 0 km/h
165 18-12-2019 13:40:00 8.6 C 7.82 g/m*3 8.6 C 1.6 km/h
166 18-12-2019 13:45:00 8.5 C 7.77 g/m*3 8.5 C 0 km/h
167 18-12-2019 13:50:00 8.5 C 7.77 g/m*3 8.5 C 1.6 km/h
168 18-12-2019 13:55:00 8.4 C 7.72 g/m*3 8.4 C 1.6 km/h
169 18-12-2019 14:00:00 8.4 C 7.8 g/m*3 8.4 C 1.6 km/h
170 18-12-2019 14:05:00 8.4 C 7.8 g/m*3 8.4 C 1.6 km/h
171 18-12-2019 14:10:00 8.3 C 7.75 g/m*3 8.3 C 1.6 km/h
172 18-12-2019 14:15:00 8.3 C 7.75 g/m*3 8.3 C 1.6 km/h
173 18-12-2019 14:20:00 8.3 C 7.75 g/m*3 8.3 C 1.6 km/h
174 18-12-2019 14:25:00 8.3 C 7.75 g/m*3 8.3 C 1.6 km/h
175 18-12-2019 14:30:00 8.2 C 7.7 g/m*3 8.2 C 1.6 km/h
Sensor: Nr:Datum:Temp:Abs-Feuchte:Windchill:Wind:
Aussen-T/F 176 18-12-2019 14:35:00 8.1 C 7.66 g/m*3 8.1 C 1.6 km/h
177 18-12-2019 14:40:00 8.1 C 7.66 g/m*3 8.1 C 0 km/h
178 18-12-2019 14:45:00 7.9 C 7.56 g/m*3 7.9 C 0 km/h
179 18-12-2019 14:50:00 7.9 C 7.56 g/m*3 7.9 C 0 km/h
180 18-12-2019 14:55:00 7.9 C 7.64 g/m*3 7.9 C 1.6 km/h
181 18-12-2019 15:00:00 7.8 C 7.59 g/m*3 7.8 C 1.6 km/h
182 18-12-2019 15:05:00 7.8 C 7.59 g/m*3 7.8 C 3.2 km/h
183 18-12-2019 15:10:00 7.7 C 7.54 g/m*3 7.7 C 3.2 km/h
184 18-12-2019 15:15:00 7.7 C 7.54 g/m*3 7.7 C 3.2 km/h
185 18-12-2019 15:20:00 7.7 C 7.54 g/m*3 7.7 C 1.6 km/h
186 18-12-2019 15:25:00 7.6 C 7.49 g/m*3 7.6 C 1.6 km/h
187 18-12-2019 15:30:00 7.5 C 7.44 g/m*3 7.5 C 0 km/h
188 18-12-2019 15:35:00 7.4 C 7.4 g/m*3 7.4 C 3.2 km/h
189 18-12-2019 15:40:00 7.4 C 7.4 g/m*3 7.4 C 0 km/h
190 18-12-2019 15:45:00 7.4 C 7.48 g/m*3 7.4 C 3.2 km/h
191 18-12-2019 15:50:00 7.3 C 7.43 g/m*3 7.3 C 3.2 km/h
192 18-12-2019 15:55:00 7.3 C 7.35 g/m*3 7.3 C 3.2 km/h
193 18-12-2019 16:00:00 7.2 C 7.3 g/m*3 7.2 C 3.2 km/h
194 18-12-2019 16:05:00 7.2 C 7.38 g/m*3 7.2 C 3.2 km/h
195 18-12-2019 16:10:00 7.1 C 7.33 g/m*3 7.1 C 3.2 km/h
196 18-12-2019 16:15:00 7.1 C 7.33 g/m*3 7.1 C 4.8 km/h
197 18-12-2019 16:20:00 7.1 C 7.33 g/m*3 7.1 C 4.8 km/h
198 18-12-2019 16:25:00 7 C 7.28 g/m*3 7 C 4.8 km/h
199 18-12-2019 16:30:00 6.9 C 7.16 g/m*3 6.9 C 4.8 km/h
200 18-12-2019 16:35:00 6.8 C 7.19 g/m*3 6.8 C 4.8 km/h
Sensor: Nr:Datum:Temp:Abs-Feuchte:Windchill:Wind:
Aussen-T/F 201 18-12-2019 16:40:00 6.7 C 7.14 g/m*3 6.7 C 3.2 km/h
202 18-12-2019 16:45:00 6.6 C 7.1 g/m*3 6.6 C 3.2 km/h
203 18-12-2019 16:50:00 6.5 C 7.05 g/m*3 6.5 C 3.2 km/h
204 18-12-2019 16:55:00 6.4 C 7 g/m*3 6.4 C 3.2 km/h
205 18-12-2019 17:00:00 6.4 C 7 g/m*3 6.4 C 3.2 km/h
206 18-12-2019 17:05:00 6.3 C 6.96 g/m*3 6.3 C 3.2 km/h
207 18-12-2019 17:10:00 6.3 C 6.96 g/m*3 6.3 C 3.2 km/h
208 18-12-2019 17:15:00 6.2 C 6.91 g/m*3 6.2 C 3.2 km/h
209 18-12-2019 17:20:00 6.1 C 6.87 g/m*3 6.1 C 1.6 km/h
210 18-12-2019 17:25:00 6 C 6.82 g/m*3 6 C 1.6 km/h
211 18-12-2019 17:30:00 5.9 C 6.78 g/m*3 5.9 C 0 km/h
212 18-12-2019 17:35:00 5.8 C 6.73 g/m*3 5.8 C 0 km/h
213 18-12-2019 17:40:00 5.7 C 6.69 g/m*3 5.7 C 0 km/h
214 18-12-2019 17:45:00 5.6 C 6.65 g/m*3 5.6 C 1.6 km/h
215 18-12-2019 17:50:00 5.5 C 6.6 g/m*3 5.5 C 0 km/h
216 18-12-2019 17:55:00 5.4 C 6.56 g/m*3 5.4 C 0 km/h
217 18-12-2019 18:00:00 5.3 C 6.52 g/m*3 5.3 C 1.6 km/h
218 18-12-2019 18:05:00 5.2 C 6.54 g/m*3 5.2 C 0 km/h
219 18-12-2019 18:10:00 5.2 C 6.54 g/m*3 5.2 C 0 km/h
220 18-12-2019 18:15:00 5.2 C 6.54 g/m*3 5.2 C 1.6 km/h
221 18-12-2019 18:20:00 5.2 C 6.54 g/m*3 5.2 C 0 km/h
222 18-12-2019 18:25:00 5.3 C 6.58 g/m*3 5.3 C 1.6 km/h
223 18-12-2019 18:30:00 5.4 C 6.7 g/m*3 5.4 C 0 km/h
224 18-12-2019 18:35:00 5.6 C 6.79 g/m*3 5.6 C 0 km/h
225 18-12-2019 18:40:00 5.6 C 6.79 g/m*3 5.6 C 3.2 km/h
Sensor: Nr:Datum:Temp:Abs-Feuchte:Windchill:Wind:
Aussen-T/F 226 18-12-2019 18:45:00 5.5 C 6.74 g/m*3 5.5 C 0 km/h
227 18-12-2019 18:50:00 5.6 C 6.79 g/m*3 5.6 C 1.6 km/h
228 18-12-2019 18:55:00 5.7 C 6.83 g/m*3 5.7 C 3.2 km/h
229 18-12-2019 19:00:00 5.7 C 6.83 g/m*3 5.7 C 3.2 km/h
230 18-12-2019 19:05:00 5.7 C 6.83 g/m*3 5.7 C 3.2 km/h
231 18-12-2019 19:10:00 5.7 C 6.83 g/m*3 5.7 C 1.6 km/h
232 18-12-2019 19:15:00 5.7 C 6.83 g/m*3 5.7 C 1.6 km/h
233 18-12-2019 19:20:00 5.6 C 6.79 g/m*3 5.6 C 0 km/h
234 18-12-2019 19:25:00 5.5 C 6.74 g/m*3 5.5 C 3.2 km/h
235 18-12-2019 19:30:00 5.5 C 6.74 g/m*3 5.5 C 0 km/h
236 18-12-2019 19:35:00 5.6 C 6.79 g/m*3 5.6 C 0 km/h
237 18-12-2019 19:40:00 5.5 C 6.74 g/m*3 5.5 C 0 km/h
238 18-12-2019 19:45:00 5.6 C 6.79 g/m*3 5.6 C 1.6 km/h
239 18-12-2019 19:50:00 5.5 C 6.74 g/m*3 5.5 C 0 km/h
240 18-12-2019 19:55:00 5.4 C 6.7 g/m*3 5.4 C 1.6 km/h
241 18-12-2019 20:00:00 5.4 C 6.7 g/m*3 5.4 C 0 km/h
242 18-12-2019 20:05:00 5.5 C 6.74 g/m*3 5.5 C 0 km/h
243 18-12-2019 20:10:00 5.6 C 6.79 g/m*3 5.6 C 4.8 km/h
244 18-12-2019 20:15:00 5.6 C 6.79 g/m*3 5.6 C 3.2 km/h
245 18-12-2019 20:20:00 5.5 C 6.74 g/m*3 5.5 C 1.6 km/h
246 18-12-2019 20:25:00 5.4 C 6.7 g/m*3 5.4 C 1.6 km/h
247 18-12-2019 20:30:00 5.4 C 6.7 g/m*3 5.4 C 3.2 km/h
248 18-12-2019 20:35:00 5.4 C 6.7 g/m*3 5.4 C 1.6 km/h
249 18-12-2019 20:40:00 5.3 C 6.65 g/m*3 5.3 C 0 km/h
250 18-12-2019 20:45:00 5.3 C 6.65 g/m*3 5.3 C 0 km/h
Sensor: Nr:Datum:Temp:Abs-Feuchte:Windchill:Wind:
Aussen-T/F 251 18-12-2019 20:50:00 5.2 C 6.61 g/m*3 5.2 C 1.6 km/h
252 18-12-2019 20:55:00 5.1 C 6.57 g/m*3 5.1 C 0 km/h
253 18-12-2019 21:00:00 4.9 C 6.48 g/m*3 4.9 C 0 km/h
254 18-12-2019 21:05:00 4.9 C 6.48 g/m*3 4.9 C 0 km/h
255 18-12-2019 21:10:00 4.9 C 6.48 g/m*3 4.9 C 0 km/h
256 18-12-2019 21:15:00 4.8 C 6.44 g/m*3 4.8 C 0 km/h
257 18-12-2019 21:20:00 4.8 C 6.44 g/m*3 4.8 C 0 km/h
258 18-12-2019 21:25:00 4.8 C 6.44 g/m*3 4.8 C 0 km/h
259 18-12-2019 21:30:00 4.8 C 6.44 g/m*3 4.8 C 0 km/h
260 18-12-2019 21:35:00 4.7 C 6.39 g/m*3 4.7 C 0 km/h
261 18-12-2019 21:40:00 4.7 C 6.39 g/m*3 4.7 C 0 km/h
262 18-12-2019 21:45:00 4.6 C 6.35 g/m*3 4.6 C 0 km/h
263 18-12-2019 21:50:00 4.6 C 6.35 g/m*3 4.6 C 0 km/h
264 18-12-2019 21:55:00 4.4 C 6.27 g/m*3 4.4 C 0 km/h
265 18-12-2019 22:00:00 4.3 C 6.23 g/m*3 4.3 C 0 km/h
266 18-12-2019 22:05:00 4.3 C 6.23 g/m*3 4.3 C 1.6 km/h
267 18-12-2019 22:10:00 4.3 C 6.23 g/m*3 4.3 C 0 km/h
268 18-12-2019 22:15:00 4.3 C 6.23 g/m*3 4.3 C 0 km/h
269 18-12-2019 22:20:00 4.2 C 6.19 g/m*3 4.2 C 0 km/h
270 18-12-2019 22:25:00 4 C 6.1 g/m*3 4 C 0 km/h
271 18-12-2019 22:30:00 3.9 C 6.06 g/m*3 3.9 C 0 km/h
272 18-12-2019 22:35:00 3.7 C 5.98 g/m*3 3.7 C 0 km/h
273 18-12-2019 22:40:00 3.7 C 5.98 g/m*3 3.7 C 0 km/h
274 18-12-2019 22:45:00 3.7 C 5.98 g/m*3 3.7 C 0 km/h
275 18-12-2019 22:50:00 3.6 C 5.94 g/m*3 3.6 C 0 km/h
Sensor: Nr:Datum:Temp:Abs-Feuchte:Windchill:Wind:
Aussen-T/F 276 18-12-2019 22:55:00 3.5 C 5.9 g/m*3 3.5 C 0 km/h
277 18-12-2019 23:00:00 3.4 C 5.86 g/m*3 3.4 C 0 km/h
278 18-12-2019 23:05:00 3.3 C 5.82 g/m*3 3.3 C 0 km/h
279 18-12-2019 23:10:00 3.4 C 5.86 g/m*3 3.4 C 0 km/h
280 18-12-2019 23:15:00 3.4 C 5.86 g/m*3 3.4 C 0 km/h
281 18-12-2019 23:20:00 3.5 C 5.96 g/m*3 3.5 C 0 km/h
282 18-12-2019 23:25:00 3.4 C 5.92 g/m*3 3.4 C 0 km/h
283 18-12-2019 23:30:00 3.3 C 5.82 g/m*3 3.3 C 0 km/h
284 18-12-2019 23:35:00 3.3 C 5.82 g/m*3 3.3 C 0 km/h
285 18-12-2019 23:40:00 3.2 C 5.79 g/m*3 3.2 C 0 km/h
286 18-12-2019 23:45:00 3.2 C 5.79 g/m*3 3.2 C 0 km/h
287 18-12-2019 23:50:00 3.2 C 5.79 g/m*3 3.2 C 0 km/h
288 18-12-2019 23:55:00 3.2 C 5.79 g/m*3 3.2 C 0 km/h
289 19-12-2019 00:00:00 3.1 C 5.81 g/m*3 3.1 C 0 km/h
290 19-12-2019 00:05:00 3.2 C 5.85 g/m*3 3.2 C 0 km/h
291 19-12-2019 00:10:00 3.1 C 5.81 g/m*3 3.1 C 0 km/h
292 19-12-2019 00:15:00 3.1 C 5.75 g/m*3 3.1 C 0 km/h
293 19-12-2019 00:20:00 3 C 5.71 g/m*3 3 C 0 km/h
294 19-12-2019 00:25:00 3 C 5.71 g/m*3 3 C 0 km/h
295 19-12-2019 00:30:00 2.9 C 5.73 g/m*3 2.9 C 0 km/h
296 19-12-2019 00:35:00 2.9 C 5.73 g/m*3 2.9 C 0 km/h
297 19-12-2019 00:40:00 3.1 C 5.81 g/m*3 3.1 C 1.6 km/h
298 19-12-2019 00:45:00 3.1 C 5.81 g/m*3 3.1 C 0 km/h
299 19-12-2019 00:50:00 3.1 C 5.81 g/m*3 3.1 C 0 km/h
300 19-12-2019 00:55:00 3.1 C 5.81 g/m*3 3.1 C 0 km/h
Sensor: Nr:Datum:Temp:Abs-Feuchte:Windchill:Wind:
Aussen-T/F 301 19-12-2019 01:00:00 3.1 C 5.81 g/m*3 3.1 C 0 km/h
302 19-12-2019 01:05:00 3 C 5.77 g/m*3 3 C 0 km/h
303 19-12-2019 01:10:00 2.9 C 5.73 g/m*3 2.9 C 0 km/h
304 19-12-2019 01:15:00 2.9 C 5.73 g/m*3 2.9 C 0 km/h
305 19-12-2019 01:20:00 2.9 C 5.73 g/m*3 2.9 C 0 km/h
306 19-12-2019 01:25:00 2.9 C 5.73 g/m*3 2.9 C 0 km/h
307 19-12-2019 01:30:00 2.8 C 5.69 g/m*3 2.8 C 0 km/h
308 19-12-2019 01:35:00 2.7 C 5.65 g/m*3 2.7 C 0 km/h
309 19-12-2019 01:40:00 2.7 C 5.65 g/m*3 2.7 C 0 km/h
310 19-12-2019 01:45:00 2.9 C 5.73 g/m*3 2.9 C 3.2 km/h
311 19-12-2019 01:50:00 3.1 C 5.81 g/m*3 3.1 C 1.6 km/h
312 19-12-2019 01:55:00 3.1 C 5.81 g/m*3 3.1 C 0 km/h
313 19-12-2019 02:00:00 3.1 C 5.81 g/m*3 3.1 C 0 km/h
314 19-12-2019 02:05:00 3.1 C 5.81 g/m*3 3.1 C 0 km/h
315 19-12-2019 02:10:00 3 C 5.77 g/m*3 3 C 0 km/h
316 19-12-2019 02:15:00 2.9 C 5.73 g/m*3 2.9 C 0 km/h
317 19-12-2019 02:20:00 2.9 C 5.73 g/m*3 2.9 C 0 km/h
318 19-12-2019 02:25:00 2.8 C 5.69 g/m*3 2.8 C 0 km/h
319 19-12-2019 02:30:00 2.8 C 5.69 g/m*3 2.8 C 0 km/h
320 19-12-2019 02:35:00 2.8 C 5.69 g/m*3 2.8 C 0 km/h
321 19-12-2019 02:40:00 2.8 C 5.69 g/m*3 2.8 C 0 km/h
322 19-12-2019 02:45:00 2.7 C 5.65 g/m*3 2.7 C 0 km/h
323 19-12-2019 02:50:00 2.8 C 5.69 g/m*3 2.8 C 0 km/h
324 19-12-2019 02:55:00 2.8 C 5.69 g/m*3 2.8 C 0 km/h
325 19-12-2019 03:00:00 2.8 C 5.69 g/m*3 2.8 C 0 km/h
Sensor: Nr:Datum:Temp:Abs-Feuchte:Windchill:Wind:
Aussen-T/F 326 19-12-2019 03:05:00 2.7 C 5.65 g/m*3 2.7 C 1.6 km/h
327 19-12-2019 03:10:00 2.7 C 5.65 g/m*3 2.7 C 1.6 km/h
328 19-12-2019 03:15:00 2.7 C 5.65 g/m*3 2.7 C 0 km/h
329 19-12-2019 03:20:00 2.7 C 5.65 g/m*3 2.7 C 0 km/h
330 19-12-2019 03:25:00 2.7 C 5.65 g/m*3 2.7 C 0 km/h
331 19-12-2019 03:30:00 2.7 C 5.65 g/m*3 2.7 C 0 km/h
332 19-12-2019 03:35:00 2.7 C 5.65 g/m*3 2.7 C 0 km/h
333 19-12-2019 03:40:00 2.6 C 5.61 g/m*3 2.6 C 0 km/h
334 19-12-2019 03:45:00 2.6 C 5.61 g/m*3 2.6 C 0 km/h
335 19-12-2019 03:50:00 2.6 C 5.61 g/m*3 2.6 C 0 km/h
336 19-12-2019 03:55:00 2.6 C 5.61 g/m*3 2.6 C 0 km/h
337 19-12-2019 04:00:00 2.6 C 5.61 g/m*3 2.6 C 0 km/h
338 19-12-2019 04:05:00 2.6 C 5.61 g/m*3 2.6 C 0 km/h
339 19-12-2019 04:10:00 2.5 C 5.58 g/m*3 2.5 C 0 km/h
340 19-12-2019 04:15:00 2.4 C 5.54 g/m*3 2.4 C 0 km/h
341 19-12-2019 04:20:00 2.4 C 5.54 g/m*3 2.4 C 0 km/h
342 19-12-2019 04:25:00 2.4 C 5.54 g/m*3 2.4 C 0 km/h
343 19-12-2019 04:30:00 2.4 C 5.54 g/m*3 2.4 C 0 km/h
344 19-12-2019 04:35:00 2.4 C 5.54 g/m*3 2.4 C 0 km/h
345 19-12-2019 04:40:00 2.3 C 5.5 g/m*3 2.3 C 0 km/h
346 19-12-2019 04:45:00 2.3 C 5.5 g/m*3 2.3 C 0 km/h
347 19-12-2019 04:50:00 2.2 C 5.46 g/m*3 2.2 C 0 km/h
348 19-12-2019 04:55:00 2.2 C 5.46 g/m*3 2.2 C 0 km/h
349 19-12-2019 05:00:00 2.2 C 5.46 g/m*3 2.2 C 0 km/h
350 19-12-2019 05:05:00 2.3 C 5.5 g/m*3 2.3 C 0 km/h
Sensor: Nr:Datum:Temp:Abs-Feuchte:Windchill:Wind:
Aussen-T/F 351 19-12-2019 05:10:00 2.2 C 5.46 g/m*3 2.2 C 0 km/h
352 19-12-2019 05:15:00 2.2 C 5.46 g/m*3 2.2 C 0 km/h
353 19-12-2019 05:20:00 2.3 C 5.5 g/m*3 2.3 C 0 km/h
354 19-12-2019 05:25:00 2.3 C 5.5 g/m*3 2.3 C 0 km/h
355 19-12-2019 05:30:00 2.2 C 5.46 g/m*3 2.2 C 0 km/h
356 19-12-2019 05:35:00 2.2 C 5.46 g/m*3 2.2 C 0 km/h
357 19-12-2019 05:40:00 2.1 C 5.43 g/m*3 2.1 C 0 km/h
358 19-12-2019 05:45:00 2.1 C 5.43 g/m*3 2.1 C 0 km/h
359 19-12-2019 05:50:00 2.1 C 5.43 g/m*3 2.1 C 0 km/h
360 19-12-2019 05:55:00 2 C 5.39 g/m*3 2 C 0 km/h
361 19-12-2019 06:00:00 1.9 C 5.35 g/m*3 1.9 C 0 km/h
362 19-12-2019 06:05:00 1.9 C 5.35 g/m*3 1.9 C 0 km/h
363 19-12-2019 06:10:00 1.9 C 5.35 g/m*3 1.9 C 0 km/h
364 19-12-2019 06:15:00 1.9 C 5.35 g/m*3 1.9 C 1.6 km/h
365 19-12-2019 06:20:00 1.9 C 5.35 g/m*3 1.9 C 0 km/h
366 19-12-2019 06:25:00 1.9 C 5.35 g/m*3 1.9 C 0 km/h
367 19-12-2019 06:30:00 1.8 C 5.32 g/m*3 1.8 C 0 km/h
368 19-12-2019 06:35:00 1.9 C 5.35 g/m*3 1.9 C 3.2 km/h
369 19-12-2019 06:40:00 1.9 C 5.35 g/m*3 1.9 C 0 km/h
370 19-12-2019 06:45:00 1.9 C 5.35 g/m*3 1.9 C 0 km/h
371 19-12-2019 06:50:00 1.8 C 5.32 g/m*3 1.8 C 0 km/h
372 19-12-2019 06:55:00 1.8 C 5.32 g/m*3 1.8 C 0 km/h
373 19-12-2019 07:00:00 1.8 C 5.32 g/m*3 1.8 C 1.6 km/h
374 19-12-2019 07:05:00 1.9 C 5.35 g/m*3 1.9 C 0 km/h
375 19-12-2019 07:10:00 1.9 C 5.35 g/m*3 1.9 C 1.6 km/h
Sensor: Nr:Datum:Temp:Abs-Feuchte:Windchill:Wind:
Aussen-T/F 376 19-12-2019 07:15:00 1.8 C 5.32 g/m*3 1.8 C 1.6 km/h
377 19-12-2019 07:20:00 1.9 C 5.35 g/m*3 1.9 C 0 km/h
378 19-12-2019 07:25:00 2.5 C 5.58 g/m*3 2.5 C 3.2 km/h
379 19-12-2019 07:30:00 3.7 C 6.11 g/m*3 3.7 C 3.2 km/h
380 19-12-2019 07:35:00 4.1 C 6.27 g/m*3 2.55 C 6.4 km/h
381 19-12-2019 07:40:00 4.2 C 6.31 g/m*3 4.2 C 3.2 km/h
382 19-12-2019 07:45:00 4.3 C 6.36 g/m*3 4.3 C 3.2 km/h
383 19-12-2019 07:50:00 4.4 C 6.4 g/m*3 4.4 C 1.6 km/h
384 19-12-2019 07:55:00 4.4 C 6.4 g/m*3 4.4 C 1.6 km/h
385 19-12-2019 08:00:00 4.8 C 6.57 g/m*3 4.8 C 1.6 km/h
386 19-12-2019 08:05:00 5.1 C 6.7 g/m*3 5.1 C 0 km/h
387 19-12-2019 08:10:00 5.2 C 6.75 g/m*3 5.2 C 0 km/h
388 19-12-2019 08:15:00 5.1 C 6.7 g/m*3 5.1 C 3.2 km/h
389 19-12-2019 08:20:00 5.4 C 6.84 g/m*3 5.4 C 3.2 km/h
390 19-12-2019 08:25:00 5.1 C 6.7 g/m*3 5.1 C 1.6 km/h
391 19-12-2019 08:30:00 4.9 C 6.62 g/m*3 4.9 C 3.2 km/h
392 19-12-2019 08:35:00 5.2 C 6.75 g/m*3 5.2 C 1.6 km/h
393 19-12-2019 08:40:00 5.2 C 6.75 g/m*3 5.2 C 0 km/h
394 19-12-2019 08:45:00 5.1 C 6.7 g/m*3 5.1 C 0 km/h
395 19-12-2019 08:50:00 4.9 C 6.62 g/m*3 4.9 C 3.2 km/h
396 19-12-2019 08:55:00 4.7 C 6.53 g/m*3 4.7 C 0 km/h
397 19-12-2019 09:00:00 4.6 C 6.48 g/m*3 4.6 C 0 km/h
398 19-12-2019 09:05:00 4.9 C 6.62 g/m*3 4.9 C 3.2 km/h
399 19-12-2019 09:10:00 5.3 C 6.79 g/m*3 5.3 C 3.2 km/h
400 19-12-2019 09:15:00 5.5 C 6.88 g/m*3 5.5 C 4.8 km/h
Sensor: Nr:Datum:Temp:Abs-Feuchte:Windchill:Wind:
Aussen-T/F 401 19-12-2019 09:20:00 5.2 C 6.75 g/m*3 5.2 C 3.2 km/h
402 19-12-2019 09:25:00 5.2 C 6.75 g/m*3 5.2 C 0 km/h
403 19-12-2019 09:30:00 5.3 C 6.79 g/m*3 5.3 C 1.6 km/h
404 19-12-2019 09:35:00 5.3 C 6.79 g/m*3 5.3 C 0 km/h
405 19-12-2019 09:40:00 5.4 C 6.84 g/m*3 5.4 C 0 km/h
406 19-12-2019 09:45:00 5.4 C 6.84 g/m*3 5.4 C 0 km/h
407 19-12-2019 09:50:00 5.4 C 6.84 g/m*3 5.4 C 0 km/h
408 19-12-2019 09:55:00 5.4 C 6.84 g/m*3 5.4 C 0 km/h
409 19-12-2019 10:00:00 5.4 C 6.84 g/m*3 5.4 C 0 km/h
410 19-12-2019 10:05:00 5.6 C 6.93 g/m*3 5.6 C 0 km/h
411 19-12-2019 10:10:00 5.6 C 6.93 g/m*3 5.6 C 0 km/h
412 19-12-2019 10:15:00 5.8 C 7.02 g/m*3 5.8 C 4.8 km/h
413 19-12-2019 10:20:00 6.1 C 7.16 g/m*3 4.4 C 8.1 km/h
414 19-12-2019 10:25:00 6.3 C 7.25 g/m*3 6.3 C 3.2 km/h
415 19-12-2019 10:30:00 6.9 C 7.54 g/m*3 5.34 C 8.1 km/h
416 19-12-2019 10:35:00 7.6 C 7.9 g/m*3 6.6 C 6.4 km/h
417 19-12-2019 10:40:00 8 C 8.1 g/m*3 7.06 C 6.4 km/h
418 19-12-2019 10:45:00 8.1 C 8.15 g/m*3 7.17 C 6.4 km/h
419 19-12-2019 10:50:00 7.9 C 8.05 g/m*3 7.9 C 3.2 km/h
420 19-12-2019 10:55:00 7.8 C 8 g/m*3 7.8 C 3.2 km/h
421 19-12-2019 11:00:00 7.6 C 7.9 g/m*3 7.6 C 1.6 km/h
422 19-12-2019 11:05:00 7.5 C 7.84 g/m*3 7.5 C 0 km/h
423 19-12-2019 11:10:00 7.3 C 7.74 g/m*3 7.3 C 3.2 km/h
424 19-12-2019 11:15:00 7.3 C 7.74 g/m*3 7.3 C 3.2 km/h
425 19-12-2019 11:20:00 7.2 C 7.69 g/m*3 7.2 C 1.6 km/h
Sensor: Nr:Datum:Temp:Abs-Feuchte:Windchill:Wind:
Aussen-T/F 426 19-12-2019 11:25:00 7.2 C 7.69 g/m*3 7.2 C 1.6 km/h
427 19-12-2019 11:30:00 7.2 C 7.69 g/m*3 7.2 C 3.2 km/h
428 19-12-2019 11:35:00 7.2 C 7.69 g/m*3 7.2 C 3.2 km/h
429 19-12-2019 11:40:00 7.3 C 7.74 g/m*3 7.3 C 1.6 km/h
430 19-12-2019 11:45:00 7.4 C 7.79 g/m*3 7.4 C 4.8 km/h
431 19-12-2019 11:50:00 7.5 C 7.84 g/m*3 7.5 C 1.6 km/h
432 19-12-2019 11:55:00 7.5 C 7.84 g/m*3 7.5 C 0 km/h
433 19-12-2019 12:00:00 7.4 C 7.79 g/m*3 7.4 C 0 km/h
434 19-12-2019 12:05:00 7.4 C 7.79 g/m*3 7.4 C 0 km/h
435 19-12-2019 12:10:00 7.4 C 7.79 g/m*3 7.4 C 0 km/h
436 19-12-2019 12:15:00 7.4 C 7.79 g/m*3 7.4 C 0 km/h
437 19-12-2019 12:20:00 7.5 C 7.84 g/m*3 7.5 C 1.6 km/h
438 19-12-2019 12:25:00 7.6 C 7.9 g/m*3 7.6 C 1.6 km/h
439 19-12-2019 12:30:00 7.6 C 7.9 g/m*3 6.16 C 8.1 km/h
440 19-12-2019 12:35:00 7.7 C 7.95 g/m*3 7.7 C 1.6 km/h
441 19-12-2019 12:40:00 7.8 C 8 g/m*3 7.8 C 1.6 km/h
442 19-12-2019 12:45:00 7.7 C 7.95 g/m*3 7.7 C 3.2 km/h
443 19-12-2019 12:50:00 7.8 C 8 g/m*3 7.8 C 1.6 km/h
444 19-12-2019 12:55:00 7.8 C 8 g/m*3 7.8 C 3.2 km/h
445 19-12-2019 13:00:00 7.8 C 8 g/m*3 7.8 C 3.2 km/h
446 19-12-2019 13:05:00 7.8 C 8 g/m*3 7.8 C 3.2 km/h
447 19-12-2019 13:10:00 7.9 C 8.05 g/m*3 7.9 C 1.6 km/h
448 19-12-2019 13:15:00 7.9 C 8.05 g/m*3 7.9 C 3.2 km/h
449 19-12-2019 13:20:00 7.9 C 8.05 g/m*3 7.9 C 0 km/h
450 19-12-2019 13:25:00 7.9 C 8.05 g/m*3 7.9 C 3.2 km/h
Sensor: Nr:Datum:Temp:Abs-Feuchte:Windchill:Wind:
Aussen-T/F 451 19-12-2019 13:30:00 7.9 C 8.05 g/m*3 7.9 C 3.2 km/h
452 19-12-2019 13:35:00 7.9 C 8.05 g/m*3 7.9 C 3.2 km/h
453 19-12-2019 13:40:00 7.9 C 8.05 g/m*3 7.9 C 3.2 km/h
454 19-12-2019 13:45:00 7.9 C 8.05 g/m*3 7.9 C 3.2 km/h
455 19-12-2019 13:50:00 7.9 C 8.05 g/m*3 7.9 C 1.6 km/h
456 19-12-2019 13:55:00 7.9 C 8.05 g/m*3 7.9 C 4.8 km/h
457 19-12-2019 14:00:00 7.9 C 8.05 g/m*3 7.9 C 1.6 km/h
458 19-12-2019 14:05:00 7.9 C 8.05 g/m*3 7.9 C 3.2 km/h
459 19-12-2019 14:10:00 7.9 C 8.05 g/m*3 7.9 C 0 km/h
460 19-12-2019 14:15:00 7.9 C 7.97 g/m*3 7.9 C 0 km/h
461 19-12-2019 14:20:00 7.8 C 7.92 g/m*3 7.8 C 1.6 km/h
462 19-12-2019 14:25:00 7.9 C 7.97 g/m*3 7.9 C 1.6 km/h
463 19-12-2019 14:30:00 7.8 C 7.92 g/m*3 7.8 C 1.6 km/h
464 19-12-2019 14:35:00 7.8 C 7.92 g/m*3 7.8 C 1.6 km/h
465 19-12-2019 14:40:00 7.9 C 7.97 g/m*3 6.94 C 6.4 km/h
466 19-12-2019 14:45:00 8.1 C 8.07 g/m*3 7.17 C 6.4 km/h
467 19-12-2019 14:50:00 8.3 C 8.26 g/m*3 8.3 C 3.2 km/h
468 19-12-2019 14:55:00 8.4 C 8.23 g/m*3 7.52 C 6.4 km/h
469 19-12-2019 15:00:00 8.6 C 8.34 g/m*3 7.75 C 6.4 km/h
470 19-12-2019 15:05:00 8.7 C 8.39 g/m*3 7.13 C 9.7 km/h
471 19-12-2019 15:10:00 8.8 C 8.36 g/m*3 6.97 C 11.3 km/h
472 19-12-2019 15:15:00 8.9 C 8.32 g/m*3 7.69 C 8.1 km/h
473 19-12-2019 15:20:00 9.1 C 8.34 g/m*3 7.33 C 11.3 km/h
474 19-12-2019 15:25:00 9.2 C 8.3 g/m*3 8.45 C 6.4 km/h
475 19-12-2019 15:30:00 9.3 C 8.27 g/m*3 7.85 C 9.7 km/h
Sensor: Nr:Datum:Temp:Abs-Feuchte:Windchill:Wind:
Aussen-T/F 476 19-12-2019 15:35:00 9.4 C 8.23 g/m*3 8.28 C 8.1 km/h
477 19-12-2019 15:40:00 9.6 C 8.34 g/m*3 9.6 C 4.8 km/h
478 19-12-2019 15:45:00 9.7 C 8.3 g/m*3 9.02 C 6.4 km/h
479 19-12-2019 15:50:00 9.7 C 8.2 g/m*3 7.61 C 14.5 km/h
480 19-12-2019 15:55:00 9.8 C 8.16 g/m*3 9.14 C 6.4 km/h
481 19-12-2019 16:00:00 9.8 C 8.16 g/m*3 9.14 C 6.4 km/h
482 19-12-2019 16:05:00 9.9 C 8.12 g/m*3 8.87 C 8.1 km/h
483 19-12-2019 16:10:00 9.8 C 8.07 g/m*3 8.18 C 11.3 km/h
484 19-12-2019 16:15:00 9.8 C 8.07 g/m*3 8.75 C 8.1 km/h
485 19-12-2019 16:20:00 9.7 C 8.02 g/m*3 8.63 C 8.1 km/h
486 19-12-2019 16:25:00 9.6 C 7.97 g/m*3 8.52 C 8.1 km/h
487 19-12-2019 16:30:00 9.6 C 7.97 g/m*3 8.21 C 9.7 km/h
488 19-12-2019 16:35:00 9.5 C 7.92 g/m*3 8.09 C 9.7 km/h
489 19-12-2019 16:40:00 9.5 C 7.92 g/m*3 8.4 C 8.1 km/h
490 19-12-2019 16:45:00 9.5 C 7.92 g/m*3 7.82 C 11.3 km/h
491 19-12-2019 16:50:00 9.4 C 7.87 g/m*3 9.4 C 4.8 km/h
492 19-12-2019 16:55:00 9.3 C 7.73 g/m*3 9.3 C 4.8 km/h
493 19-12-2019 17:00:00 9.2 C 7.77 g/m*3 9.2 C 4.8 km/h
494 19-12-2019 17:05:00 9 C 7.58 g/m*3 9 C 0 km/h
495 19-12-2019 17:10:00 8.6 C 7.39 g/m*3 8.6 C 3.2 km/h
496 19-12-2019 17:15:00 8.2 C 7.29 g/m*3 8.2 C 0 km/h
497 19-12-2019 17:20:00 7.9 C 7.23 g/m*3 7.9 C 0 km/h
498 19-12-2019 17:25:00 7.6 C 7.17 g/m*3 7.6 C 0 km/h
499 19-12-2019 17:30:00 7.3 C 7.03 g/m*3 7.3 C 0 km/h
500 19-12-2019 17:35:00 7.1 C 7.02 g/m*3 7.1 C 0 km/h
Sensor: Nr:Datum:Temp:Abs-Feuchte:Windchill:Wind:
Aussen-T/F 501 19-12-2019 17:40:00 6.8 C 6.88 g/m*3 6.8 C 0 km/h
502 19-12-2019 17:45:00 6.6 C 6.87 g/m*3 6.6 C 0 km/h
503 19-12-2019 17:50:00 6.5 C 6.9 g/m*3 6.5 C 0 km/h
504 19-12-2019 17:55:00 6.4 C 6.93 g/m*3 6.4 C 1.6 km/h
505 19-12-2019 18:00:00 6.3 C 6.88 g/m*3 6.3 C 1.6 km/h
506 19-12-2019 18:05:00 6.3 C 6.96 g/m*3 6.3 C 3.2 km/h
507 19-12-2019 18:10:00 6.3 C 6.96 g/m*3 6.3 C 1.6 km/h
508 19-12-2019 18:15:00 6.3 C 6.96 g/m*3 6.3 C 3.2 km/h
509 19-12-2019 18:20:00 6.3 C 6.96 g/m*3 6.3 C 3.2 km/h
510 19-12-2019 18:25:00 6.3 C 6.96 g/m*3 6.3 C 1.6 km/h
511 19-12-2019 18:30:00 6.3 C 6.96 g/m*3 6.3 C 0 km/h
512 19-12-2019 18:35:00 6.3 C 6.96 g/m*3 6.3 C 0 km/h
513 19-12-2019 18:40:00 6.3 C 7.03 g/m*3 6.3 C 0 km/h
514 19-12-2019 18:45:00 6.3 C 7.03 g/m*3 6.3 C 3.2 km/h
515 19-12-2019 18:50:00 6.3 C 7.03 g/m*3 6.3 C 1.6 km/h
516 19-12-2019 18:55:00 6.4 C 7.08 g/m*3 6.4 C 3.2 km/h
517 19-12-2019 19:00:00 6.6 C 7.17 g/m*3 6.6 C 0 km/h
518 19-12-2019 19:05:00 6.7 C 7.22 g/m*3 6.7 C 0 km/h
519 19-12-2019 19:10:00 6.7 C 7.22 g/m*3 6.7 C 0 km/h
520 19-12-2019 19:15:00 6.4 C 7 g/m*3 6.4 C 0 km/h
521 19-12-2019 19:20:00 6.3 C 6.96 g/m*3 6.3 C 0 km/h
522 19-12-2019 19:25:00 6.2 C 6.99 g/m*3 6.2 C 0 km/h
523 19-12-2019 19:30:00 6.2 C 6.99 g/m*3 6.2 C 0 km/h
524 19-12-2019 19:35:00 6.1 C 6.94 g/m*3 6.1 C 0 km/h
525 19-12-2019 19:40:00 6 C 6.82 g/m*3 6 C 0 km/h
Sensor: Nr:Datum:Temp:Abs-Feuchte:Windchill:Wind:
Aussen-T/F 526 19-12-2019 19:45:00 6.1 C 6.94 g/m*3 6.1 C 0 km/h
527 19-12-2019 19:50:00 6.1 C 6.94 g/m*3 6.1 C 1.6 km/h
528 19-12-2019 19:55:00 6.1 C 6.94 g/m*3 6.1 C 4.8 km/h
529 19-12-2019 20:00:00 6.1 C 6.94 g/m*3 6.1 C 3.2 km/h
530 19-12-2019 20:05:00 6.1 C 6.94 g/m*3 6.1 C 3.2 km/h
531 19-12-2019 20:10:00 6.2 C 6.99 g/m*3 6.2 C 3.2 km/h
532 19-12-2019 20:15:00 6.1 C 6.94 g/m*3 6.1 C 0 km/h
533 19-12-2019 20:20:00 6 C 6.9 g/m*3 6 C 1.6 km/h
534 19-12-2019 20:25:00 5.9 C 6.85 g/m*3 5.9 C 0 km/h
535 19-12-2019 20:30:00 6 C 6.9 g/m*3 6 C 1.6 km/h
536 19-12-2019 20:35:00 6.2 C 7.06 g/m*3 6.2 C 4.8 km/h
537 19-12-2019 20:40:00 6.4 C 7.15 g/m*3 3.8 C 12.9 km/h
538 19-12-2019 20:45:00 6.6 C 7.25 g/m*3 6.6 C 4.8 km/h
539 19-12-2019 20:50:00 6.6 C 7.25 g/m*3 6.6 C 4.8 km/h
540 19-12-2019 20:55:00 6.6 C 7.17 g/m*3 6.6 C 4.8 km/h
541 19-12-2019 21:00:00 6.6 C 7.17 g/m*3 6.6 C 3.2 km/h
542 19-12-2019 21:05:00 6.6 C 7.17 g/m*3 6.6 C 3.2 km/h
543 19-12-2019 21:10:00 6.5 C 7.12 g/m*3 6.5 C 3.2 km/h
544 19-12-2019 21:15:00 6.6 C 7.17 g/m*3 6.6 C 1.6 km/h
545 19-12-2019 21:20:00 6.6 C 7.17 g/m*3 6.6 C 0 km/h
546 19-12-2019 21:25:00 6.7 C 7.22 g/m*3 6.7 C 3.2 km/h
547 19-12-2019 21:30:00 6.7 C 7.22 g/m*3 6.7 C 0 km/h
548 19-12-2019 21:35:00 6.7 C 7.22 g/m*3 6.7 C 1.6 km/h
549 19-12-2019 21:40:00 6.7 C 7.22 g/m*3 5.56 C 6.4 km/h
550 19-12-2019 21:45:00 6.7 C 7.22 g/m*3 6.7 C 0 km/h
Sensor: Nr:Datum:Temp:Abs-Feuchte:Windchill:Wind:
Aussen-T/F 551 19-12-2019 21:50:00 6.7 C 7.29 g/m*3 6.7 C 0 km/h
552 19-12-2019 21:55:00 6.8 C 7.34 g/m*3 6.8 C 0 km/h
553 19-12-2019 22:00:00 6.7 C 7.22 g/m*3 6.7 C 0 km/h
554 19-12-2019 22:05:00 6.7 C 7.22 g/m*3 6.7 C 0 km/h
555 19-12-2019 22:10:00 6.7 C 7.22 g/m*3 6.7 C 3.2 km/h
556 19-12-2019 22:15:00 6.8 C 7.34 g/m*3 6.8 C 1.6 km/h
557 19-12-2019 22:20:00 6.9 C 7.39 g/m*3 6.9 C 1.6 km/h
558 19-12-2019 22:25:00 7 C 7.44 g/m*3 7 C 0 km/h
559 19-12-2019 22:30:00 7.1 C 7.49 g/m*3 7.1 C 0 km/h
560 19-12-2019 22:35:00 6.9 C 7.31 g/m*3 6.9 C 0 km/h
561 19-12-2019 22:40:00 6.8 C 7.27 g/m*3 6.8 C 0 km/h
562 19-12-2019 22:45:00 6.7 C 7.22 g/m*3 6.7 C 0 km/h
563 19-12-2019 22:50:00 6.5 C 7.12 g/m*3 6.5 C 0 km/h
564 19-12-2019 22:55:00 6.3 C 6.96 g/m*3 6.3 C 0 km/h
565 19-12-2019 23:00:00 6.3 C 7.03 g/m*3 6.3 C 0 km/h
566 19-12-2019 23:05:00 6.2 C 6.99 g/m*3 6.2 C 0 km/h
567 19-12-2019 23:10:00 6.2 C 6.99 g/m*3 6.2 C 0 km/h
568 19-12-2019 23:15:00 6.2 C 6.99 g/m*3 6.2 C 0 km/h
569 19-12-2019 23:20:00 6.3 C 7.11 g/m*3 6.3 C 0 km/h
570 19-12-2019 23:25:00 6.4 C 7.15 g/m*3 6.4 C 0 km/h
571 19-12-2019 23:30:00 6.4 C 7.15 g/m*3 6.4 C 0 km/h
572 19-12-2019 23:35:00 6.4 C 7.15 g/m*3 6.4 C 0 km/h
573 19-12-2019 23:40:00 6.4 C 7.15 g/m*3 6.4 C 3.2 km/h
574 19-12-2019 23:45:00 6.4 C 7.15 g/m*3 6.4 C 0 km/h
575 19-12-2019 23:50:00 6.3 C 7.11 g/m*3 6.3 C 0 km/h
Sensor: Nr:Datum:Temp:Abs-Feuchte:Windchill:Wind:
Aussen-T/F 576 19-12-2019 23:55:00 6.3 C 7.03 g/m*3 6.3 C 0 km/h
577 20-12-2019 00:00:00 6.1 C 6.94 g/m*3 6.1 C 0 km/h
578 20-12-2019 00:05:00 5.9 C 6.85 g/m*3 5.9 C 3.2 km/h
579 20-12-2019 00:10:00 5.8 C 6.81 g/m*3 5.8 C 1.6 km/h
580 20-12-2019 00:15:00 5.7 C 6.76 g/m*3 5.7 C 0 km/h
581 20-12-2019 00:20:00 5.5 C 6.67 g/m*3 5.5 C 0 km/h
582 20-12-2019 00:25:00 5.4 C 6.63 g/m*3 5.4 C 3.2 km/h
583 20-12-2019 00:30:00 5.4 C 6.63 g/m*3 5.4 C 3.2 km/h
584 20-12-2019 00:35:00 5.4 C 6.63 g/m*3 5.4 C 3.2 km/h
585 20-12-2019 00:40:00 5.2 C 6.54 g/m*3 5.2 C 1.6 km/h
586 20-12-2019 00:45:00 5.1 C 6.5 g/m*3 5.1 C 1.6 km/h
587 20-12-2019 00:50:00 5 C 6.46 g/m*3 5 C 0 km/h
588 20-12-2019 00:55:00 4.8 C 6.37 g/m*3 4.8 C 0 km/h
589 20-12-2019 01:00:00 4.7 C 6.33 g/m*3 4.7 C 0 km/h
590 20-12-2019 01:05:00 4.5 C 6.24 g/m*3 4.5 C 0 km/h
591 20-12-2019 01:10:00 4.3 C 6.16 g/m*3 4.3 C 0 km/h
592 20-12-2019 01:15:00 4.2 C 6.12 g/m*3 4.2 C 0 km/h
593 20-12-2019 01:20:00 4.3 C 6.23 g/m*3 4.3 C 1.6 km/h
594 20-12-2019 01:25:00 4.4 C 6.27 g/m*3 4.4 C 0 km/h
595 20-12-2019 01:30:00 4.3 C 6.23 g/m*3 4.3 C 0 km/h
596 20-12-2019 01:35:00 4.3 C 6.23 g/m*3 4.3 C 4.8 km/h
597 20-12-2019 01:40:00 4.3 C 6.23 g/m*3 4.3 C 4.8 km/h
598 20-12-2019 01:45:00 4.2 C 6.19 g/m*3 4.2 C 0 km/h
599 20-12-2019 01:50:00 4.1 C 6.14 g/m*3 4.1 C 0 km/h
600 20-12-2019 01:55:00 4.1 C 6.14 g/m*3 4.1 C 0 km/h
Sensor: Nr:Datum:Temp:Abs-Feuchte:Windchill:Wind:
Aussen-T/F 601 20-12-2019 02:00:00 3.9 C 6.06 g/m*3 3.9 C 1.6 km/h
602 20-12-2019 02:05:00 3.9 C 6.06 g/m*3 3.9 C 0 km/h
603 20-12-2019 02:10:00 3.9 C 6.06 g/m*3 3.9 C 0 km/h
604 20-12-2019 02:15:00 3.8 C 6.02 g/m*3 3.8 C 0 km/h
605 20-12-2019 02:20:00 3.7 C 5.98 g/m*3 3.7 C 0 km/h
606 20-12-2019 02:25:00 3.7 C 5.98 g/m*3 3.7 C 0 km/h
607 20-12-2019 02:30:00 3.8 C 6.02 g/m*3 3.8 C 0 km/h
608 20-12-2019 02:35:00 3.9 C 6.06 g/m*3 3.9 C 3.2 km/h
609 20-12-2019 02:40:00 4.1 C 6.21 g/m*3 4.1 C 4.8 km/h
610 20-12-2019 02:45:00 4.3 C 6.29 g/m*3 4.3 C 3.2 km/h
611 20-12-2019 02:50:00 4.4 C 6.33 g/m*3 2.9 C 6.4 km/h
612 20-12-2019 02:55:00 4.6 C 6.42 g/m*3 2.64 C 8.1 km/h
613 20-12-2019 03:00:00 5.2 C 6.68 g/m*3 2.34 C 12.9 km/h
614 20-12-2019 03:05:00 5.3 C 6.72 g/m*3 5.3 C 1.6 km/h
615 20-12-2019 03:10:00 5.3 C 6.72 g/m*3 5.3 C 4.8 km/h
616 20-12-2019 03:15:00 5.2 C 6.68 g/m*3 3.82 C 6.4 km/h
617 20-12-2019 03:20:00 5.2 C 6.68 g/m*3 3.34 C 8.1 km/h
618 20-12-2019 03:25:00 5.3 C 6.72 g/m*3 3.08 C 9.7 km/h
619 20-12-2019 03:30:00 5.3 C 6.72 g/m*3 5.3 C 4.8 km/h
620 20-12-2019 03:35:00 5.3 C 6.72 g/m*3 5.3 C 4.8 km/h
621 20-12-2019 03:40:00 5.3 C 6.72 g/m*3 5.3 C 4.8 km/h
622 20-12-2019 03:45:00 5.3 C 6.72 g/m*3 5.3 C 3.2 km/h
623 20-12-2019 03:50:00 5.3 C 6.72 g/m*3 5.3 C 4.8 km/h
624 20-12-2019 03:55:00 5.3 C 6.72 g/m*3 5.3 C 3.2 km/h
625 20-12-2019 04:00:00 5.3 C 6.65 g/m*3 5.3 C 1.6 km/h
Sensor: Nr:Datum:Temp:Abs-Feuchte:Windchill:Wind:
Aussen-T/F 626 20-12-2019 04:05:00 5.2 C 6.61 g/m*3 5.2 C 1.6 km/h
627 20-12-2019 04:10:00 5.3 C 6.65 g/m*3 5.3 C 1.6 km/h
628 20-12-2019 04:15:00 5.2 C 6.61 g/m*3 5.2 C 0 km/h
629 20-12-2019 04:20:00 5.2 C 6.61 g/m*3 5.2 C 0 km/h
630 20-12-2019 04:25:00 5.2 C 6.61 g/m*3 5.2 C 1.6 km/h
631 20-12-2019 04:30:00 5.3 C 6.65 g/m*3 3.94 C 6.4 km/h
632 20-12-2019 04:35:00 5.4 C 6.77 g/m*3 5.4 C 4.8 km/h
633 20-12-2019 04:40:00 5.5 C 6.81 g/m*3 5.5 C 0 km/h
634 20-12-2019 04:45:00 5.6 C 6.86 g/m*3 5.6 C 4.8 km/h
635 20-12-2019 04:50:00 5.6 C 6.79 g/m*3 5.6 C 3.2 km/h
636 20-12-2019 04:55:00 5.6 C 6.79 g/m*3 5.6 C 3.2 km/h
637 20-12-2019 05:00:00 5.7 C 6.83 g/m*3 5.7 C 4.8 km/h
638 20-12-2019 05:05:00 5.7 C 6.83 g/m*3 5.7 C 3.2 km/h
639 20-12-2019 05:10:00 5.7 C 6.83 g/m*3 4.4 C 6.4 km/h
640 20-12-2019 05:15:00 5.8 C 6.88 g/m*3 5.8 C 4.8 km/h
641 20-12-2019 05:20:00 6.1 C 7.09 g/m*3 6.1 C 4.8 km/h
642 20-12-2019 05:25:00 6.1 C 7.01 g/m*3 6.1 C 1.6 km/h
643 20-12-2019 05:30:00 6.1 C 7.01 g/m*3 4.86 C 6.4 km/h
644 20-12-2019 05:35:00 6 C 6.9 g/m*3 4.75 C 6.4 km/h
645 20-12-2019 05:40:00 6.1 C 6.94 g/m*3 6.1 C 4.8 km/h
646 20-12-2019 05:45:00 6.2 C 6.99 g/m*3 6.2 C 3.2 km/h
647 20-12-2019 05:50:00 6.2 C 6.99 g/m*3 4.52 C 8.1 km/h
648 20-12-2019 05:55:00 6.3 C 6.96 g/m*3 4.64 C 8.1 km/h
649 20-12-2019 06:00:00 6.3 C 6.96 g/m*3 4.64 C 8.1 km/h
650 20-12-2019 06:05:00 6.3 C 6.88 g/m*3 6.3 C 4.8 km/h
Sensor: Nr:Datum:Temp:Abs-Feuchte:Windchill:Wind:
Aussen-T/F 651 20-12-2019 06:10:00 6.2 C 6.84 g/m*3 6.2 C 3.2 km/h
652 20-12-2019 06:15:00 6.1 C 6.79 g/m*3 4.04 C 9.7 km/h
653 20-12-2019 06:20:00 6.2 C 6.84 g/m*3 4.98 C 6.4 km/h
654 20-12-2019 06:25:00 6.5 C 6.97 g/m*3 4.51 C 9.7 km/h
655 20-12-2019 06:30:00 6.7 C 6.99 g/m*3 5.11 C 8.1 km/h
656 20-12-2019 06:35:00 6.9 C 7.01 g/m*3 4.68 C 11.3 km/h
657 20-12-2019 06:40:00 7.2 C 7.06 g/m*3 5.04 C 11.3 km/h
658 20-12-2019 06:45:00 7.3 C 7.03 g/m*3 5.47 C 9.7 km/h
659 20-12-2019 06:50:00 7.4 C 7 g/m*3 6.37 C 6.4 km/h
660 20-12-2019 06:55:00 7.3 C 6.87 g/m*3 6.25 C 6.4 km/h
661 20-12-2019 07:00:00 7.3 C 6.87 g/m*3 5.47 C 9.7 km/h
662 20-12-2019 07:05:00 7.3 C 6.87 g/m*3 7.3 C 4.8 km/h
663 20-12-2019 07:10:00 7.3 C 6.87 g/m*3 5.81 C 8.1 km/h
664 20-12-2019 07:15:00 7.3 C 6.87 g/m*3 7.3 C 1.6 km/h
665 20-12-2019 07:20:00 7.3 C 6.87 g/m*3 5.81 C 8.1 km/h
666 20-12-2019 07:25:00 7.3 C 6.87 g/m*3 7.3 C 3.2 km/h
667 20-12-2019 07:30:00 7.3 C 6.87 g/m*3 7.3 C 0 km/h
668 20-12-2019 07:35:00 7.2 C 6.91 g/m*3 7.2 C 4.8 km/h
669 20-12-2019 07:40:00 7.2 C 6.91 g/m*3 6.13 C 6.4 km/h
670 20-12-2019 07:45:00 7.3 C 6.95 g/m*3 6.25 C 6.4 km/h
671 20-12-2019 07:50:00 7.6 C 7.01 g/m*3 6.16 C 8.1 km/h
672 20-12-2019 07:55:00 7.8 C 7.02 g/m*3 7.8 C 4.8 km/h
673 20-12-2019 08:00:00 7.8 C 7.02 g/m*3 7.8 C 4.8 km/h
674 20-12-2019 08:05:00 7.8 C 7.02 g/m*3 7.8 C 3.2 km/h
675 20-12-2019 08:10:00 7.8 C 7.02 g/m*3 7.8 C 0 km/h
Sensor: Nr:Datum:Temp:Abs-Feuchte:Windchill:Wind:
Aussen-T/F 676 20-12-2019 08:15:00 7.7 C 7.05 g/m*3 7.7 C 0 km/h
677 20-12-2019 08:20:00 7.6 C 7.01 g/m*3 7.6 C 0 km/h
678 20-12-2019 08:25:00 7.5 C 6.96 g/m*3 7.5 C 0 km/h
679 20-12-2019 08:30:00 7.4 C 7 g/m*3 7.4 C 0 km/h
680 20-12-2019 08:35:00 7.4 C 7 g/m*3 7.4 C 0 km/h
681 20-12-2019 08:40:00 7.4 C 7 g/m*3 7.4 C 0 km/h
682 20-12-2019 08:45:00 7.3 C 7.03 g/m*3 7.3 C 0 km/h
683 20-12-2019 08:50:00 7.3 C 7.03 g/m*3 7.3 C 1.6 km/h
684 20-12-2019 08:55:00 7.3 C 7.03 g/m*3 7.3 C 3.2 km/h
685 20-12-2019 09:00:00 7.3 C 7.03 g/m*3 7.3 C 1.6 km/h
686 20-12-2019 09:05:00 7.3 C 7.03 g/m*3 7.3 C 3.2 km/h
687 20-12-2019 09:10:00 7.3 C 7.03 g/m*3 7.3 C 4.8 km/h
688 20-12-2019 09:15:00 7.4 C 7.08 g/m*3 7.4 C 0 km/h
689 20-12-2019 09:20:00 7.4 C 7.08 g/m*3 7.4 C 0 km/h
690 20-12-2019 09:25:00 7.4 C 7.16 g/m*3 7.4 C 1.6 km/h
691 20-12-2019 09:30:00 7.4 C 7.16 g/m*3 7.4 C 1.6 km/h
692 20-12-2019 09:35:00 7.4 C 7.16 g/m*3 7.4 C 0 km/h
693 20-12-2019 09:40:00 7.4 C 7.24 g/m*3 7.4 C 0 km/h
694 20-12-2019 09:45:00 7.4 C 7.16 g/m*3 7.4 C 0 km/h
695 20-12-2019 09:50:00 7.4 C 7.24 g/m*3 7.4 C 0 km/h
696 20-12-2019 09:55:00 7.4 C 7.16 g/m*3 7.4 C 4.8 km/h
697 20-12-2019 10:00:00 7.3 C 7.03 g/m*3 7.3 C 3.2 km/h
698 20-12-2019 10:05:00 7.2 C 7.06 g/m*3 7.2 C 4.8 km/h
699 20-12-2019 10:10:00 7.1 C 7.02 g/m*3 7.1 C 3.2 km/h
700 20-12-2019 10:15:00 7.1 C 7.02 g/m*3 7.1 C 3.2 km/h
Sensor: Nr:Datum:Temp:Abs-Feuchte:Windchill:Wind:
Aussen-T/F 701 20-12-2019 10:20:00 7.1 C 7.02 g/m*3 7.1 C 0 km/h
702 20-12-2019 10:25:00 7 C 6.97 g/m*3 7 C 0 km/h
703 20-12-2019 10:30:00 7 C 7.05 g/m*3 7 C 0 km/h
704 20-12-2019 10:35:00 7 C 7.13 g/m*3 7 C 0 km/h
705 20-12-2019 10:40:00 6.9 C 7.08 g/m*3 6.9 C 0 km/h
706 20-12-2019 10:45:00 7 C 7.21 g/m*3 7 C 0 km/h
707 20-12-2019 10:50:00 7 C 7.21 g/m*3 7 C 0 km/h
708 20-12-2019 10:55:00 7.1 C 7.33 g/m*3 7.1 C 0 km/h
709 20-12-2019 11:00:00 7.1 C 7.33 g/m*3 7.1 C 0 km/h
710 20-12-2019 11:05:00 7.1 C 7.33 g/m*3 7.1 C 0 km/h
711 20-12-2019 11:10:00 7.1 C 7.33 g/m*3 7.1 C 0 km/h
712 20-12-2019 11:15:00 7.1 C 7.33 g/m*3 7.1 C 1.6 km/h
713 20-12-2019 11:20:00 7.1 C 7.33 g/m*3 7.1 C 0 km/h
714 20-12-2019 11:25:00 7.1 C 7.41 g/m*3 7.1 C 0 km/h
715 20-12-2019 11:30:00 7.2 C 7.46 g/m*3 7.2 C 1.6 km/h
716 20-12-2019 11:35:00 7.3 C 7.51 g/m*3 7.3 C 3.2 km/h
717 20-12-2019 11:40:00 7.4 C 7.55 g/m*3 5.93 C 8.1 km/h
718 20-12-2019 11:45:00 7.5 C 7.6 g/m*3 7.5 C 4.8 km/h
719 20-12-2019 11:50:00 7.6 C 7.65 g/m*3 6.16 C 8.1 km/h
720 20-12-2019 11:55:00 7.7 C 7.7 g/m*3 7.7 C 3.2 km/h
721 20-12-2019 12:00:00 7.7 C 7.7 g/m*3 7.7 C 4.8 km/h
722 20-12-2019 12:05:00 7.8 C 7.75 g/m*3 6.4 C 8.1 km/h
723 20-12-2019 12:10:00 7.9 C 7.8 g/m*3 7.9 C 3.2 km/h
724 20-12-2019 12:15:00 8.1 C 7.9 g/m*3 8.1 C 4.8 km/h
725 20-12-2019 12:20:00 8.2 C 7.96 g/m*3 6.54 C 9.7 km/h
Sensor: Nr:Datum:Temp:Abs-Feuchte:Windchill:Wind:
Aussen-T/F 726 20-12-2019 12:25:00 8.3 C 8.01 g/m*3 6.37 C 11.3 km/h
727 20-12-2019 12:30:00 8.5 C 8.11 g/m*3 7.64 C 6.4 km/h
728 20-12-2019 12:35:00 8.6 C 8.16 g/m*3 7.34 C 8.1 km/h
729 20-12-2019 12:40:00 8.7 C 8.22 g/m*3 7.46 C 8.1 km/h
730 20-12-2019 12:45:00 8.8 C 8.27 g/m*3 7.25 C 9.7 km/h
731 20-12-2019 12:50:00 8.9 C 8.32 g/m*3 7.69 C 8.1 km/h
732 20-12-2019 12:55:00 9 C 8.38 g/m*3 7.49 C 9.7 km/h
733 20-12-2019 13:00:00 9.1 C 8.43 g/m*3 9.1 C 4.8 km/h
734 20-12-2019 13:05:00 9.1 C 8.43 g/m*3 8.33 C 6.4 km/h
735 20-12-2019 13:10:00 9.1 C 8.43 g/m*3 9.1 C 4.8 km/h
736 20-12-2019 13:15:00 9.1 C 8.43 g/m*3 7.93 C 8.1 km/h
737 20-12-2019 13:20:00 9.1 C 8.34 g/m*3 7.93 C 8.1 km/h
738 20-12-2019 13:25:00 9.1 C 8.34 g/m*3 7.33 C 11.3 km/h
739 20-12-2019 13:30:00 9.2 C 8.39 g/m*3 6.99 C 14.5 km/h
740 20-12-2019 13:35:00 9.2 C 8.39 g/m*3 6.99 C 14.5 km/h
741 20-12-2019 13:40:00 9.3 C 8.45 g/m*3 7.85 C 9.7 km/h
742 20-12-2019 13:45:00 9.4 C 8.59 g/m*3 7.97 C 9.7 km/h
743 20-12-2019 13:50:00 9.4 C 8.5 g/m*3 6.86 C 17.7 km/h
744 20-12-2019 13:55:00 9.4 C 8.5 g/m*3 6.86 C 17.7 km/h
745 20-12-2019 14:00:00 9.3 C 8.45 g/m*3 8.16 C 8.1 km/h
746 20-12-2019 14:05:00 9.3 C 8.45 g/m*3 7.58 C 11.3 km/h
747 20-12-2019 14:10:00 9.3 C 8.45 g/m*3 7.85 C 9.7 km/h
748 20-12-2019 14:15:00 9.4 C 8.5 g/m*3 7.7 C 11.3 km/h
749 20-12-2019 14:20:00 9.4 C 8.5 g/m*3 7.97 C 9.7 km/h
750 20-12-2019 14:25:00 9.4 C 8.5 g/m*3 7.97 C 9.7 km/h
Sensor: Nr:Datum:Temp:Abs-Feuchte:Windchill:Wind:
Aussen-T/F 751 20-12-2019 14:30:00 9.5 C 8.56 g/m*3 9.5 C 4.8 km/h
752 20-12-2019 14:35:00 9.6 C 8.61 g/m*3 8.52 C 8.1 km/h
753 20-12-2019 14:40:00 9.4 C 8.41 g/m*3 7.46 C 12.9 km/h
754 20-12-2019 14:45:00 9.4 C 8.41 g/m*3 7.97 C 9.7 km/h
755 20-12-2019 14:50:00 9.3 C 8.36 g/m*3 8.16 C 8.1 km/h
756 20-12-2019 14:55:00 9.3 C 8.36 g/m*3 8.16 C 8.1 km/h
757 20-12-2019 15:00:00 9.2 C 8.3 g/m*3 8.05 C 8.1 km/h
758 20-12-2019 15:05:00 9.2 C 8.3 g/m*3 9.2 C 4.8 km/h
759 20-12-2019 15:10:00 9.2 C 8.39 g/m*3 9.2 C 4.8 km/h
760 20-12-2019 15:15:00 9.2 C 8.39 g/m*3 9.2 C 4.8 km/h
761 20-12-2019 15:20:00 9.2 C 8.39 g/m*3 9.2 C 3.2 km/h
762 20-12-2019 15:25:00 9.2 C 8.39 g/m*3 9.2 C 4.8 km/h
763 20-12-2019 15:30:00 9.2 C 8.39 g/m*3 9.2 C 3.2 km/h
764 20-12-2019 15:35:00 9.2 C 8.39 g/m*3 9.2 C 4.8 km/h
765 20-12-2019 15:40:00 9.2 C 8.48 g/m*3 8.45 C 6.4 km/h
766 20-12-2019 15:45:00 9.2 C 8.48 g/m*3 9.2 C 4.8 km/h
767 20-12-2019 15:50:00 9.2 C 8.48 g/m*3 9.2 C 4.8 km/h
768 20-12-2019 15:55:00 9.2 C 8.48 g/m*3 9.2 C 4.8 km/h
769 20-12-2019 16:00:00 9.2 C 8.48 g/m*3 8.45 C 6.4 km/h
770 20-12-2019 16:05:00 9.2 C 8.48 g/m*3 9.2 C 4.8 km/h
771 20-12-2019 16:10:00 9.2 C 8.48 g/m*3 9.2 C 3.2 km/h
772 20-12-2019 16:15:00 9.3 C 8.54 g/m*3 9.3 C 3.2 km/h
773 20-12-2019 16:20:00 9.2 C 8.48 g/m*3 9.2 C 3.2 km/h
774 20-12-2019 16:25:00 9.3 C 8.63 g/m*3 9.3 C 4.8 km/h
775 20-12-2019 16:30:00 9.3 C 8.63 g/m*3 9.3 C 1.6 km/h
Sensor: Nr:Datum:Temp:Abs-Feuchte:Windchill:Wind:
Aussen-T/F 776 20-12-2019 16:35:00 9.3 C 8.63 g/m*3 8.56 C 6.4 km/h
777 20-12-2019 16:40:00 9.3 C 8.63 g/m*3 9.3 C 4.8 km/h
778 20-12-2019 16:45:00 9.3 C 8.63 g/m*3 8.56 C 6.4 km/h
779 20-12-2019 16:50:00 9.6 C 8.79 g/m*3 9.6 C 4.8 km/h
780 20-12-2019 16:55:00 9.7 C 8.85 g/m*3 9.02 C 6.4 km/h
781 20-12-2019 17:00:00 9.7 C 8.85 g/m*3 9.7 C 4.8 km/h
782 20-12-2019 17:05:00 9.9 C 8.96 g/m*3 8.56 C 9.7 km/h
783 20-12-2019 17:10:00 9.9 C 8.96 g/m*3 9.9 C 1.6 km/h
784 20-12-2019 17:15:00 9.9 C 8.87 g/m*3 8.87 C 8.1 km/h
785 20-12-2019 17:20:00 9.9 C 8.87 g/m*3 9.25 C 6.4 km/h
786 20-12-2019 17:25:00 9.9 C 8.87 g/m*3 9.9 C 1.6 km/h
787 20-12-2019 17:30:00 9.8 C 8.81 g/m*3 9.8 C 0 km/h
788 20-12-2019 17:35:00 9.7 C 8.76 g/m*3 9.7 C 1.6 km/h
789 20-12-2019 17:40:00 9.7 C 8.76 g/m*3 8.06 C 11.3 km/h
790 20-12-2019 17:45:00 9.7 C 8.76 g/m*3 9.7 C 1.6 km/h
791 20-12-2019 17:50:00 9.7 C 8.76 g/m*3 9.7 C 1.6 km/h
792 20-12-2019 17:55:00 9.7 C 8.76 g/m*3 9.02 C 6.4 km/h
793 20-12-2019 18:00:00 9.7 C 8.76 g/m*3 9.7 C 3.2 km/h
794 20-12-2019 18:05:00 9.7 C 8.76 g/m*3 8.33 C 9.7 km/h
795 20-12-2019 18:10:00 9.7 C 8.76 g/m*3 9.7 C 4.8 km/h
796 20-12-2019 18:15:00 9.6 C 8.7 g/m*3 9.6 C 1.6 km/h
797 20-12-2019 18:20:00 9.6 C 8.7 g/m*3 9.6 C 4.8 km/h
798 20-12-2019 18:25:00 9.6 C 8.7 g/m*3 8.21 C 9.7 km/h
799 20-12-2019 18:30:00 9.6 C 8.7 g/m*3 9.6 C 3.2 km/h
800 20-12-2019 18:35:00 9.6 C 8.7 g/m*3 9.6 C 4.8 km/h
Sensor: Nr:Datum:Temp:Abs-Feuchte:Windchill:Wind:
Aussen-T/F 801 20-12-2019 18:40:00 9.6 C 8.7 g/m*3 8.91 C 6.4 km/h
802 20-12-2019 18:45:00 9.7 C 8.76 g/m*3 8.33 C 9.7 km/h
803 20-12-2019 18:50:00 9.8 C 8.72 g/m*3 7.73 C 14.5 km/h
804 20-12-2019 18:55:00 9.8 C 8.63 g/m*3 7.73 C 14.5 km/h
805 20-12-2019 19:00:00 9.9 C 8.68 g/m*3 8.3 C 11.3 km/h
806 20-12-2019 19:05:00 10.1 C 8.61 g/m*3 7.14 C 24.1 km/h
807 20-12-2019 19:10:00 10.2 C 8.66 g/m*3 8.66 C 11.3 km/h
808 20-12-2019 19:15:00 10.2 C 8.66 g/m*3 8.43 C 12.9 km/h
809 20-12-2019 19:20:00 10.3 C 8.62 g/m*3 9.34 C 8.1 km/h
810 20-12-2019 19:25:00 10.3 C 8.62 g/m*3 9.34 C 8.1 km/h
811 20-12-2019 19:30:00 10.2 C 8.47 g/m*3 8.66 C 11.3 km/h
812 20-12-2019 19:35:00 10.2 C 8.47 g/m*3 8.92 C 9.7 km/h
813 20-12-2019 19:40:00 10.2 C 8.56 g/m*3 9.22 C 8.1 km/h
814 20-12-2019 19:45:00 10.2 C 8.47 g/m*3 8.43 C 12.9 km/h
815 20-12-2019 19:50:00 10.2 C 8.47 g/m*3 8.43 C 12.9 km/h
816 20-12-2019 19:55:00 10.2 C 8.47 g/m*3 8.92 C 9.7 km/h
817 20-12-2019 20:00:00 10.1 C 8.32 g/m*3 8.54 C 11.3 km/h
818 20-12-2019 20:05:00 10 C 8.36 g/m*3 9.37 C 6.4 km/h
819 20-12-2019 20:10:00 9.9 C 8.22 g/m*3 7.85 C 14.5 km/h
820 20-12-2019 20:15:00 9.8 C 8.16 g/m*3 8.18 C 11.3 km/h
821 20-12-2019 20:20:00 9.8 C 8.16 g/m*3 7.73 C 14.5 km/h
822 20-12-2019 20:25:00 9.8 C 8.16 g/m*3 9.8 C 4.8 km/h
823 20-12-2019 20:30:00 9.7 C 8.11 g/m*3 8.33 C 9.7 km/h
824 20-12-2019 20:35:00 9.6 C 7.97 g/m*3 7.7 C 12.9 km/h
825 20-12-2019 20:40:00 9.7 C 8.02 g/m*3 8.06 C 11.3 km/h
Sensor: Nr:Datum:Temp:Abs-Feuchte:Windchill:Wind:
Aussen-T/F 826 20-12-2019 20:45:00 9.7 C 7.93 g/m*3 8.06 C 11.3 km/h
827 20-12-2019 20:50:00 9.6 C 7.88 g/m*3 7.94 C 11.3 km/h
828 20-12-2019 20:55:00 9.5 C 7.92 g/m*3 9.5 C 4.8 km/h
829 20-12-2019 21:00:00 9.4 C 7.87 g/m*3 8.68 C 6.4 km/h
830 20-12-2019 21:05:00 9.3 C 7.82 g/m*3 8.56 C 6.4 km/h
831 20-12-2019 21:10:00 9.2 C 7.77 g/m*3 9.2 C 4.8 km/h
832 20-12-2019 21:15:00 9.1 C 7.72 g/m*3 7.61 C 9.7 km/h
833 20-12-2019 21:20:00 9.1 C 7.72 g/m*3 8.33 C 6.4 km/h
834 20-12-2019 21:25:00 9.1 C 7.72 g/m*3 7.33 C 11.3 km/h
835 20-12-2019 21:30:00 9.1 C 7.72 g/m*3 7.61 C 9.7 km/h
836 20-12-2019 21:35:00 9.1 C 7.63 g/m*3 8.33 C 6.4 km/h
837 20-12-2019 21:40:00 9.1 C 7.63 g/m*3 7.61 C 9.7 km/h
838 20-12-2019 21:45:00 9 C 7.58 g/m*3 7.21 C 11.3 km/h
839 20-12-2019 21:50:00 8.9 C 7.62 g/m*3 7.69 C 8.1 km/h
840 20-12-2019 21:55:00 8.9 C 7.62 g/m*3 7.37 C 9.7 km/h
841 20-12-2019 22:00:00 8.9 C 7.71 g/m*3 8.1 C 6.4 km/h
842 20-12-2019 22:05:00 8.9 C 7.62 g/m*3 8.1 C 6.4 km/h
843 20-12-2019 22:10:00 8.9 C 7.62 g/m*3 8.9 C 1.6 km/h
844 20-12-2019 22:15:00 8.9 C 7.53 g/m*3 7.09 C 11.3 km/h
845 20-12-2019 22:20:00 9 C 7.49 g/m*3 7.21 C 11.3 km/h
846 20-12-2019 22:25:00 9.1 C 7.63 g/m*3 8.33 C 6.4 km/h
847 20-12-2019 22:30:00 9.1 C 7.54 g/m*3 6.67 C 16.1 km/h
848 20-12-2019 22:35:00 9.2 C 7.5 g/m*3 7.21 C 12.9 km/h
849 20-12-2019 22:40:00 9.2 C 7.5 g/m*3 6.61 C 17.7 km/h
850 20-12-2019 22:45:00 9.2 C 7.59 g/m*3 6.44 C 19.3 km/h
Sensor: Nr:Datum:Temp:Abs-Feuchte:Windchill:Wind:
Aussen-T/F 851 20-12-2019 22:50:00 9.1 C 7.54 g/m*3 9.1 C 4.8 km/h
852 20-12-2019 22:55:00 9.1 C 7.54 g/m*3 9.1 C 4.8 km/h
853 20-12-2019 23:00:00 9.1 C 7.54 g/m*3 9.1 C 4.8 km/h
854 20-12-2019 23:05:00 9 C 7.58 g/m*3 9 C 4.8 km/h
855 20-12-2019 23:10:00 8.9 C 7.53 g/m*3 8.9 C 4.8 km/h
856 20-12-2019 23:15:00 8.9 C 7.53 g/m*3 8.9 C 4.8 km/h
857 20-12-2019 23:20:00 8.9 C 7.62 g/m*3 8.1 C 6.4 km/h
858 20-12-2019 23:25:00 8.9 C 7.62 g/m*3 8.9 C 4.8 km/h
859 20-12-2019 23:30:00 8.8 C 7.57 g/m*3 8.8 C 4.8 km/h
860 20-12-2019 23:35:00 8.8 C 7.57 g/m*3 7.25 C 9.7 km/h
861 20-12-2019 23:40:00 8.7 C 7.44 g/m*3 8.7 C 3.2 km/h
862 20-12-2019 23:45:00 8.7 C 7.44 g/m*3 7.46 C 8.1 km/h
863 20-12-2019 23:50:00 8.7 C 7.52 g/m*3 8.7 C 4.8 km/h
864 20-12-2019 23:55:00 8.7 C 7.52 g/m*3 8.7 C 3.2 km/h
865 21-12-2019 00:00:00 8.6 C 7.48 g/m*3 7.01 C 9.7 km/h
866 21-12-2019 00:05:00 8.6 C 7.48 g/m*3 8.6 C 1.6 km/h
867 21-12-2019 00:10:00 8.6 C 7.48 g/m*3 8.6 C 3.2 km/h
868 21-12-2019 00:15:00 8.4 C 7.38 g/m*3 8.4 C 1.6 km/h
869 21-12-2019 00:20:00 8.4 C 7.47 g/m*3 8.4 C 3.2 km/h
870 21-12-2019 00:25:00 8.3 C 7.42 g/m*3 8.3 C 0 km/h
871 21-12-2019 00:30:00 8.2 C 7.45 g/m*3 8.2 C 1.6 km/h
872 21-12-2019 00:35:00 8.2 C 7.37 g/m*3 7.29 C 6.4 km/h
873 21-12-2019 00:40:00 8.3 C 7.42 g/m*3 8.3 C 0 km/h
874 21-12-2019 00:45:00 8.2 C 7.37 g/m*3 8.2 C 1.6 km/h
875 21-12-2019 00:50:00 8.2 C 7.37 g/m*3 8.2 C 3.2 km/h
Sensor: Nr:Datum:Temp:Abs-Feuchte:Windchill:Wind:
Aussen-T/F 876 21-12-2019 00:55:00 8.1 C 7.32 g/m*3 8.1 C 3.2 km/h
877 21-12-2019 01:00:00 8.1 C 7.41 g/m*3 8.1 C 0 km/h
878 21-12-2019 01:05:00 8 C 7.36 g/m*3 8 C 1.6 km/h
879 21-12-2019 01:10:00 8 C 7.36 g/m*3 8 C 0 km/h
880 21-12-2019 01:15:00 8 C 7.44 g/m*3 8 C 0 km/h
881 21-12-2019 01:20:00 8.1 C 7.49 g/m*3 8.1 C 0 km/h
882 21-12-2019 01:25:00 8.1 C 7.49 g/m*3 8.1 C 0 km/h
883 21-12-2019 01:30:00 8.1 C 7.57 g/m*3 8.1 C 0 km/h
884 21-12-2019 01:35:00 8.1 C 7.57 g/m*3 8.1 C 1.6 km/h
885 21-12-2019 01:40:00 8.1 C 7.57 g/m*3 8.1 C 0 km/h
886 21-12-2019 01:45:00 8.1 C 7.57 g/m*3 8.1 C 1.6 km/h
887 21-12-2019 01:50:00 8.1 C 7.57 g/m*3 8.1 C 0 km/h
888 21-12-2019 01:55:00 8.1 C 7.57 g/m*3 8.1 C 0 km/h
889 21-12-2019 02:00:00 8.1 C 7.66 g/m*3 8.1 C 4.8 km/h
890 21-12-2019 02:05:00 8.1 C 7.57 g/m*3 8.1 C 3.2 km/h
891 21-12-2019 02:10:00 8.2 C 7.62 g/m*3 5.99 C 12.9 km/h
892 21-12-2019 02:15:00 8.3 C 7.59 g/m*3 8.3 C 3.2 km/h
893 21-12-2019 02:20:00 8.3 C 7.59 g/m*3 6.99 C 8.1 km/h
894 21-12-2019 02:25:00 8.4 C 7.63 g/m*3 8.4 C 0 km/h
895 21-12-2019 02:30:00 8.5 C 7.68 g/m*3 8.5 C 0 km/h
896 21-12-2019 02:35:00 8.5 C 7.68 g/m*3 8.5 C 0 km/h
897 21-12-2019 02:40:00 8.5 C 7.68 g/m*3 8.5 C 1.6 km/h
898 21-12-2019 02:45:00 8.4 C 7.55 g/m*3 7.52 C 6.4 km/h
899 21-12-2019 02:50:00 8.4 C 7.55 g/m*3 8.4 C 0 km/h
900 21-12-2019 02:55:00 8.4 C 7.63 g/m*3 8.4 C 0 km/h
Sensor: Nr:Datum:Temp:Abs-Feuchte:Windchill:Wind:
Aussen-T/F 901 21-12-2019 03:00:00 8.4 C 7.63 g/m*3 8.4 C 0 km/h
902 21-12-2019 03:05:00 8.3 C 7.59 g/m*3 8.3 C 0 km/h
903 21-12-2019 03:10:00 8.3 C 7.59 g/m*3 8.3 C 0 km/h
904 21-12-2019 03:15:00 8.3 C 7.59 g/m*3 8.3 C 3.2 km/h
905 21-12-2019 03:20:00 8.2 C 7.54 g/m*3 8.2 C 1.6 km/h
906 21-12-2019 03:25:00 8.2 C 7.54 g/m*3 8.2 C 0 km/h
907 21-12-2019 03:30:00 8.3 C 7.59 g/m*3 8.3 C 0 km/h
908 21-12-2019 03:35:00 8.2 C 7.54 g/m*3 8.2 C 0 km/h
909 21-12-2019 03:40:00 8.2 C 7.54 g/m*3 8.2 C 0 km/h
910 21-12-2019 03:45:00 8.1 C 7.49 g/m*3 8.1 C 1.6 km/h
911 21-12-2019 03:50:00 8.1 C 7.49 g/m*3 8.1 C 0 km/h
912 21-12-2019 03:55:00 8.1 C 7.49 g/m*3 8.1 C 1.6 km/h
913 21-12-2019 04:00:00 8.1 C 7.57 g/m*3 8.1 C 0 km/h
914 21-12-2019 04:05:00 8.1 C 7.57 g/m*3 8.1 C 1.6 km/h
915 21-12-2019 04:10:00 8 C 7.52 g/m*3 8 C 0 km/h
916 21-12-2019 04:15:00 7.9 C 7.47 g/m*3 7.9 C 1.6 km/h
917 21-12-2019 04:20:00 7.8 C 7.43 g/m*3 7.8 C 1.6 km/h
918 21-12-2019 04:25:00 7.7 C 7.38 g/m*3 7.7 C 0 km/h
919 21-12-2019 04:30:00 7.5 C 7.28 g/m*3 7.5 C 1.6 km/h
920 21-12-2019 04:35:00 7.4 C 7.24 g/m*3 7.4 C 1.6 km/h
921 21-12-2019 04:40:00 7.3 C 7.27 g/m*3 7.3 C 0 km/h
922 21-12-2019 04:45:00 7.2 C 7.22 g/m*3 7.2 C 0 km/h
923 21-12-2019 04:50:00 7.2 C 7.22 g/m*3 7.2 C 0 km/h
924 21-12-2019 04:55:00 7.1 C 7.18 g/m*3 7.1 C 1.6 km/h
925 21-12-2019 05:00:00 7.1 C 7.25 g/m*3 7.1 C 0 km/h
Sensor: Nr:Datum:Temp:Abs-Feuchte:Windchill:Wind:
Aussen-T/F 926 21-12-2019 05:05:00 7.1 C 7.25 g/m*3 7.1 C 0 km/h
927 21-12-2019 05:10:00 6.9 C 7.08 g/m*3 6.9 C 1.6 km/h
928 21-12-2019 05:15:00 6.9 C 7.16 g/m*3 6.9 C 1.6 km/h
929 21-12-2019 05:20:00 6.8 C 7.11 g/m*3 6.8 C 1.6 km/h
930 21-12-2019 05:25:00 6.8 C 7.11 g/m*3 6.8 C 3.2 km/h
931 21-12-2019 05:30:00 6.7 C 7.07 g/m*3 5.56 C 6.4 km/h
932 21-12-2019 05:35:00 6.6 C 7.02 g/m*3 6.6 C 3.2 km/h
933 21-12-2019 05:40:00 6.5 C 6.97 g/m*3 6.5 C 0 km/h
934 21-12-2019 05:45:00 6.4 C 6.93 g/m*3 6.4 C 3.2 km/h
935 21-12-2019 05:50:00 6.3 C 6.88 g/m*3 6.3 C 3.2 km/h
936 21-12-2019 05:55:00 6.2 C 6.84 g/m*3 6.2 C 1.6 km/h
937 21-12-2019 06:00:00 6.1 C 6.79 g/m*3 6.1 C 1.6 km/h
938 21-12-2019 06:05:00 5.9 C 6.71 g/m*3 5.9 C 1.6 km/h
939 21-12-2019 06:10:00 5.8 C 6.66 g/m*3 5.8 C 1.6 km/h
940 21-12-2019 06:15:00 5.8 C 6.66 g/m*3 5.8 C 1.6 km/h
941 21-12-2019 06:20:00 5.7 C 6.69 g/m*3 5.7 C 1.6 km/h
942 21-12-2019 06:25:00 5.6 C 6.65 g/m*3 5.6 C 1.6 km/h
943 21-12-2019 06:30:00 5.5 C 6.6 g/m*3 5.5 C 1.6 km/h
944 21-12-2019 06:35:00 5.5 C 6.6 g/m*3 5.5 C 3.2 km/h
945 21-12-2019 06:40:00 5.5 C 6.6 g/m*3 5.5 C 3.2 km/h
946 21-12-2019 06:45:00 5.4 C 6.56 g/m*3 5.4 C 1.6 km/h
947 21-12-2019 06:50:00 5.3 C 6.52 g/m*3 5.3 C 0 km/h
948 21-12-2019 06:55:00 5.2 C 6.47 g/m*3 5.2 C 0 km/h
949 21-12-2019 07:00:00 5.2 C 6.54 g/m*3 5.2 C 0 km/h
950 21-12-2019 07:05:00 5.2 C 6.54 g/m*3 5.2 C 0 km/h
Sensor: Nr:Datum:Temp:Abs-Feuchte:Windchill:Wind:
Aussen-T/F 951 21-12-2019 07:10:00 5.1 C 6.43 g/m*3 5.1 C 0 km/h
952 21-12-2019 07:15:00 4.9 C 6.35 g/m*3 4.9 C 0 km/h
953 21-12-2019 07:20:00 4.9 C 6.41 g/m*3 4.9 C 0 km/h
954 21-12-2019 07:25:00 4.9 C 6.41 g/m*3 4.9 C 0 km/h
955 21-12-2019 07:30:00 4.7 C 6.26 g/m*3 4.7 C 0 km/h
956 21-12-2019 07:35:00 4.6 C 6.29 g/m*3 4.6 C 0 km/h
957 21-12-2019 07:40:00 4.5 C 6.24 g/m*3 4.5 C 0 km/h
958 21-12-2019 07:45:00 4.3 C 6.1 g/m*3 4.3 C 0 km/h
959 21-12-2019 07:50:00 4.3 C 6.16 g/m*3 4.3 C 0 km/h
960 21-12-2019 07:55:00 4.3 C 6.16 g/m*3 4.3 C 0 km/h
961 21-12-2019 08:00:00 4.4 C 6.2 g/m*3 4.4 C 0 km/h
962 21-12-2019 08:05:00 4.4 C 6.2 g/m*3 4.4 C 0 km/h
963 21-12-2019 08:10:00 4.4 C 6.27 g/m*3 4.4 C 1.6 km/h
964 21-12-2019 08:15:00 4.5 C 6.31 g/m*3 4.5 C 1.6 km/h
965 21-12-2019 08:20:00 4.6 C 6.35 g/m*3 4.6 C 1.6 km/h
966 21-12-2019 08:25:00 4.6 C 6.35 g/m*3 4.6 C 1.6 km/h
967 21-12-2019 08:30:00 4.7 C 6.39 g/m*3 4.7 C 0 km/h
968 21-12-2019 08:35:00 4.7 C 6.39 g/m*3 4.7 C 3.2 km/h
969 21-12-2019 08:40:00 4.8 C 6.44 g/m*3 4.8 C 1.6 km/h
970 21-12-2019 08:45:00 5 C 6.52 g/m*3 3.11 C 8.1 km/h
971 21-12-2019 08:50:00 5.2 C 6.61 g/m*3 5.2 C 3.2 km/h
972 21-12-2019 08:55:00 5.4 C 6.7 g/m*3 5.4 C 1.6 km/h
973 21-12-2019 09:00:00 5.5 C 6.81 g/m*3 5.5 C 1.6 km/h
974 21-12-2019 09:05:00 5.6 C 6.79 g/m*3 5.6 C 0 km/h
975 21-12-2019 09:10:00 5.6 C 6.79 g/m*3 5.6 C 0 km/h
Sensor: Nr:Datum:Temp:Abs-Feuchte:Windchill:Wind:
Aussen-T/F 976 21-12-2019 09:15:00 5.5 C 6.74 g/m*3 5.5 C 1.6 km/h
977 21-12-2019 09:20:00 5.4 C 6.7 g/m*3 5.4 C 0 km/h
978 21-12-2019 09:25:00 5.4 C 6.7 g/m*3 5.4 C 4.8 km/h
979 21-12-2019 09:30:00 5.4 C 6.7 g/m*3 5.4 C 0 km/h
980 21-12-2019 09:35:00 5.4 C 6.63 g/m*3 5.4 C 0 km/h
981 21-12-2019 09:40:00 5.5 C 6.74 g/m*3 5.5 C 3.2 km/h
982 21-12-2019 09:45:00 5.5 C 6.74 g/m*3 5.5 C 1.6 km/h
983 21-12-2019 09:50:00 5.6 C 6.79 g/m*3 5.6 C 0 km/h
984 21-12-2019 09:55:00 5.6 C 6.72 g/m*3 5.6 C 3.2 km/h
985 21-12-2019 10:00:00 5.6 C 6.72 g/m*3 5.6 C 1.6 km/h
986 21-12-2019 10:05:00 5.6 C 6.72 g/m*3 5.6 C 0 km/h
987 21-12-2019 10:10:00 5.7 C 6.76 g/m*3 5.7 C 0 km/h
988 21-12-2019 10:15:00 5.7 C 6.76 g/m*3 5.7 C 0 km/h
989 21-12-2019 10:20:00 5.8 C 6.81 g/m*3 5.8 C 4.8 km/h
990 21-12-2019 10:25:00 5.9 C 6.85 g/m*3 5.9 C 3.2 km/h
991 21-12-2019 10:30:00 5.9 C 6.85 g/m*3 5.9 C 0 km/h
992 21-12-2019 10:35:00 6 C 6.9 g/m*3 6 C 0 km/h
993 21-12-2019 10:40:00 6 C 6.9 g/m*3 6 C 1.6 km/h
994 21-12-2019 10:45:00 6 C 6.9 g/m*3 6 C 0 km/h
995 21-12-2019 10:50:00 6 C 6.9 g/m*3 6 C 0 km/h
996 21-12-2019 10:55:00 6.1 C 6.94 g/m*3 6.1 C 0 km/h
997 21-12-2019 11:00:00 6.1 C 6.94 g/m*3 6.1 C 3.2 km/h
998 21-12-2019 11:05:00 6.1 C 6.94 g/m*3 6.1 C 0 km/h
999 21-12-2019 11:10:00 6.2 C 6.99 g/m*3 6.2 C 0 km/h
1000 21-12-2019 11:15:00 6.3 C 7.03 g/m*3 6.3 C 0 km/h
Sensor: Nr:Datum:Temp:Abs-Feuchte:Windchill:Wind:
Aussen-T/F 1001 21-12-2019 11:20:00 6.3 C 7.03 g/m*3 6.3 C 0 km/h
1002 21-12-2019 11:25:00 6.3 C 7.03 g/m*3 6.3 C 0 km/h
1003 21-12-2019 11:30:00 6.3 C 7.03 g/m*3 6.3 C 0 km/h
1004 21-12-2019 11:35:00 6.4 C 7.08 g/m*3 6.4 C 0 km/h
1005 21-12-2019 11:40:00 6.4 C 7.08 g/m*3 6.4 C 0 km/h
1006 21-12-2019 11:45:00 6.4 C 7.08 g/m*3 6.4 C 0 km/h
1007 21-12-2019 11:50:00 6.4 C 7.08 g/m*3 6.4 C 0 km/h
1008 21-12-2019 11:55:00 6.5 C 7.12 g/m*3 6.5 C 0 km/h
1009 21-12-2019 12:00:00 6.5 C 7.12 g/m*3 6.5 C 0 km/h
1010 21-12-2019 12:05:00 6.6 C 7.17 g/m*3 6.6 C 0 km/h
1011 21-12-2019 12:10:00 6.6 C 7.17 g/m*3 6.6 C 3.2 km/h
1012 21-12-2019 12:15:00 6.6 C 7.17 g/m*3 6.6 C 3.2 km/h
1013 21-12-2019 12:20:00 6.7 C 7.22 g/m*3 6.7 C 1.6 km/h
1014 21-12-2019 12:25:00 6.7 C 7.22 g/m*3 6.7 C 3.2 km/h
1015 21-12-2019 12:30:00 6.8 C 7.27 g/m*3 4.87 C 9.7 km/h
1016 21-12-2019 12:35:00 6.9 C 7.31 g/m*3 5.79 C 6.4 km/h
1017 21-12-2019 12:40:00 7.1 C 7.33 g/m*3 7.1 C 3.2 km/h
1018 21-12-2019 12:45:00 7.2 C 7.38 g/m*3 7.2 C 3.2 km/h
1019 21-12-2019 12:50:00 7.3 C 7.43 g/m*3 5.81 C 8.1 km/h
1020 21-12-2019 12:55:00 7.6 C 7.49 g/m*3 5.26 C 12.9 km/h
1021 21-12-2019 13:00:00 7.7 C 7.46 g/m*3 6.28 C 8.1 km/h
1022 21-12-2019 13:05:00 7.9 C 7.47 g/m*3 6.18 C 9.7 km/h
1023 21-12-2019 13:10:00 8 C 7.52 g/m*3 8 C 1.6 km/h
1024 21-12-2019 13:15:00 8 C 7.44 g/m*3 8 C 1.6 km/h
1025 21-12-2019 13:20:00 7.9 C 7.39 g/m*3 7.9 C 4.8 km/h
Sensor: Nr:Datum:Temp:Abs-Feuchte:Windchill:Wind:
Aussen-T/F 1026 21-12-2019 13:25:00 7.9 C 7.39 g/m*3 7.9 C 3.2 km/h
1027 21-12-2019 13:30:00 7.9 C 7.39 g/m*3 7.9 C 1.6 km/h
1028 21-12-2019 13:35:00 7.9 C 7.39 g/m*3 7.9 C 0 km/h
1029 21-12-2019 13:40:00 7.9 C 7.39 g/m*3 6.52 C 8.1 km/h
1030 21-12-2019 13:45:00 8.2 C 7.37 g/m*3 7.29 C 6.4 km/h
1031 21-12-2019 13:50:00 8.4 C 7.47 g/m*3 8.4 C 1.6 km/h
1032 21-12-2019 13:55:00 8.5 C 7.43 g/m*3 7.22 C 8.1 km/h
1033 21-12-2019 14:00:00 8.8 C 7.49 g/m*3 7.98 C 6.4 km/h
1034 21-12-2019 14:05:00 8.8 C 7.49 g/m*3 7.98 C 6.4 km/h
1035 21-12-2019 14:10:00 9.1 C 7.45 g/m*3 6.87 C 14.5 km/h
1036 21-12-2019 14:15:00 9.2 C 7.5 g/m*3 9.2 C 4.8 km/h
1037 21-12-2019 14:20:00 9.3 C 7.55 g/m*3 8.56 C 6.4 km/h
1038 21-12-2019 14:25:00 9.2 C 7.5 g/m*3 9.2 C 1.6 km/h
1039 21-12-2019 14:30:00 9.1 C 7.45 g/m*3 9.1 C 1.6 km/h
1040 21-12-2019 14:35:00 9.1 C 7.54 g/m*3 9.1 C 0 km/h
1041 21-12-2019 14:40:00 9 C 7.58 g/m*3 9 C 0 km/h
1042 21-12-2019 14:45:00 9 C 7.67 g/m*3 9 C 0 km/h
1043 21-12-2019 14:50:00 9 C 7.58 g/m*3 9 C 0 km/h
1044 21-12-2019 14:55:00 9.1 C 7.72 g/m*3 9.1 C 3.2 km/h
1045 21-12-2019 15:00:00 9.2 C 7.68 g/m*3 9.2 C 4.8 km/h
1046 21-12-2019 15:05:00 9.2 C 7.59 g/m*3 8.05 C 8.1 km/h
1047 21-12-2019 15:10:00 9.2 C 7.5 g/m*3 8.45 C 6.4 km/h
1048 21-12-2019 15:15:00 9.2 C 7.5 g/m*3 9.2 C 4.8 km/h
1049 21-12-2019 15:20:00 9.2 C 7.41 g/m*3 7.73 C 9.7 km/h
1050 21-12-2019 15:25:00 9.2 C 7.41 g/m*3 7.73 C 9.7 km/h
Sensor: Nr:Datum:Temp:Abs-Feuchte:Windchill:Wind:
Aussen-T/F 1051 21-12-2019 15:30:00 9.2 C 7.41 g/m*3 9.2 C 1.6 km/h
1052 21-12-2019 15:35:00 9.2 C 7.5 g/m*3 9.2 C 1.6 km/h
1053 21-12-2019 15:40:00 9.1 C 7.36 g/m*3 9.1 C 4.8 km/h
1054 21-12-2019 15:45:00 9.1 C 7.36 g/m*3 9.1 C 1.6 km/h
1055 21-12-2019 15:50:00 8.8 C 7.31 g/m*3 8.8 C 0 km/h
1056 21-12-2019 15:55:00 8.7 C 7.35 g/m*3 8.7 C 0 km/h
1057 21-12-2019 16:00:00 8.6 C 7.39 g/m*3 8.6 C 3.2 km/h
1058 21-12-2019 16:05:00 8.5 C 7.34 g/m*3 8.5 C 3.2 km/h
1059 21-12-2019 16:10:00 8.4 C 7.38 g/m*3 8.4 C 0 km/h
1060 21-12-2019 16:15:00 8.4 C 7.38 g/m*3 8.4 C 0 km/h
1061 21-12-2019 16:20:00 8.4 C 7.47 g/m*3 8.4 C 0 km/h
1062 21-12-2019 16:25:00 8.3 C 7.42 g/m*3 8.3 C 0 km/h
1063 21-12-2019 16:30:00 8.3 C 7.42 g/m*3 8.3 C 3.2 km/h
1064 21-12-2019 16:35:00 8.2 C 7.37 g/m*3 8.2 C 1.6 km/h
1065 21-12-2019 16:40:00 8.2 C 7.37 g/m*3 8.2 C 0 km/h
1066 21-12-2019 16:45:00 8.2 C 7.37 g/m*3 8.2 C 1.6 km/h
1067 21-12-2019 16:50:00 8.2 C 7.37 g/m*3 8.2 C 0 km/h
1068 21-12-2019 16:55:00 8.2 C 7.37 g/m*3 8.2 C 1.6 km/h
1069 21-12-2019 17:00:00 8.2 C 7.45 g/m*3 8.2 C 0 km/h
1070 21-12-2019 17:05:00 8.2 C 7.45 g/m*3 8.2 C 0 km/h
1071 21-12-2019 17:10:00 8.2 C 7.45 g/m*3 8.2 C 0 km/h
1072 21-12-2019 17:15:00 8.2 C 7.45 g/m*3 8.2 C 0 km/h
1073 21-12-2019 17:20:00 8.1 C 7.41 g/m*3 8.1 C 0 km/h
1074 21-12-2019 17:25:00 8.1 C 7.41 g/m*3 8.1 C 1.6 km/h
1075 21-12-2019 17:30:00 8 C 7.36 g/m*3 8 C 0 km/h
Sensor: Nr:Datum:Temp:Abs-Feuchte:Windchill:Wind:
Aussen-T/F 1076 21-12-2019 17:35:00 7.9 C 7.31 g/m*3 7.9 C 1.6 km/h
1077 21-12-2019 17:40:00 7.9 C 7.31 g/m*3 7.9 C 0 km/h
1078 21-12-2019 17:45:00 7.9 C 7.31 g/m*3 7.9 C 0 km/h
1079 21-12-2019 17:50:00 7.9 C 7.31 g/m*3 7.9 C 1.6 km/h
1080 21-12-2019 17:55:00 7.9 C 7.31 g/m*3 7.9 C 1.6 km/h
1081 21-12-2019 18:00:00 7.9 C 7.31 g/m*3 7.9 C 3.2 km/h
1082 21-12-2019 18:05:00 7.9 C 7.23 g/m*3 6.52 C 8.1 km/h
1083 21-12-2019 18:10:00 8 C 7.28 g/m*3 8 C 3.2 km/h
1084 21-12-2019 18:15:00 8.1 C 7.24 g/m*3 8.1 C 4.8 km/h
1085 21-12-2019 18:20:00 8.1 C 7.24 g/m*3 7.17 C 6.4 km/h
1086 21-12-2019 18:25:00 8.2 C 7.29 g/m*3 8.2 C 1.6 km/h
1087 21-12-2019 18:30:00 8.2 C 7.2 g/m*3 6.87 C 8.1 km/h
1088 21-12-2019 18:35:00 8.2 C 7.03 g/m*3 6.87 C 8.1 km/h
1089 21-12-2019 18:40:00 8.3 C 7.16 g/m*3 8.3 C 1.6 km/h
1090 21-12-2019 18:45:00 8.2 C 7.12 g/m*3 8.2 C 1.6 km/h
1091 21-12-2019 18:50:00 8.2 C 7.12 g/m*3 8.2 C 4.8 km/h
1092 21-12-2019 18:55:00 8.2 C 7.12 g/m*3 8.2 C 0 km/h
1093 21-12-2019 19:00:00 8.2 C 7.2 g/m*3 8.2 C 0 km/h
1094 21-12-2019 19:05:00 8.1 C 7.16 g/m*3 8.1 C 0 km/h
1095 21-12-2019 19:10:00 8.1 C 7.16 g/m*3 8.1 C 0 km/h
1096 21-12-2019 19:15:00 8 C 7.11 g/m*3 8 C 0 km/h
1097 21-12-2019 19:20:00 7.9 C 7.06 g/m*3 7.9 C 1.6 km/h
1098 21-12-2019 19:25:00 7.9 C 7.15 g/m*3 7.9 C 0 km/h
1099 21-12-2019 19:30:00 7.8 C 7.1 g/m*3 7.8 C 1.6 km/h
1100 21-12-2019 19:35:00 7.8 C 7.18 g/m*3 7.8 C 0 km/h
Sensor: Nr:Datum:Temp:Abs-Feuchte:Windchill:Wind:
Aussen-T/F 1101 21-12-2019 19:40:00 7.7 C 7.14 g/m*3 7.7 C 0 km/h
1102 21-12-2019 19:45:00 7.7 C 7.14 g/m*3 7.7 C 4.8 km/h
1103 21-12-2019 19:50:00 7.6 C 7.01 g/m*3 7.6 C 4.8 km/h
1104 21-12-2019 19:55:00 7.7 C 7.05 g/m*3 7.7 C 1.6 km/h
1105 21-12-2019 20:00:00 7.7 C 7.05 g/m*3 7.7 C 0 km/h
1106 21-12-2019 20:05:00 7.8 C 7.02 g/m*3 7.8 C 1.6 km/h
1107 21-12-2019 20:10:00 7.8 C 7.02 g/m*3 7.8 C 0 km/h
1108 21-12-2019 20:15:00 7.8 C 7.1 g/m*3 7.8 C 4.8 km/h
1109 21-12-2019 20:20:00 7.8 C 7.02 g/m*3 7.8 C 3.2 km/h
1110 21-12-2019 20:25:00 7.8 C 7.02 g/m*3 7.8 C 0 km/h
1111 21-12-2019 20:30:00 7.8 C 7.02 g/m*3 7.8 C 0 km/h
1112 21-12-2019 20:35:00 7.8 C 7.1 g/m*3 7.8 C 3.2 km/h
1113 21-12-2019 20:40:00 7.7 C 6.97 g/m*3 7.7 C 1.6 km/h
1114 21-12-2019 20:45:00 7.7 C 7.05 g/m*3 7.7 C 0 km/h
1115 21-12-2019 20:50:00 7.8 C 7.02 g/m*3 7.8 C 0 km/h
1116 21-12-2019 20:55:00 7.7 C 7.05 g/m*3 7.7 C 0 km/h
1117 21-12-2019 21:00:00 7.7 C 7.05 g/m*3 7.7 C 4.8 km/h
1118 21-12-2019 21:05:00 7.6 C 7.01 g/m*3 7.6 C 0 km/h
1119 21-12-2019 21:10:00 7.4 C 6.92 g/m*3 7.4 C 0 km/h
1120 21-12-2019 21:15:00 7.3 C 6.87 g/m*3 7.3 C 1.6 km/h
1121 21-12-2019 21:20:00 7.2 C 6.91 g/m*3 7.2 C 1.6 km/h
1122 21-12-2019 21:25:00 7.1 C 6.86 g/m*3 7.1 C 3.2 km/h
1123 21-12-2019 21:30:00 7.1 C 6.94 g/m*3 7.1 C 1.6 km/h
1124 21-12-2019 21:35:00 7 C 6.9 g/m*3 7 C 1.6 km/h
1125 21-12-2019 21:40:00 7 C 6.97 g/m*3 7 C 0 km/h
Sensor: Nr:Datum:Temp:Abs-Feuchte:Windchill:Wind:
Aussen-T/F 1126 21-12-2019 21:45:00 6.9 C 6.85 g/m*3 6.9 C 1.6 km/h
1127 21-12-2019 21:50:00 6.7 C 6.76 g/m*3 6.7 C 0 km/h
1128 21-12-2019 21:55:00 6.6 C 6.72 g/m*3 6.6 C 1.6 km/h
1129 21-12-2019 22:00:00 6.4 C 6.71 g/m*3 6.4 C 0 km/h
1130 21-12-2019 22:05:00 6.2 C 6.62 g/m*3 6.2 C 1.6 km/h
1131 21-12-2019 22:10:00 6.2 C 6.62 g/m*3 6.2 C 4.8 km/h
1132 21-12-2019 22:15:00 6.2 C 6.62 g/m*3 6.2 C 3.2 km/h
1133 21-12-2019 22:20:00 6.3 C 6.66 g/m*3 4.27 C 9.7 km/h
1134 21-12-2019 22:25:00 6.4 C 6.63 g/m*3 5.21 C 6.4 km/h
1135 21-12-2019 22:30:00 6.6 C 6.64 g/m*3 5.44 C 6.4 km/h
1136 21-12-2019 22:35:00 6.8 C 6.65 g/m*3 6.8 C 4.8 km/h
1137 21-12-2019 22:40:00 6.8 C 6.58 g/m*3 5.22 C 8.1 km/h
1138 21-12-2019 22:45:00 6.9 C 6.54 g/m*3 5.79 C 6.4 km/h
1139 21-12-2019 22:50:00 7 C 6.59 g/m*3 5.9 C 6.4 km/h
1140 21-12-2019 22:55:00 7 C 6.59 g/m*3 7 C 4.8 km/h
1141 21-12-2019 23:00:00 7 C 6.59 g/m*3 5.46 C 8.1 km/h
1142 21-12-2019 23:05:00 6.9 C 6.54 g/m*3 5.79 C 6.4 km/h
1143 21-12-2019 23:10:00 6.8 C 6.5 g/m*3 6.8 C 1.6 km/h
1144 21-12-2019 23:15:00 6.8 C 6.5 g/m*3 6.8 C 4.8 km/h
1145 21-12-2019 23:20:00 6.8 C 6.5 g/m*3 6.8 C 3.2 km/h
1146 21-12-2019 23:25:00 6.9 C 6.47 g/m*3 5.34 C 8.1 km/h
1147 21-12-2019 23:30:00 7.1 C 6.55 g/m*3 5.23 C 9.7 km/h
1148 21-12-2019 23:35:00 7.1 C 6.55 g/m*3 5.58 C 8.1 km/h
1149 21-12-2019 23:40:00 7.2 C 6.59 g/m*3 5.69 C 8.1 km/h
1150 21-12-2019 23:45:00 7.2 C 6.59 g/m*3 6.13 C 6.4 km/h
Sensor: Nr:Datum:Temp:Abs-Feuchte:Windchill:Wind:
Aussen-T/F 1151 21-12-2019 23:50:00 7.3 C 6.64 g/m*3 5.47 C 9.7 km/h
1152 21-12-2019 23:55:00 7.3 C 6.64 g/m*3 5.47 C 9.7 km/h
1153 22-12-2019 00:00:00 7.3 C 6.64 g/m*3 4.44 C 16.1 km/h
1154 22-12-2019 00:05:00 7.4 C 6.68 g/m*3 4.78 C 14.5 km/h
1155 22-12-2019 00:10:00 7.4 C 6.68 g/m*3 5.93 C 8.1 km/h
1156 22-12-2019 00:15:00 7.5 C 6.72 g/m*3 4.48 C 17.7 km/h
1157 22-12-2019 00:20:00 7.6 C 6.77 g/m*3 6.16 C 8.1 km/h
1158 22-12-2019 00:25:00 7.6 C 6.85 g/m*3 6.6 C 6.4 km/h
1159 22-12-2019 00:30:00 7.6 C 6.85 g/m*3 6.16 C 8.1 km/h
1160 22-12-2019 00:35:00 7.5 C 6.8 g/m*3 6.48 C 6.4 km/h
1161 22-12-2019 00:40:00 7.5 C 6.88 g/m*3 4.48 C 17.7 km/h
1162 22-12-2019 00:45:00 7.5 C 6.88 g/m*3 7.5 C 4.8 km/h
1163 22-12-2019 00:50:00 7.5 C 6.96 g/m*3 7.5 C 3.2 km/h
1164 22-12-2019 00:55:00 7.4 C 6.92 g/m*3 6.37 C 6.4 km/h
1165 22-12-2019 01:00:00 7.4 C 7 g/m*3 5.93 C 8.1 km/h
1166 22-12-2019 01:05:00 7.3 C 7.03 g/m*3 7.3 C 4.8 km/h
1167 22-12-2019 01:10:00 7.2 C 7.06 g/m*3 7.2 C 4.8 km/h
1168 22-12-2019 01:15:00 7.1 C 7.02 g/m*3 7.1 C 4.8 km/h
1169 22-12-2019 01:20:00 7.1 C 7.1 g/m*3 7.1 C 3.2 km/h
1170 22-12-2019 01:25:00 6.9 C 7.01 g/m*3 6.9 C 1.6 km/h
1171 22-12-2019 01:30:00 6.9 C 7.01 g/m*3 5.79 C 6.4 km/h
1172 22-12-2019 01:35:00 6.9 C 7.08 g/m*3 6.9 C 3.2 km/h
1173 22-12-2019 01:40:00 6.8 C 7.04 g/m*3 6.8 C 3.2 km/h
1174 22-12-2019 01:45:00 6.8 C 7.04 g/m*3 6.8 C 1.6 km/h
1175 22-12-2019 01:50:00 6.7 C 7.07 g/m*3 6.7 C 3.2 km/h
Sensor: Nr:Datum:Temp:Abs-Feuchte:Windchill:Wind:
Aussen-T/F 1176 22-12-2019 01:55:00 6.7 C 7.07 g/m*3 5.56 C 6.4 km/h
1177 22-12-2019 02:00:00 6.7 C 7.07 g/m*3 5.56 C 6.4 km/h
1178 22-12-2019 02:05:00 6.7 C 7.07 g/m*3 5.11 C 8.1 km/h
1179 22-12-2019 02:10:00 6.7 C 7.07 g/m*3 6.7 C 1.6 km/h
1180 22-12-2019 02:15:00 6.7 C 7.07 g/m*3 6.7 C 4.8 km/h
1181 22-12-2019 02:20:00 6.7 C 7.07 g/m*3 6.7 C 1.6 km/h
1182 22-12-2019 02:25:00 6.7 C 7.07 g/m*3 6.7 C 4.8 km/h
1183 22-12-2019 02:30:00 6.7 C 7.07 g/m*3 5.11 C 8.1 km/h
1184 22-12-2019 02:35:00 6.8 C 7.11 g/m*3 5.67 C 6.4 km/h
1185 22-12-2019 02:40:00 6.8 C 7.11 g/m*3 5.67 C 6.4 km/h
1186 22-12-2019 02:45:00 6.8 C 7.11 g/m*3 5.22 C 8.1 km/h
1187 22-12-2019 02:50:00 6.8 C 7.11 g/m*3 5.22 C 8.1 km/h
1188 22-12-2019 02:55:00 6.9 C 7.16 g/m*3 6.9 C 3.2 km/h
1189 22-12-2019 03:00:00 6.9 C 7.16 g/m*3 6.9 C 3.2 km/h
1190 22-12-2019 03:05:00 6.9 C 7.16 g/m*3 6.9 C 4.8 km/h
1191 22-12-2019 03:10:00 6.9 C 7.16 g/m*3 6.9 C 4.8 km/h
1192 22-12-2019 03:15:00 6.9 C 7.16 g/m*3 6.9 C 1.6 km/h
1193 22-12-2019 03:20:00 6.9 C 7.16 g/m*3 6.9 C 3.2 km/h
1194 22-12-2019 03:25:00 6.9 C 7.16 g/m*3 4.68 C 11.3 km/h
1195 22-12-2019 03:30:00 6.9 C 7.08 g/m*3 4.99 C 9.7 km/h
1196 22-12-2019 03:35:00 7 C 7.13 g/m*3 7 C 4.8 km/h
1197 22-12-2019 03:40:00 7 C 7.13 g/m*3 7 C 3.2 km/h
1198 22-12-2019 03:45:00 7 C 7.13 g/m*3 7 C 1.6 km/h
1199 22-12-2019 03:50:00 7 C 7.13 g/m*3 7 C 4.8 km/h
1200 22-12-2019 03:55:00 7.1 C 7.18 g/m*3 7.1 C 3.2 km/h
Sensor: Nr:Datum:Temp:Abs-Feuchte:Windchill:Wind:
Aussen-T/F 1201 22-12-2019 04:00:00 7.1 C 7.18 g/m*3 7.1 C 1.6 km/h
1202 22-12-2019 04:05:00 7.1 C 7.18 g/m*3 7.1 C 3.2 km/h
1203 22-12-2019 04:10:00 7.1 C 7.18 g/m*3 7.1 C 3.2 km/h
1204 22-12-2019 04:15:00 7 C 7.13 g/m*3 7 C 3.2 km/h
1205 22-12-2019 04:20:00 7 C 7.13 g/m*3 5.46 C 8.1 km/h
1206 22-12-2019 04:25:00 7 C 7.13 g/m*3 7 C 1.6 km/h
1207 22-12-2019 04:30:00 7 C 7.13 g/m*3 7 C 3.2 km/h
1208 22-12-2019 04:35:00 7.1 C 7.18 g/m*3 7.1 C 3.2 km/h
1209 22-12-2019 04:40:00 7.1 C 7.18 g/m*3 7.1 C 4.8 km/h
1210 22-12-2019 04:45:00 7.1 C 7.18 g/m*3 7.1 C 4.8 km/h
1211 22-12-2019 04:50:00 7.1 C 7.18 g/m*3 7.1 C 3.2 km/h
1212 22-12-2019 04:55:00 7.1 C 7.18 g/m*3 7.1 C 1.6 km/h
1213 22-12-2019 05:00:00 7.2 C 7.22 g/m*3 7.2 C 4.8 km/h
1214 22-12-2019 05:05:00 7.2 C 7.22 g/m*3 7.2 C 3.2 km/h
1215 22-12-2019 05:10:00 7.1 C 7.18 g/m*3 7.1 C 0 km/h
1216 22-12-2019 05:15:00 7.1 C 7.1 g/m*3 7.1 C 4.8 km/h
1217 22-12-2019 05:20:00 6.9 C 7.01 g/m*3 6.9 C 1.6 km/h
1218 22-12-2019 05:25:00 6.7 C 6.91 g/m*3 6.7 C 0 km/h
1219 22-12-2019 05:30:00 6.6 C 6.95 g/m*3 6.6 C 1.6 km/h
1220 22-12-2019 05:35:00 6.7 C 6.99 g/m*3 6.7 C 3.2 km/h
1221 22-12-2019 05:40:00 6.7 C 7.07 g/m*3 6.7 C 3.2 km/h
1222 22-12-2019 05:45:00 6.8 C 7.11 g/m*3 5.22 C 8.1 km/h
1223 22-12-2019 05:50:00 6.9 C 7.16 g/m*3 5.79 C 6.4 km/h
1224 22-12-2019 05:55:00 6.8 C 7.04 g/m*3 6.8 C 0 km/h
1225 22-12-2019 06:00:00 6.6 C 6.95 g/m*3 6.6 C 1.6 km/h
Sensor: Nr:Datum:Temp:Abs-Feuchte:Windchill:Wind:
Aussen-T/F 1226 22-12-2019 06:05:00 6.4 C 6.85 g/m*3 6.4 C 0 km/h
1227 22-12-2019 06:10:00 6.4 C 6.93 g/m*3 6.4 C 3.2 km/h
1228 22-12-2019 06:15:00 6.4 C 6.93 g/m*3 6.4 C 1.6 km/h
1229 22-12-2019 06:20:00 6.3 C 6.81 g/m*3 6.3 C 1.6 km/h
1230 22-12-2019 06:25:00 6.2 C 6.84 g/m*3 6.2 C 4.8 km/h
1231 22-12-2019 06:30:00 6.3 C 6.96 g/m*3 6.3 C 4.8 km/h
1232 22-12-2019 06:35:00 6.3 C 6.96 g/m*3 5.1 C 6.4 km/h
1233 22-12-2019 06:40:00 6.5 C 7.12 g/m*3 4.87 C 8.1 km/h
1234 22-12-2019 06:45:00 6.7 C 7.22 g/m*3 6.7 C 3.2 km/h
1235 22-12-2019 06:50:00 6.8 C 7.19 g/m*3 6.8 C 1.6 km/h
1236 22-12-2019 06:55:00 6.9 C 7.24 g/m*3 6.9 C 3.2 km/h
1237 22-12-2019 07:00:00 6.9 C 7.24 g/m*3 6.9 C 0 km/h
1238 22-12-2019 07:05:00 6.9 C 7.24 g/m*3 6.9 C 0 km/h
1239 22-12-2019 07:10:00 6.9 C 7.24 g/m*3 6.9 C 0 km/h
1240 22-12-2019 07:15:00 6.9 C 7.24 g/m*3 6.9 C 1.6 km/h
1241 22-12-2019 07:20:00 6.9 C 7.24 g/m*3 6.9 C 0 km/h
1242 22-12-2019 07:25:00 6.8 C 7.19 g/m*3 6.8 C 1.6 km/h
1243 22-12-2019 07:30:00 6.7 C 7.14 g/m*3 6.7 C 3.2 km/h
1244 22-12-2019 07:35:00 6.7 C 7.14 g/m*3 5.11 C 8.1 km/h
1245 22-12-2019 07:40:00 6.7 C 7.14 g/m*3 6.7 C 3.2 km/h
1246 22-12-2019 07:45:00 6.8 C 7.27 g/m*3 6.8 C 3.2 km/h
1247 22-12-2019 07:50:00 6.9 C 7.31 g/m*3 6.9 C 1.6 km/h
1248 22-12-2019 07:55:00 6.9 C 7.31 g/m*3 6.9 C 0 km/h
1249 22-12-2019 08:00:00 6.9 C 7.31 g/m*3 6.9 C 1.6 km/h
1250 22-12-2019 08:05:00 7 C 7.36 g/m*3 7 C 1.6 km/h
Sensor: Nr:Datum:Temp:Abs-Feuchte:Windchill:Wind:
Aussen-T/F 1251 22-12-2019 08:10:00 7 C 7.36 g/m*3 7 C 0 km/h
1252 22-12-2019 08:15:00 7.1 C 7.41 g/m*3 7.1 C 0 km/h
1253 22-12-2019 08:20:00 7 C 7.36 g/m*3 7 C 0 km/h
1254 22-12-2019 08:25:00 6.9 C 7.31 g/m*3 6.9 C 0 km/h
1255 22-12-2019 08:30:00 6.8 C 7.19 g/m*3 6.8 C 0 km/h
1256 22-12-2019 08:35:00 6.8 C 7.27 g/m*3 6.8 C 3.2 km/h
1257 22-12-2019 08:40:00 6.9 C 7.31 g/m*3 6.9 C 1.6 km/h
1258 22-12-2019 08:45:00 7.1 C 7.41 g/m*3 7.1 C 3.2 km/h
1259 22-12-2019 08:50:00 7.1 C 7.41 g/m*3 7.1 C 0 km/h
1260 22-12-2019 08:55:00 7.1 C 7.41 g/m*3 7.1 C 1.6 km/h
1261 22-12-2019 09:00:00 7.1 C 7.41 g/m*3 7.1 C 3.2 km/h
1262 22-12-2019 09:05:00 7 C 7.36 g/m*3 7 C 1.6 km/h
1263 22-12-2019 09:10:00 7 C 7.36 g/m*3 7 C 0 km/h
1264 22-12-2019 09:15:00 7.1 C 7.41 g/m*3 7.1 C 4.8 km/h
1265 22-12-2019 09:20:00 7.2 C 7.46 g/m*3 7.2 C 3.2 km/h
1266 22-12-2019 09:25:00 7.2 C 7.46 g/m*3 7.2 C 0 km/h
1267 22-12-2019 09:30:00 7.2 C 7.46 g/m*3 7.2 C 0 km/h
1268 22-12-2019 09:35:00 7.2 C 7.46 g/m*3 5.69 C 8.1 km/h
1269 22-12-2019 09:40:00 7.5 C 7.6 g/m*3 7.5 C 1.6 km/h
1270 22-12-2019 09:45:00 7.6 C 7.65 g/m*3 7.6 C 1.6 km/h
1271 22-12-2019 09:50:00 7.7 C 7.7 g/m*3 7.7 C 3.2 km/h
1272 22-12-2019 09:55:00 7.7 C 7.7 g/m*3 7.7 C 0 km/h
1273 22-12-2019 10:00:00 7.8 C 7.75 g/m*3 7.8 C 0 km/h
1274 22-12-2019 10:05:00 7.8 C 7.75 g/m*3 7.8 C 4.8 km/h
1275 22-12-2019 10:10:00 7.9 C 7.8 g/m*3 7.9 C 1.6 km/h
Sensor: Nr:Datum:Temp:Abs-Feuchte:Windchill:Wind:
Aussen-T/F 1276 22-12-2019 10:15:00 8.1 C 7.9 g/m*3 8.1 C 3.2 km/h
1277 22-12-2019 10:20:00 8.2 C 7.96 g/m*3 8.2 C 4.8 km/h
1278 22-12-2019 10:25:00 8.4 C 7.97 g/m*3 8.4 C 4.8 km/h
1279 22-12-2019 10:30:00 8.7 C 8.04 g/m*3 8.7 C 4.8 km/h
1280 22-12-2019 10:35:00 8.9 C 8.15 g/m*3 7.69 C 8.1 km/h
1281 22-12-2019 10:40:00 9.1 C 8.07 g/m*3 9.1 C 3.2 km/h
1282 22-12-2019 10:45:00 9.2 C 8.13 g/m*3 8.45 C 6.4 km/h
1283 22-12-2019 10:50:00 9.3 C 8.09 g/m*3 8.56 C 6.4 km/h
1284 22-12-2019 10:55:00 9.4 C 8.14 g/m*3 9.4 C 1.6 km/h
1285 22-12-2019 11:00:00 9.5 C 8.1 g/m*3 8.09 C 9.7 km/h
1286 22-12-2019 11:05:00 9.6 C 8.15 g/m*3 9.6 C 1.6 km/h
1287 22-12-2019 11:10:00 9.7 C 8.11 g/m*3 9.7 C 1.6 km/h
1288 22-12-2019 11:15:00 9.8 C 8.26 g/m*3 9.8 C 1.6 km/h
1289 22-12-2019 11:20:00 9.9 C 8.12 g/m*3 8.56 C 9.7 km/h
1290 22-12-2019 11:25:00 10.1 C 8.23 g/m*3 9.1 C 8.1 km/h
1291 22-12-2019 11:30:00 10.2 C 8.18 g/m*3 8.43 C 12.9 km/h
1292 22-12-2019 11:35:00 10.3 C 8.24 g/m*3 9.72 C 6.4 km/h
1293 22-12-2019 11:40:00 10.4 C 8.29 g/m*3 9.16 C 9.7 km/h
1294 22-12-2019 11:45:00 10.4 C 8.29 g/m*3 9.83 C 6.4 km/h
1295 22-12-2019 11:50:00 10.4 C 8.29 g/m*3 10.4 C 4.8 km/h
1296 22-12-2019 11:55:00 10.5 C 8.34 g/m*3 9.02 C 11.3 km/h
1297 22-12-2019 12:00:00 10.5 C 8.34 g/m*3 9.57 C 8.1 km/h
1298 22-12-2019 12:05:00 10.6 C 8.3 g/m*3 9.69 C 8.1 km/h
1299 22-12-2019 12:10:00 10.6 C 8.39 g/m*3 10.6 C 3.2 km/h
1300 22-12-2019 12:15:00 10.6 C 8.39 g/m*3 9.69 C 8.1 km/h
Sensor: Nr:Datum:Temp:Abs-Feuchte:Windchill:Wind:
Aussen-T/F 1301 22-12-2019 12:20:00 10.7 C 8.45 g/m*3 10.18 C 6.4 km/h
1302 22-12-2019 12:25:00 10.7 C 8.35 g/m*3 10.18 C 6.4 km/h
1303 22-12-2019 12:30:00 10.7 C 8.35 g/m*3 9.81 C 8.1 km/h
1304 22-12-2019 12:35:00 10.7 C 8.35 g/m*3 9.52 C 9.7 km/h
1305 22-12-2019 12:40:00 10.8 C 8.5 g/m*3 9.93 C 8.1 km/h
1306 22-12-2019 12:45:00 10.8 C 8.5 g/m*3 9.93 C 8.1 km/h
1307 22-12-2019 12:50:00 10.9 C 8.55 g/m*3 9.76 C 9.7 km/h
1308 22-12-2019 12:55:00 10.9 C 8.55 g/m*3 9.76 C 9.7 km/h
1309 22-12-2019 13:00:00 11 C 8.51 g/m*3 9.4 C 12.9 km/h
1310 22-12-2019 13:05:00 11.1 C 8.56 g/m*3 11.1 C 9.7 km/h
1311 22-12-2019 13:10:00 11.1 C 8.46 g/m*3 11.1 C 11.3 km/h
1312 22-12-2019 13:15:00 11 C 8.41 g/m*3 9.4 C 12.9 km/h
1313 22-12-2019 13:20:00 10.9 C 8.36 g/m*3 8.73 C 17.7 km/h
1314 22-12-2019 13:25:00 10.9 C 8.36 g/m*3 8.9 C 16.1 km/h
1315 22-12-2019 13:30:00 10.9 C 8.36 g/m*3 9.08 C 14.5 km/h
1316 22-12-2019 13:35:00 10.9 C 8.26 g/m*3 9.28 C 12.9 km/h
1317 22-12-2019 13:40:00 10.9 C 8.26 g/m*3 8.9 C 16.1 km/h
1318 22-12-2019 13:45:00 10.9 C 8.26 g/m*3 9.28 C 12.9 km/h
1319 22-12-2019 13:50:00 10.9 C 8.26 g/m*3 8.9 C 16.1 km/h
1320 22-12-2019 13:55:00 10.9 C 8.26 g/m*3 9.76 C 9.7 km/h
1321 22-12-2019 14:00:00 11.1 C 8.36 g/m*3 11.1 C 11.3 km/h
1322 22-12-2019 14:05:00 11.1 C 8.26 g/m*3 11.1 C 9.7 km/h
1323 22-12-2019 14:10:00 11.1 C 8.26 g/m*3 11.1 C 19.3 km/h
1324 22-12-2019 14:15:00 11.1 C 8.26 g/m*3 11.1 C 12.9 km/h
1325 22-12-2019 14:20:00 11.1 C 8.26 g/m*3 11.1 C 8.1 km/h
Sensor: Nr:Datum:Temp:Abs-Feuchte:Windchill:Wind:
Aussen-T/F 1326 22-12-2019 14:25:00 11.1 C 8.26 g/m*3 11.1 C 9.7 km/h
1327 22-12-2019 14:30:00 11.1 C 8.16 g/m*3 11.1 C 14.5 km/h
1328 22-12-2019 14:35:00 11.1 C 8.26 g/m*3 11.1 C 12.9 km/h
1329 22-12-2019 14:40:00 11.1 C 8.26 g/m*3 11.1 C 12.9 km/h
1330 22-12-2019 14:45:00 11 C 8.21 g/m*3 8.42 C 22.5 km/h
1331 22-12-2019 14:50:00 11 C 8.21 g/m*3 9.88 C 9.7 km/h
1332 22-12-2019 14:55:00 10.9 C 8.16 g/m*3 9.51 C 11.3 km/h
1333 22-12-2019 15:00:00 10.9 C 8.16 g/m*3 9.08 C 14.5 km/h
1334 22-12-2019 15:05:00 10.9 C 8.26 g/m*3 8.58 C 19.3 km/h
1335 22-12-2019 15:10:00 10.8 C 8.3 g/m*3 8.45 C 19.3 km/h
1336 22-12-2019 15:15:00 10.7 C 8.25 g/m*3 7.79 C 25.7 km/h
1337 22-12-2019 15:20:00 10.6 C 8.2 g/m*3 7.66 C 25.7 km/h
1338 22-12-2019 15:25:00 10.5 C 8.24 g/m*3 8.8 C 12.9 km/h
1339 22-12-2019 15:30:00 10.4 C 8.19 g/m*3 8.28 C 16.1 km/h
1340 22-12-2019 15:35:00 10.3 C 8.14 g/m*3 7.98 C 17.7 km/h
1341 22-12-2019 15:40:00 10.2 C 8.09 g/m*3 7.02 C 27.4 km/h
1342 22-12-2019 15:45:00 10.1 C 7.94 g/m*3 7.57 C 19.3 km/h
1343 22-12-2019 15:50:00 10 C 7.89 g/m*3 8.42 C 11.3 km/h
1344 22-12-2019 15:55:00 9.9 C 7.75 g/m*3 8.06 C 12.9 km/h
1345 22-12-2019 16:00:00 9.8 C 7.7 g/m*3 7.54 C 16.1 km/h
1346 22-12-2019 16:05:00 9.8 C 7.7 g/m*3 6.76 C 24.1 km/h
1347 22-12-2019 16:10:00 9.7 C 7.65 g/m*3 7.41 C 16.1 km/h
1348 22-12-2019 16:15:00 9.7 C 7.65 g/m*3 7.41 C 16.1 km/h
1349 22-12-2019 16:20:00 9.6 C 7.6 g/m*3 6.79 C 20.9 km/h
1350 22-12-2019 16:25:00 9.4 C 7.6 g/m*3 7.04 C 16.1 km/h
Sensor: Nr:Datum:Temp:Abs-Feuchte:Windchill:Wind:
Aussen-T/F 1351 22-12-2019 16:30:00 9.3 C 7.55 g/m*3 7.33 C 12.9 km/h
1352 22-12-2019 16:35:00 9.2 C 7.5 g/m*3 6.44 C 19.3 km/h
1353 22-12-2019 16:40:00 9 C 7.49 g/m*3 6.75 C 14.5 km/h
1354 22-12-2019 16:45:00 8.9 C 7.45 g/m*3 6.62 C 14.5 km/h
1355 22-12-2019 16:50:00 8.9 C 7.53 g/m*3 8.9 C 4.8 km/h
1356 22-12-2019 16:55:00 8.8 C 7.57 g/m*3 6.72 C 12.9 km/h
1357 22-12-2019 17:00:00 8.7 C 7.61 g/m*3 6.85 C 11.3 km/h
1358 22-12-2019 17:05:00 8.6 C 7.56 g/m*3 6.05 C 16.1 km/h
1359 22-12-2019 17:10:00 8.4 C 7.55 g/m*3 5.43 C 19.3 km/h
1360 22-12-2019 17:15:00 8.3 C 7.5 g/m*3 6.12 C 12.9 km/h
1361 22-12-2019 17:20:00 8.2 C 7.54 g/m*3 6.25 C 11.3 km/h
1362 22-12-2019 17:25:00 8.1 C 7.41 g/m*3 4.89 C 20.9 km/h
1363 22-12-2019 17:30:00 8.1 C 7.41 g/m*3 5.05 C 19.3 km/h
1364 22-12-2019 17:35:00 8 C 7.28 g/m*3 6.3 C 9.7 km/h
1365 22-12-2019 17:40:00 7.9 C 7.23 g/m*3 4.98 C 17.7 km/h
1366 22-12-2019 17:45:00 7.9 C 7.23 g/m*3 5.18 C 16.1 km/h
1367 22-12-2019 17:50:00 7.9 C 7.23 g/m*3 5.39 C 14.5 km/h
1368 22-12-2019 17:55:00 7.9 C 7.23 g/m*3 6.52 C 8.1 km/h
1369 22-12-2019 18:00:00 7.9 C 7.23 g/m*3 5.89 C 11.3 km/h
1370 22-12-2019 18:05:00 7.8 C 7.26 g/m*3 5.77 C 11.3 km/h
1371 22-12-2019 18:10:00 7.8 C 7.26 g/m*3 6.83 C 6.4 km/h
1372 22-12-2019 18:15:00 7.8 C 7.35 g/m*3 5.51 C 12.9 km/h
1373 22-12-2019 18:20:00 7.8 C 7.35 g/m*3 6.06 C 9.7 km/h
1374 22-12-2019 18:25:00 7.8 C 7.35 g/m*3 6.4 C 8.1 km/h
1375 22-12-2019 18:30:00 7.8 C 7.35 g/m*3 5.77 C 11.3 km/h
Sensor: Nr:Datum:Temp:Abs-Feuchte:Windchill:Wind:
Aussen-T/F 1376 22-12-2019 18:35:00 7.8 C 7.26 g/m*3 5.51 C 12.9 km/h
1377 22-12-2019 18:40:00 7.8 C 7.26 g/m*3 5.77 C 11.3 km/h
1378 22-12-2019 18:45:00 7.8 C 7.26 g/m*3 4.86 C 17.7 km/h
1379 22-12-2019 18:50:00 7.9 C 7.31 g/m*3 5.89 C 11.3 km/h
1380 22-12-2019 18:55:00 7.9 C 7.31 g/m*3 5.63 C 12.9 km/h
1381 22-12-2019 19:00:00 7.9 C 7.39 g/m*3 6.52 C 8.1 km/h
1382 22-12-2019 19:05:00 7.9 C 7.39 g/m*3 5.39 C 14.5 km/h
1383 22-12-2019 19:10:00 7.8 C 7.35 g/m*3 6.06 C 9.7 km/h
1384 22-12-2019 19:15:00 7.8 C 7.43 g/m*3 6.06 C 9.7 km/h
1385 22-12-2019 19:20:00 7.8 C 7.43 g/m*3 6.4 C 8.1 km/h
1386 22-12-2019 19:25:00 7.8 C 7.43 g/m*3 6.06 C 9.7 km/h
1387 22-12-2019 19:30:00 7.8 C 7.43 g/m*3 6.06 C 9.7 km/h
1388 22-12-2019 19:35:00 7.8 C 7.43 g/m*3 6.4 C 8.1 km/h
1389 22-12-2019 19:40:00 7.8 C 7.43 g/m*3 5.51 C 12.9 km/h
1390 22-12-2019 19:45:00 7.9 C 7.39 g/m*3 4.8 C 19.3 km/h
1391 22-12-2019 19:50:00 8.1 C 7.41 g/m*3 5.64 C 14.5 km/h
1392 22-12-2019 19:55:00 8.2 C 7.37 g/m*3 5.99 C 12.9 km/h
1393 22-12-2019 20:00:00 8.2 C 7.29 g/m*3 5.55 C 16.1 km/h
1394 22-12-2019 20:05:00 8.3 C 7.33 g/m*3 6.66 C 9.7 km/h
1395 22-12-2019 20:10:00 8.3 C 7.25 g/m*3 6.37 C 11.3 km/h
1396 22-12-2019 20:15:00 8.4 C 7.21 g/m*3 5.43 C 19.3 km/h
1397 22-12-2019 20:20:00 8.4 C 7.13 g/m*3 5.43 C 19.3 km/h
1398 22-12-2019 20:25:00 8.5 C 7.09 g/m*3 5.56 C 19.3 km/h
1399 22-12-2019 20:30:00 8.6 C 7.13 g/m*3 6.48 C 12.9 km/h
1400 22-12-2019 20:35:00 8.5 C 7.17 g/m*3 6.13 C 14.5 km/h
Sensor: Nr:Datum:Temp:Abs-Feuchte:Windchill:Wind:
Aussen-T/F 1401 22-12-2019 20:40:00 8.4 C 7.13 g/m*3 6.49 C 11.3 km/h
1402 22-12-2019 20:45:00 8.4 C 7.13 g/m*3 6.49 C 11.3 km/h
1403 22-12-2019 20:50:00 8.4 C 7.13 g/m*3 7.11 C 8.1 km/h
1404 22-12-2019 20:55:00 8.4 C 7.13 g/m*3 6.49 C 11.3 km/h
1405 22-12-2019 21:00:00 8.3 C 7.08 g/m*3 5.48 C 17.7 km/h
1406 22-12-2019 21:05:00 8.4 C 7.13 g/m*3 6.24 C 12.9 km/h
1407 22-12-2019 21:10:00 8.4 C 7.13 g/m*3 6.01 C 14.5 km/h
1408 22-12-2019 21:15:00 8.4 C 7.13 g/m*3 6.78 C 9.7 km/h
1409 22-12-2019 21:20:00 8.4 C 7.21 g/m*3 6.49 C 11.3 km/h
1410 22-12-2019 21:25:00 8.3 C 7.16 g/m*3 6.37 C 11.3 km/h
1411 22-12-2019 21:30:00 8.3 C 7.16 g/m*3 6.12 C 12.9 km/h
1412 22-12-2019 21:35:00 8.4 C 7.21 g/m*3 6.49 C 11.3 km/h
1413 22-12-2019 21:40:00 8.3 C 7.16 g/m*3 6.66 C 9.7 km/h
1414 22-12-2019 21:45:00 8.3 C 7.16 g/m*3 6.12 C 12.9 km/h
1415 22-12-2019 21:50:00 8.3 C 7.16 g/m*3 6.66 C 9.7 km/h
1416 22-12-2019 21:55:00 8.3 C 7.16 g/m*3 6.66 C 9.7 km/h
1417 22-12-2019 22:00:00 8.3 C 7.16 g/m*3 6.66 C 9.7 km/h
1418 22-12-2019 22:05:00 8.2 C 7.12 g/m*3 5.99 C 12.9 km/h
1419 22-12-2019 22:10:00 8.2 C 7.12 g/m*3 6.25 C 11.3 km/h
1420 22-12-2019 22:15:00 8.2 C 7.2 g/m*3 6.25 C 11.3 km/h
1421 22-12-2019 22:20:00 8.1 C 7.16 g/m*3 7.17 C 6.4 km/h
1422 22-12-2019 22:25:00 7.9 C 7.06 g/m*3 6.52 C 8.1 km/h
1423 22-12-2019 22:30:00 7.8 C 7.02 g/m*3 7.8 C 4.8 km/h
1424 22-12-2019 22:35:00 7.7 C 7.05 g/m*3 7.7 C 4.8 km/h
1425 22-12-2019 22:40:00 7.6 C 7.01 g/m*3 7.6 C 4.8 km/h
Sensor: Nr:Datum:Temp:Abs-Feuchte:Windchill:Wind:
Aussen-T/F 1426 22-12-2019 22:45:00 7.5 C 6.96 g/m*3 5.7 C 9.7 km/h
1427 22-12-2019 22:50:00 7.4 C 7 g/m*3 7.4 C 4.8 km/h
1428 22-12-2019 22:55:00 7.3 C 6.95 g/m*3 7.3 C 1.6 km/h
1429 22-12-2019 23:00:00 7.2 C 6.91 g/m*3 7.2 C 1.6 km/h
1430 22-12-2019 23:05:00 7.1 C 6.94 g/m*3 7.1 C 3.2 km/h
1431 22-12-2019 23:10:00 7.1 C 6.94 g/m*3 7.1 C 4.8 km/h
1432 22-12-2019 23:15:00 7 C 6.97 g/m*3 7 C 1.6 km/h
1433 22-12-2019 23:20:00 7 C 6.97 g/m*3 7 C 1.6 km/h
1434 22-12-2019 23:25:00 7 C 6.97 g/m*3 7 C 0 km/h
1435 22-12-2019 23:30:00 7 C 6.97 g/m*3 7 C 0 km/h
1436 22-12-2019 23:35:00 7.1 C 7.1 g/m*3 7.1 C 0 km/h
1437 22-12-2019 23:40:00 7.1 C 7.1 g/m*3 7.1 C 1.6 km/h
1438 22-12-2019 23:45:00 7.1 C 7.1 g/m*3 7.1 C 1.6 km/h
1439 22-12-2019 23:50:00 7.2 C 7.14 g/m*3 7.2 C 0 km/h
1440 22-12-2019 23:55:00 7.2 C 7.14 g/m*3 7.2 C 0 km/h
1441 23-12-2019 00:00:00 7.2 C 7.14 g/m*3 7.2 C 0 km/h
1442 23-12-2019 00:05:00 7.2 C 7.14 g/m*3 7.2 C 0 km/h
1443 23-12-2019 00:10:00 7.2 C 7.14 g/m*3 7.2 C 1.6 km/h
1444 23-12-2019 00:15:00 7.2 C 7.14 g/m*3 7.2 C 3.2 km/h
1445 23-12-2019 00:20:00 7.1 C 7.1 g/m*3 7.1 C 3.2 km/h
1446 23-12-2019 00:25:00 7.1 C 7.1 g/m*3 7.1 C 0 km/h
1447 23-12-2019 00:30:00 7.1 C 7.1 g/m*3 7.1 C 0 km/h
1448 23-12-2019 00:35:00 7 C 7.05 g/m*3 7 C 0 km/h
1449 23-12-2019 00:40:00 7.1 C 7.1 g/m*3 7.1 C 3.2 km/h
1450 23-12-2019 00:45:00 7.1 C 7.1 g/m*3 6.02 C 6.4 km/h
Sensor: Nr:Datum:Temp:Abs-Feuchte:Windchill:Wind:
Aussen-T/F 1451 23-12-2019 00:50:00 7.2 C 7.14 g/m*3 7.2 C 4.8 km/h
1452 23-12-2019 00:55:00 7.2 C 7.14 g/m*3 7.2 C 4.8 km/h
1453 23-12-2019 01:00:00 7.2 C 7.06 g/m*3 7.2 C 4.8 km/h
1454 23-12-2019 01:05:00 7.2 C 7.06 g/m*3 7.2 C 3.2 km/h
1455 23-12-2019 01:10:00 7.2 C 7.06 g/m*3 7.2 C 3.2 km/h
1456 23-12-2019 01:15:00 7.2 C 7.06 g/m*3 6.13 C 6.4 km/h
1457 23-12-2019 01:20:00 7.2 C 7.06 g/m*3 7.2 C 4.8 km/h
1458 23-12-2019 01:25:00 7.2 C 7.06 g/m*3 7.2 C 3.2 km/h
1459 23-12-2019 01:30:00 7.3 C 7.11 g/m*3 7.3 C 3.2 km/h
1460 23-12-2019 01:35:00 7.3 C 7.11 g/m*3 7.3 C 4.8 km/h
1461 23-12-2019 01:40:00 7.4 C 7.16 g/m*3 5.58 C 9.7 km/h
1462 23-12-2019 01:45:00 7.5 C 7.12 g/m*3 5.7 C 9.7 km/h
1463 23-12-2019 01:50:00 7.6 C 7.17 g/m*3 5.53 C 11.3 km/h
1464 23-12-2019 01:55:00 7.6 C 7.17 g/m*3 6.16 C 8.1 km/h
1465 23-12-2019 02:00:00 7.6 C 7.09 g/m*3 6.16 C 8.1 km/h
1466 23-12-2019 02:05:00 7.6 C 7.09 g/m*3 7.6 C 3.2 km/h
1467 23-12-2019 02:10:00 7.4 C 7 g/m*3 6.37 C 6.4 km/h
1468 23-12-2019 02:15:00 7.3 C 6.95 g/m*3 7.3 C 3.2 km/h
1469 23-12-2019 02:20:00 7.2 C 6.99 g/m*3 5.69 C 8.1 km/h
1470 23-12-2019 02:25:00 7.2 C 6.99 g/m*3 5.69 C 8.1 km/h
1471 23-12-2019 02:30:00 7.2 C 6.99 g/m*3 5.69 C 8.1 km/h
1472 23-12-2019 02:35:00 7.2 C 6.99 g/m*3 6.13 C 6.4 km/h
1473 23-12-2019 02:40:00 7.2 C 7.06 g/m*3 4.77 C 12.9 km/h
1474 23-12-2019 02:45:00 7.4 C 7.16 g/m*3 4.78 C 14.5 km/h
1475 23-12-2019 02:50:00 7.5 C 7.2 g/m*3 6.05 C 8.1 km/h
Sensor: Nr:Datum:Temp:Abs-Feuchte:Windchill:Wind:
Aussen-T/F 1476 23-12-2019 02:55:00 7.5 C 7.12 g/m*3 6.48 C 6.4 km/h
1477 23-12-2019 03:00:00 7.4 C 7.08 g/m*3 7.4 C 4.8 km/h
1478 23-12-2019 03:05:00 7.3 C 7.11 g/m*3 5.81 C 8.1 km/h
1479 23-12-2019 03:10:00 7.2 C 7.06 g/m*3 6.13 C 6.4 km/h
1480 23-12-2019 03:15:00 7.1 C 7.02 g/m*3 5.58 C 8.1 km/h
1481 23-12-2019 03:20:00 7 C 6.97 g/m*3 4.53 C 12.9 km/h
1482 23-12-2019 03:25:00 7 C 6.97 g/m*3 5.46 C 8.1 km/h
1483 23-12-2019 03:30:00 7 C 6.97 g/m*3 5.11 C 9.7 km/h
1484 23-12-2019 03:35:00 7.1 C 7.02 g/m*3 4.65 C 12.9 km/h
1485 23-12-2019 03:40:00 7.1 C 7.02 g/m*3 4.92 C 11.3 km/h
1486 23-12-2019 03:45:00 7.2 C 7.06 g/m*3 6.13 C 6.4 km/h
1487 23-12-2019 03:50:00 7.2 C 7.06 g/m*3 7.2 C 4.8 km/h
1488 23-12-2019 03:55:00 7.2 C 7.06 g/m*3 7.2 C 4.8 km/h
1489 23-12-2019 04:00:00 7.2 C 7.06 g/m*3 5.35 C 9.7 km/h
1490 23-12-2019 04:05:00 7.2 C 7.06 g/m*3 7.2 C 4.8 km/h
1491 23-12-2019 04:10:00 7.3 C 7.11 g/m*3 5.47 C 9.7 km/h
1492 23-12-2019 04:15:00 7.3 C 7.11 g/m*3 7.3 C 4.8 km/h
1493 23-12-2019 04:20:00 7.3 C 7.11 g/m*3 7.3 C 1.6 km/h
1494 23-12-2019 04:25:00 7.4 C 7.24 g/m*3 5.93 C 8.1 km/h
1495 23-12-2019 04:30:00 7.4 C 7.16 g/m*3 6.37 C 6.4 km/h
1496 23-12-2019 04:35:00 7.3 C 7.11 g/m*3 6.25 C 6.4 km/h
1497 23-12-2019 04:40:00 7.3 C 7.11 g/m*3 7.3 C 1.6 km/h
1498 23-12-2019 04:45:00 7.2 C 7.06 g/m*3 7.2 C 4.8 km/h
1499 23-12-2019 04:50:00 7.1 C 7.02 g/m*3 7.1 C 1.6 km/h
1500 23-12-2019 04:55:00 7.1 C 7.1 g/m*3 7.1 C 4.8 km/h
Sensor: Nr:Datum:Temp:Abs-Feuchte:Windchill:Wind:
Aussen-T/F 1501 23-12-2019 05:00:00 7 C 7.05 g/m*3 7 C 4.8 km/h
1502 23-12-2019 05:05:00 7 C 7.05 g/m*3 7 C 4.8 km/h
1503 23-12-2019 05:10:00 7.1 C 7.18 g/m*3 5.58 C 8.1 km/h
1504 23-12-2019 05:15:00 7.2 C 7.22 g/m*3 7.2 C 4.8 km/h
1505 23-12-2019 05:20:00 7.3 C 7.27 g/m*3 5.81 C 8.1 km/h
1506 23-12-2019 05:25:00 7.3 C 7.27 g/m*3 5.81 C 8.1 km/h
1507 23-12-2019 05:30:00 7.4 C 7.24 g/m*3 5.28 C 11.3 km/h
1508 23-12-2019 05:35:00 7.4 C 7.24 g/m*3 6.37 C 6.4 km/h
1509 23-12-2019 05:40:00 7.4 C 7.24 g/m*3 7.4 C 4.8 km/h
1510 23-12-2019 05:45:00 7.3 C 7.19 g/m*3 7.3 C 4.8 km/h
1511 23-12-2019 05:50:00 7.2 C 7.14 g/m*3 7.2 C 3.2 km/h
1512 23-12-2019 05:55:00 7.2 C 7.14 g/m*3 7.2 C 3.2 km/h
1513 23-12-2019 06:00:00 7.1 C 7.1 g/m*3 7.1 C 1.6 km/h
1514 23-12-2019 06:05:00 7 C 7.05 g/m*3 7 C 1.6 km/h
1515 23-12-2019 06:10:00 7 C 7.13 g/m*3 7 C 3.2 km/h
1516 23-12-2019 06:15:00 7 C 7.13 g/m*3 7 C 3.2 km/h
1517 23-12-2019 06:20:00 7.1 C 7.18 g/m*3 5.58 C 8.1 km/h
1518 23-12-2019 06:25:00 7.2 C 7.22 g/m*3 7.2 C 4.8 km/h
1519 23-12-2019 06:30:00 7.2 C 7.22 g/m*3 6.13 C 6.4 km/h
1520 23-12-2019 06:35:00 7.3 C 7.27 g/m*3 5.81 C 8.1 km/h
1521 23-12-2019 06:40:00 7.4 C 7.32 g/m*3 7.4 C 4.8 km/h
1522 23-12-2019 06:45:00 7.4 C 7.32 g/m*3 5.93 C 8.1 km/h
1523 23-12-2019 06:50:00 7.4 C 7.24 g/m*3 6.37 C 6.4 km/h
1524 23-12-2019 06:55:00 7.5 C 7.36 g/m*3 6.48 C 6.4 km/h
1525 23-12-2019 07:00:00 7.5 C 7.36 g/m*3 6.48 C 6.4 km/h
Sensor: Nr:Datum:Temp:Abs-Feuchte:Windchill:Wind:
Aussen-T/F 1526 23-12-2019 07:05:00 7.5 C 7.36 g/m*3 7.5 C 4.8 km/h
1527 23-12-2019 07:10:00 7.5 C 7.36 g/m*3 7.5 C 3.2 km/h
1528 23-12-2019 07:15:00 7.5 C 7.36 g/m*3 7.5 C 3.2 km/h
1529 23-12-2019 07:20:00 7.5 C 7.36 g/m*3 6.48 C 6.4 km/h
1530 23-12-2019 07:25:00 7.5 C 7.36 g/m*3 5.7 C 9.7 km/h
1531 23-12-2019 07:30:00 7.5 C 7.36 g/m*3 7.5 C 3.2 km/h
1532 23-12-2019 07:35:00 7.6 C 7.41 g/m*3 6.16 C 8.1 km/h
1533 23-12-2019 07:40:00 7.6 C 7.33 g/m*3 6.16 C 8.1 km/h
1534 23-12-2019 07:45:00 7.7 C 7.38 g/m*3 6.28 C 8.1 km/h
1535 23-12-2019 07:50:00 7.7 C 7.38 g/m*3 7.7 C 4.8 km/h
1536 23-12-2019 07:55:00 7.7 C 7.3 g/m*3 5.94 C 9.7 km/h
1537 23-12-2019 08:00:00 7.8 C 7.35 g/m*3 6.83 C 6.4 km/h
1538 23-12-2019 08:05:00 7.8 C 7.35 g/m*3 6.06 C 9.7 km/h
1539 23-12-2019 08:10:00 7.8 C 7.35 g/m*3 6.4 C 8.1 km/h
1540 23-12-2019 08:15:00 7.8 C 7.35 g/m*3 6.83 C 6.4 km/h
1541 23-12-2019 08:20:00 7.8 C 7.35 g/m*3 5.77 C 11.3 km/h
1542 23-12-2019 08:25:00 7.9 C 7.39 g/m*3 6.94 C 6.4 km/h
1543 23-12-2019 08:30:00 7.9 C 7.39 g/m*3 7.9 C 4.8 km/h
1544 23-12-2019 08:35:00 7.9 C 7.39 g/m*3 7.9 C 4.8 km/h
1545 23-12-2019 08:40:00 7.9 C 7.31 g/m*3 6.94 C 6.4 km/h
1546 23-12-2019 08:45:00 7.9 C 7.31 g/m*3 6.94 C 6.4 km/h
1547 23-12-2019 08:50:00 7.9 C 7.31 g/m*3 6.18 C 9.7 km/h
1548 23-12-2019 08:55:00 7.9 C 7.31 g/m*3 5.39 C 14.5 km/h
1549 23-12-2019 09:00:00 7.9 C 7.31 g/m*3 6.94 C 6.4 km/h
1550 23-12-2019 09:05:00 8 C 7.36 g/m*3 7.06 C 6.4 km/h
Sensor: Nr:Datum:Temp:Abs-Feuchte:Windchill:Wind:
Aussen-T/F 1551 23-12-2019 09:10:00 8.1 C 7.41 g/m*3 6.42 C 9.7 km/h
1552 23-12-2019 09:15:00 8.1 C 7.32 g/m*3 6.13 C 11.3 km/h
1553 23-12-2019 09:20:00 8.2 C 7.37 g/m*3 5.99 C 12.9 km/h
1554 23-12-2019 09:25:00 8.2 C 7.37 g/m*3 6.25 C 11.3 km/h
1555 23-12-2019 09:30:00 8.2 C 7.37 g/m*3 5.76 C 14.5 km/h
1556 23-12-2019 09:35:00 8.2 C 7.37 g/m*3 5.99 C 12.9 km/h
1557 23-12-2019 09:40:00 8.2 C 7.37 g/m*3 6.25 C 11.3 km/h
1558 23-12-2019 09:45:00 8.2 C 7.37 g/m*3 6.25 C 11.3 km/h
1559 23-12-2019 09:50:00 8.3 C 7.42 g/m*3 6.37 C 11.3 km/h
1560 23-12-2019 09:55:00 8.3 C 7.42 g/m*3 6.99 C 8.1 km/h
1561 23-12-2019 10:00:00 8.3 C 7.42 g/m*3 6.99 C 8.1 km/h
1562 23-12-2019 10:05:00 8.2 C 7.45 g/m*3 6.54 C 9.7 km/h
1563 23-12-2019 10:10:00 8.1 C 7.49 g/m*3 5.87 C 12.9 km/h
1564 23-12-2019 10:15:00 8.1 C 7.57 g/m*3 8.1 C 3.2 km/h
1565 23-12-2019 10:20:00 8 C 7.52 g/m*3 8 C 4.8 km/h
1566 23-12-2019 10:25:00 7.9 C 7.56 g/m*3 7.9 C 4.8 km/h
1567 23-12-2019 10:30:00 7.8 C 7.51 g/m*3 6.83 C 6.4 km/h
1568 23-12-2019 10:35:00 7.7 C 7.46 g/m*3 7.7 C 4.8 km/h
1569 23-12-2019 10:40:00 7.6 C 7.41 g/m*3 6.16 C 8.1 km/h
1570 23-12-2019 10:45:00 7.6 C 7.41 g/m*3 6.6 C 6.4 km/h
1571 23-12-2019 10:50:00 7.7 C 7.46 g/m*3 6.28 C 8.1 km/h
1572 23-12-2019 10:55:00 7.7 C 7.46 g/m*3 5.38 C 12.9 km/h
1573 23-12-2019 11:00:00 7.9 C 7.56 g/m*3 6.94 C 6.4 km/h
1574 23-12-2019 11:05:00 8 C 7.61 g/m*3 7.06 C 6.4 km/h
1575 23-12-2019 11:10:00 8.1 C 7.57 g/m*3 7.17 C 6.4 km/h
Sensor: Nr:Datum:Temp:Abs-Feuchte:Windchill:Wind:
Aussen-T/F 1576 23-12-2019 11:15:00 8.2 C 7.62 g/m*3 6.87 C 8.1 km/h
1577 23-12-2019 11:20:00 8.3 C 7.59 g/m*3 6.37 C 11.3 km/h
1578 23-12-2019 11:25:00 8.4 C 7.55 g/m*3 7.11 C 8.1 km/h
1579 23-12-2019 11:30:00 8.5 C 7.51 g/m*3 6.9 C 9.7 km/h
1580 23-12-2019 11:35:00 8.6 C 7.56 g/m*3 8.6 C 4.8 km/h
1581 23-12-2019 11:40:00 8.7 C 7.61 g/m*3 7.13 C 9.7 km/h
1582 23-12-2019 11:45:00 8.7 C 7.52 g/m*3 6.6 C 12.9 km/h
1583 23-12-2019 11:50:00 8.8 C 7.57 g/m*3 7.25 C 9.7 km/h
1584 23-12-2019 11:55:00 8.9 C 7.53 g/m*3 7.37 C 9.7 km/h
1585 23-12-2019 12:00:00 9.1 C 7.54 g/m*3 7.61 C 9.7 km/h
1586 23-12-2019 12:05:00 9.2 C 7.59 g/m*3 7.73 C 9.7 km/h
1587 23-12-2019 12:10:00 9.2 C 7.59 g/m*3 7.21 C 12.9 km/h
1588 23-12-2019 12:15:00 9.3 C 7.64 g/m*3 8.16 C 8.1 km/h
1589 23-12-2019 12:20:00 9.3 C 7.55 g/m*3 7.85 C 9.7 km/h
1590 23-12-2019 12:25:00 9.3 C 7.55 g/m*3 8.16 C 8.1 km/h
1591 23-12-2019 12:30:00 9.3 C 7.55 g/m*3 7.85 C 9.7 km/h
1592 23-12-2019 12:35:00 9.3 C 7.55 g/m*3 7.85 C 9.7 km/h
1593 23-12-2019 12:40:00 9.3 C 7.64 g/m*3 9.3 C 4.8 km/h
1594 23-12-2019 12:45:00 9.4 C 7.6 g/m*3 8.28 C 8.1 km/h
1595 23-12-2019 12:50:00 9.4 C 7.69 g/m*3 8.68 C 6.4 km/h
1596 23-12-2019 12:55:00 9.3 C 7.73 g/m*3 8.56 C 6.4 km/h
1597 23-12-2019 13:00:00 9.3 C 7.73 g/m*3 8.56 C 6.4 km/h
1598 23-12-2019 13:05:00 9.2 C 7.68 g/m*3 8.45 C 6.4 km/h
1599 23-12-2019 13:10:00 9.2 C 7.68 g/m*3 7.73 C 9.7 km/h
1600 23-12-2019 13:15:00 9.2 C 7.68 g/m*3 8.05 C 8.1 km/h
Sensor: Nr:Datum:Temp:Abs-Feuchte:Windchill:Wind:
Aussen-T/F 1601 23-12-2019 13:20:00 9.2 C 7.77 g/m*3 8.05 C 8.1 km/h
1602 23-12-2019 13:25:00 9.1 C 7.72 g/m*3 7.93 C 8.1 km/h
1603 23-12-2019 13:30:00 9.1 C 7.81 g/m*3 8.33 C 6.4 km/h
1604 23-12-2019 13:35:00 9 C 7.76 g/m*3 8.21 C 6.4 km/h
1605 23-12-2019 13:40:00 9 C 7.76 g/m*3 8.21 C 6.4 km/h
1606 23-12-2019 13:45:00 9 C 7.76 g/m*3 8.21 C 6.4 km/h
1607 23-12-2019 13:50:00 9.1 C 7.9 g/m*3 8.33 C 6.4 km/h
1608 23-12-2019 13:55:00 9.1 C 7.9 g/m*3 8.33 C 6.4 km/h
1609 23-12-2019 14:00:00 9.2 C 7.86 g/m*3 7.73 C 9.7 km/h
1610 23-12-2019 14:05:00 9.2 C 7.77 g/m*3 8.45 C 6.4 km/h
1611 23-12-2019 14:10:00 9.2 C 7.68 g/m*3 8.05 C 8.1 km/h
1612 23-12-2019 14:15:00 9.3 C 7.73 g/m*3 8.56 C 6.4 km/h
1613 23-12-2019 14:20:00 9.3 C 7.73 g/m*3 8.56 C 6.4 km/h
1614 23-12-2019 14:25:00 9.4 C 7.69 g/m*3 7.7 C 11.3 km/h
1615 23-12-2019 14:30:00 9.4 C 7.6 g/m*3 7.46 C 12.9 km/h
1616 23-12-2019 14:35:00 9.4 C 7.6 g/m*3 8.28 C 8.1 km/h
1617 23-12-2019 14:40:00 9.4 C 7.6 g/m*3 7.7 C 11.3 km/h
1618 23-12-2019 14:45:00 9.4 C 7.6 g/m*3 7.7 C 11.3 km/h
1619 23-12-2019 14:50:00 9.4 C 7.6 g/m*3 7.46 C 12.9 km/h
1620 23-12-2019 14:55:00 9.4 C 7.6 g/m*3 8.28 C 8.1 km/h
1621 23-12-2019 15:00:00 9.4 C 7.69 g/m*3 9.4 C 4.8 km/h
1622 23-12-2019 15:05:00 9.3 C 7.64 g/m*3 7.58 C 11.3 km/h
1623 23-12-2019 15:10:00 9.3 C 7.64 g/m*3 6.92 C 16.1 km/h
1624 23-12-2019 15:15:00 9.3 C 7.64 g/m*3 6.92 C 16.1 km/h
1625 23-12-2019 15:20:00 9.3 C 7.55 g/m*3 7.33 C 12.9 km/h
Sensor: Nr:Datum:Temp:Abs-Feuchte:Windchill:Wind:
Aussen-T/F 1626 23-12-2019 15:25:00 9.3 C 7.55 g/m*3 8.16 C 8.1 km/h
1627 23-12-2019 15:30:00 9.3 C 7.55 g/m*3 8.56 C 6.4 km/h
1628 23-12-2019 15:35:00 9.3 C 7.55 g/m*3 8.16 C 8.1 km/h
1629 23-12-2019 15:40:00 9.3 C 7.55 g/m*3 7.85 C 9.7 km/h
1630 23-12-2019 15:45:00 9.3 C 7.55 g/m*3 7.58 C 11.3 km/h
1631 23-12-2019 15:50:00 9.3 C 7.55 g/m*3 7.85 C 9.7 km/h
1632 23-12-2019 15:55:00 9.3 C 7.55 g/m*3 7.85 C 9.7 km/h
1633 23-12-2019 16:00:00 9.2 C 7.5 g/m*3 7.73 C 9.7 km/h
1634 23-12-2019 16:05:00 9.2 C 7.59 g/m*3 7.73 C 9.7 km/h
1635 23-12-2019 16:10:00 9.2 C 7.5 g/m*3 7.46 C 11.3 km/h
1636 23-12-2019 16:15:00 9.1 C 7.54 g/m*3 7.93 C 8.1 km/h
1637 23-12-2019 16:20:00 9.1 C 7.54 g/m*3 7.61 C 9.7 km/h
1638 23-12-2019 16:25:00 9 C 7.49 g/m*3 7.81 C 8.1 km/h
1639 23-12-2019 16:30:00 8.9 C 7.36 g/m*3 8.1 C 6.4 km/h
1640 23-12-2019 16:35:00 8.9 C 7.36 g/m*3 6.85 C 12.9 km/h
1641 23-12-2019 16:40:00 8.9 C 7.36 g/m*3 7.37 C 9.7 km/h
1642 23-12-2019 16:45:00 8.8 C 7.31 g/m*3 7.98 C 6.4 km/h
1643 23-12-2019 16:50:00 8.8 C 7.31 g/m*3 6.5 C 14.5 km/h
1644 23-12-2019 16:55:00 8.8 C 7.31 g/m*3 6.72 C 12.9 km/h
1645 23-12-2019 17:00:00 8.7 C 7.26 g/m*3 7.87 C 6.4 km/h
1646 23-12-2019 17:05:00 8.7 C 7.26 g/m*3 7.13 C 9.7 km/h
1647 23-12-2019 17:10:00 8.7 C 7.26 g/m*3 7.13 C 9.7 km/h
1648 23-12-2019 17:15:00 8.7 C 7.18 g/m*3 7.87 C 6.4 km/h
1649 23-12-2019 17:20:00 8.6 C 7.22 g/m*3 7.75 C 6.4 km/h
1650 23-12-2019 17:25:00 8.6 C 7.22 g/m*3 7.01 C 9.7 km/h
Sensor: Nr:Datum:Temp:Abs-Feuchte:Windchill:Wind:
Aussen-T/F 1651 23-12-2019 17:30:00 8.5 C 7.17 g/m*3 7.22 C 8.1 km/h
1652 23-12-2019 17:35:00 8.4 C 7.13 g/m*3 8.4 C 4.8 km/h
1653 23-12-2019 17:40:00 8.3 C 7.08 g/m*3 7.41 C 6.4 km/h
1654 23-12-2019 17:45:00 8.3 C 7.08 g/m*3 7.41 C 6.4 km/h
1655 23-12-2019 17:50:00 8.2 C 7.03 g/m*3 6.25 C 11.3 km/h
1656 23-12-2019 17:55:00 8.2 C 7.12 g/m*3 7.29 C 6.4 km/h
1657 23-12-2019 18:00:00 8.2 C 7.12 g/m*3 8.2 C 4.8 km/h
1658 23-12-2019 18:05:00 8.2 C 7.03 g/m*3 6.87 C 8.1 km/h
1659 23-12-2019 18:10:00 8.2 C 7.03 g/m*3 6.87 C 8.1 km/h
1660 23-12-2019 18:15:00 8.2 C 7.03 g/m*3 6.87 C 8.1 km/h
1661 23-12-2019 18:20:00 8.2 C 7.03 g/m*3 6.87 C 8.1 km/h
1662 23-12-2019 18:25:00 8.2 C 7.03 g/m*3 6.87 C 8.1 km/h
1663 23-12-2019 18:30:00 8.2 C 7.03 g/m*3 6.87 C 8.1 km/h
1664 23-12-2019 18:35:00 8.2 C 7.03 g/m*3 6.87 C 8.1 km/h
1665 23-12-2019 18:40:00 8.2 C 7.12 g/m*3 6.54 C 9.7 km/h
1666 23-12-2019 18:45:00 8.2 C 7.12 g/m*3 8.2 C 3.2 km/h
1667 23-12-2019 18:50:00 8.1 C 7.16 g/m*3 8.1 C 3.2 km/h
1668 23-12-2019 18:55:00 8.1 C 7.16 g/m*3 7.17 C 6.4 km/h
1669 23-12-2019 19:00:00 8.1 C 7.24 g/m*3 8.1 C 4.8 km/h
1670 23-12-2019 19:05:00 8 C 7.19 g/m*3 8 C 3.2 km/h
1671 23-12-2019 19:10:00 7.9 C 7.15 g/m*3 6.94 C 6.4 km/h
1672 23-12-2019 19:15:00 7.7 C 7.05 g/m*3 7.7 C 3.2 km/h
1673 23-12-2019 19:20:00 7.5 C 6.96 g/m*3 6.48 C 6.4 km/h
1674 23-12-2019 19:25:00 7.3 C 6.95 g/m*3 7.3 C 3.2 km/h
1675 23-12-2019 19:30:00 7.3 C 6.95 g/m*3 5.47 C 9.7 km/h
Sensor: Nr:Datum:Temp:Abs-Feuchte:Windchill:Wind:
Aussen-T/F 1676 23-12-2019 19:35:00 7.4 C 7 g/m*3 5.28 C 11.3 km/h
1677 23-12-2019 19:40:00 7.5 C 6.96 g/m*3 6.48 C 6.4 km/h
1678 23-12-2019 19:45:00 7.5 C 6.96 g/m*3 7.5 C 3.2 km/h
1679 23-12-2019 19:50:00 7.4 C 7 g/m*3 5.58 C 9.7 km/h
1680 23-12-2019 19:55:00 7.3 C 6.95 g/m*3 7.3 C 3.2 km/h
1681 23-12-2019 20:00:00 7.3 C 7.03 g/m*3 6.25 C 6.4 km/h
1682 23-12-2019 20:05:00 7.3 C 7.03 g/m*3 7.3 C 3.2 km/h
1683 23-12-2019 20:10:00 7.2 C 6.99 g/m*3 7.2 C 0 km/h
1684 23-12-2019 20:15:00 7.2 C 6.99 g/m*3 7.2 C 1.6 km/h
1685 23-12-2019 20:20:00 7.2 C 7.06 g/m*3 7.2 C 4.8 km/h
1686 23-12-2019 20:25:00 7.2 C 7.06 g/m*3 7.2 C 3.2 km/h
1687 23-12-2019 20:30:00 7.2 C 7.06 g/m*3 7.2 C 3.2 km/h
1688 23-12-2019 20:35:00 7.2 C 7.06 g/m*3 7.2 C 1.6 km/h
1689 23-12-2019 20:40:00 7.2 C 7.06 g/m*3 7.2 C 1.6 km/h
1690 23-12-2019 20:45:00 7.2 C 7.06 g/m*3 7.2 C 0 km/h
1691 23-12-2019 20:50:00 7.2 C 7.06 g/m*3 7.2 C 4.8 km/h
1692 23-12-2019 20:55:00 7.2 C 7.06 g/m*3 7.2 C 4.8 km/h
1693 23-12-2019 21:00:00 7.2 C 7.06 g/m*3 7.2 C 1.6 km/h
1694 23-12-2019 21:05:00 7.2 C 7.14 g/m*3 7.2 C 4.8 km/h
1695 23-12-2019 21:10:00 7.3 C 7.11 g/m*3 7.3 C 4.8 km/h
1696 23-12-2019 21:15:00 7.3 C 7.11 g/m*3 5.81 C 8.1 km/h
1697 23-12-2019 21:20:00 7.4 C 7.16 g/m*3 6.37 C 6.4 km/h
1698 23-12-2019 21:25:00 7.4 C 7.16 g/m*3 5.58 C 9.7 km/h
1699 23-12-2019 21:30:00 7.4 C 7.16 g/m*3 6.37 C 6.4 km/h
1700 23-12-2019 21:35:00 7.4 C 7.16 g/m*3 5.28 C 11.3 km/h
Sensor: Nr:Datum:Temp:Abs-Feuchte:Windchill:Wind:
Aussen-T/F 1701 23-12-2019 21:40:00 7.3 C 7.11 g/m*3 5.81 C 8.1 km/h
1702 23-12-2019 21:45:00 7.3 C 7.11 g/m*3 7.3 C 4.8 km/h
1703 23-12-2019 21:50:00 7.3 C 7.11 g/m*3 7.3 C 4.8 km/h
1704 23-12-2019 21:55:00 7.2 C 7.06 g/m*3 7.2 C 3.2 km/h
1705 23-12-2019 22:00:00 7.2 C 7.06 g/m*3 6.13 C 6.4 km/h
1706 23-12-2019 22:05:00 7.1 C 7.02 g/m*3 7.1 C 1.6 km/h
1707 23-12-2019 22:10:00 7 C 6.97 g/m*3 7 C 3.2 km/h
1708 23-12-2019 22:15:00 6.9 C 6.93 g/m*3 6.9 C 1.6 km/h
1709 23-12-2019 22:20:00 6.7 C 6.84 g/m*3 6.7 C 3.2 km/h
1710 23-12-2019 22:25:00 6.6 C 6.87 g/m*3 6.6 C 4.8 km/h
1711 23-12-2019 22:30:00 6.6 C 6.87 g/m*3 6.6 C 3.2 km/h
1712 23-12-2019 22:35:00 6.5 C 6.82 g/m*3 6.5 C 3.2 km/h
1713 23-12-2019 22:40:00 6.4 C 6.78 g/m*3 6.4 C 3.2 km/h
1714 23-12-2019 22:45:00 6.3 C 6.74 g/m*3 6.3 C 3.2 km/h
1715 23-12-2019 22:50:00 6.2 C 6.69 g/m*3 6.2 C 4.8 km/h
1716 23-12-2019 22:55:00 6.2 C 6.69 g/m*3 4.15 C 9.7 km/h
1717 23-12-2019 23:00:00 6.1 C 6.65 g/m*3 6.1 C 1.6 km/h
1718 23-12-2019 23:05:00 6.1 C 6.65 g/m*3 6.1 C 4.8 km/h
1719 23-12-2019 23:10:00 6 C 6.6 g/m*3 6 C 4.8 km/h
1720 23-12-2019 23:15:00 5.9 C 6.56 g/m*3 5.9 C 4.8 km/h
1721 23-12-2019 23:20:00 5.9 C 6.56 g/m*3 4.63 C 6.4 km/h
1722 23-12-2019 23:25:00 5.9 C 6.56 g/m*3 5.9 C 4.8 km/h
1723 23-12-2019 23:30:00 5.9 C 6.56 g/m*3 3.8 C 9.7 km/h
1724 23-12-2019 23:35:00 5.9 C 6.56 g/m*3 5.9 C 3.2 km/h
1725 23-12-2019 23:40:00 5.8 C 6.45 g/m*3 5.8 C 3.2 km/h
Sensor: Nr:Datum:Temp:Abs-Feuchte:Windchill:Wind:
Aussen-T/F 1726 23-12-2019 23:45:00 5.8 C 6.52 g/m*3 5.8 C 3.2 km/h
1727 23-12-2019 23:50:00 5.7 C 6.48 g/m*3 5.7 C 4.8 km/h
1728 23-12-2019 23:55:00 5.6 C 6.43 g/m*3 5.6 C 3.2 km/h
1729 24-12-2019 00:00:00 5.6 C 6.5 g/m*3 5.6 C 4.8 km/h
1730 24-12-2019 00:05:00 5.7 C 6.62 g/m*3 5.7 C 4.8 km/h
1731 24-12-2019 00:10:00 5.8 C 6.66 g/m*3 5.8 C 4.8 km/h
1732 24-12-2019 00:15:00 5.9 C 6.71 g/m*3 5.9 C 4.8 km/h
1733 24-12-2019 00:20:00 6 C 6.75 g/m*3 6 C 3.2 km/h
1734 24-12-2019 00:25:00 6.1 C 6.79 g/m*3 6.1 C 1.6 km/h
1735 24-12-2019 00:30:00 6.1 C 6.79 g/m*3 6.1 C 1.6 km/h
1736 24-12-2019 00:35:00 6.2 C 6.84 g/m*3 4.98 C 6.4 km/h
1737 24-12-2019 00:40:00 6.2 C 6.84 g/m*3 6.2 C 3.2 km/h
1738 24-12-2019 00:45:00 6.3 C 6.88 g/m*3 6.3 C 3.2 km/h
1739 24-12-2019 00:50:00 6.3 C 6.88 g/m*3 6.3 C 1.6 km/h
1740 24-12-2019 00:55:00 6.3 C 6.88 g/m*3 6.3 C 3.2 km/h
1741 24-12-2019 01:00:00 6.3 C 6.88 g/m*3 6.3 C 1.6 km/h
1742 24-12-2019 01:05:00 6.3 C 6.81 g/m*3 6.3 C 0 km/h
1743 24-12-2019 01:10:00 6.3 C 6.81 g/m*3 6.3 C 3.2 km/h
1744 24-12-2019 01:15:00 6.2 C 6.77 g/m*3 6.2 C 4.8 km/h
1745 24-12-2019 01:20:00 6.2 C 6.77 g/m*3 6.2 C 4.8 km/h
1746 24-12-2019 01:25:00 6.2 C 6.77 g/m*3 4.52 C 8.1 km/h
1747 24-12-2019 01:30:00 6.3 C 6.88 g/m*3 4.64 C 8.1 km/h
1748 24-12-2019 01:35:00 6.4 C 6.85 g/m*3 6.4 C 4.8 km/h
1749 24-12-2019 01:40:00 6.5 C 6.9 g/m*3 6.5 C 1.6 km/h
1750 24-12-2019 01:45:00 6.4 C 6.85 g/m*3 6.4 C 1.6 km/h
Sensor: Nr:Datum:Temp:Abs-Feuchte:Windchill:Wind:
Aussen-T/F 1751 24-12-2019 01:50:00 6.4 C 6.78 g/m*3 6.4 C 1.6 km/h
1752 24-12-2019 01:55:00 6.4 C 6.85 g/m*3 6.4 C 0 km/h
1753 24-12-2019 02:00:00 6.4 C 6.85 g/m*3 6.4 C 0 km/h
1754 24-12-2019 02:05:00 6.4 C 6.85 g/m*3 6.4 C 0 km/h
1755 24-12-2019 02:10:00 6.4 C 6.85 g/m*3 6.4 C 0 km/h
1756 24-12-2019 02:15:00 6.4 C 6.85 g/m*3 6.4 C 0 km/h
1757 24-12-2019 02:20:00 6.4 C 6.85 g/m*3 6.4 C 0 km/h
1758 24-12-2019 02:25:00 6.4 C 6.85 g/m*3 6.4 C 0 km/h
1759 24-12-2019 02:30:00 6.4 C 6.85 g/m*3 6.4 C 0 km/h
1760 24-12-2019 02:35:00 6.3 C 6.81 g/m*3 6.3 C 0 km/h
1761 24-12-2019 02:40:00 6.3 C 6.88 g/m*3 6.3 C 0 km/h
1762 24-12-2019 02:45:00 6.3 C 6.81 g/m*3 6.3 C 1.6 km/h
1763 24-12-2019 02:50:00 6.4 C 6.93 g/m*3 6.4 C 4.8 km/h
1764 24-12-2019 02:55:00 6.6 C 7.02 g/m*3 4.63 C 9.7 km/h
1765 24-12-2019 03:00:00 6.7 C 6.99 g/m*3 3.92 C 14.5 km/h
1766 24-12-2019 03:05:00 6.8 C 6.96 g/m*3 5.67 C 6.4 km/h
1767 24-12-2019 03:10:00 6.9 C 6.93 g/m*3 6.9 C 1.6 km/h
1768 24-12-2019 03:15:00 6.8 C 6.88 g/m*3 6.8 C 4.8 km/h
1769 24-12-2019 03:20:00 6.7 C 6.84 g/m*3 6.7 C 3.2 km/h
1770 24-12-2019 03:25:00 6.6 C 6.79 g/m*3 6.6 C 3.2 km/h
1771 24-12-2019 03:30:00 6.4 C 6.71 g/m*3 5.21 C 6.4 km/h
1772 24-12-2019 03:35:00 6.4 C 6.71 g/m*3 6.4 C 4.8 km/h
1773 24-12-2019 03:40:00 6.5 C 6.82 g/m*3 4.51 C 9.7 km/h
1774 24-12-2019 03:45:00 6.4 C 6.71 g/m*3 6.4 C 3.2 km/h
1775 24-12-2019 03:50:00 6.3 C 6.66 g/m*3 6.3 C 1.6 km/h
Sensor: Nr:Datum:Temp:Abs-Feuchte:Windchill:Wind:
Aussen-T/F 1776 24-12-2019 03:55:00 6.2 C 6.62 g/m*3 6.2 C 1.6 km/h
1777 24-12-2019 04:00:00 6 C 6.53 g/m*3 6 C 3.2 km/h
1778 24-12-2019 04:05:00 5.9 C 6.56 g/m*3 5.9 C 3.2 km/h
1779 24-12-2019 04:10:00 5.9 C 6.63 g/m*3 5.9 C 1.6 km/h
1780 24-12-2019 04:15:00 5.9 C 6.63 g/m*3 5.9 C 0 km/h
1781 24-12-2019 04:20:00 5.9 C 6.63 g/m*3 5.9 C 0 km/h
1782 24-12-2019 04:25:00 6 C 6.68 g/m*3 6 C 1.6 km/h
1783 24-12-2019 04:30:00 6 C 6.75 g/m*3 6 C 0 km/h
1784 24-12-2019 04:35:00 5.9 C 6.63 g/m*3 5.9 C 0 km/h
1785 24-12-2019 04:40:00 5.9 C 6.63 g/m*3 5.9 C 4.8 km/h
1786 24-12-2019 04:45:00 5.8 C 6.59 g/m*3 5.8 C 1.6 km/h
1787 24-12-2019 04:50:00 5.8 C 6.66 g/m*3 5.8 C 1.6 km/h
1788 24-12-2019 04:55:00 5.9 C 6.71 g/m*3 5.9 C 3.2 km/h
1789 24-12-2019 05:00:00 5.9 C 6.71 g/m*3 5.9 C 3.2 km/h
1790 24-12-2019 05:05:00 5.9 C 6.71 g/m*3 5.9 C 3.2 km/h
1791 24-12-2019 05:10:00 6 C 6.75 g/m*3 6 C 0 km/h
1792 24-12-2019 05:15:00 5.9 C 6.71 g/m*3 5.9 C 1.6 km/h
1793 24-12-2019 05:20:00 5.9 C 6.71 g/m*3 5.9 C 3.2 km/h
1794 24-12-2019 05:25:00 5.8 C 6.66 g/m*3 5.8 C 0 km/h
1795 24-12-2019 05:30:00 5.7 C 6.62 g/m*3 5.7 C 4.8 km/h
1796 24-12-2019 05:35:00 5.8 C 6.66 g/m*3 5.8 C 3.2 km/h
1797 24-12-2019 05:40:00 5.7 C 6.62 g/m*3 5.7 C 1.6 km/h
1798 24-12-2019 05:45:00 5.6 C 6.57 g/m*3 5.6 C 1.6 km/h
1799 24-12-2019 05:50:00 5.5 C 6.46 g/m*3 5.5 C 1.6 km/h
1800 24-12-2019 05:55:00 5.5 C 6.53 g/m*3 5.5 C 3.2 km/h
Sensor: Nr:Datum:Temp:Abs-Feuchte:Windchill:Wind:
Aussen-T/F 1801 24-12-2019 06:00:00 5.4 C 6.49 g/m*3 5.4 C 3.2 km/h
1802 24-12-2019 06:05:00 5.4 C 6.49 g/m*3 5.4 C 0 km/h
1803 24-12-2019 06:10:00 5.3 C 6.45 g/m*3 5.3 C 0 km/h
1804 24-12-2019 06:15:00 5.3 C 6.45 g/m*3 5.3 C 0 km/h
1805 24-12-2019 06:20:00 5.3 C 6.45 g/m*3 5.3 C 0 km/h
1806 24-12-2019 06:25:00 5.3 C 6.52 g/m*3 5.3 C 0 km/h
1807 24-12-2019 06:30:00 5.3 C 6.52 g/m*3 5.3 C 0 km/h
1808 24-12-2019 06:35:00 5.3 C 6.52 g/m*3 5.3 C 0 km/h
1809 24-12-2019 06:40:00 5.2 C 6.47 g/m*3 5.2 C 0 km/h
1810 24-12-2019 06:45:00 5.2 C 6.47 g/m*3 5.2 C 0 km/h
1811 24-12-2019 06:50:00 5.2 C 6.47 g/m*3 5.2 C 3.2 km/h
1812 24-12-2019 06:55:00 5.2 C 6.47 g/m*3 5.2 C 1.6 km/h
1813 24-12-2019 07:00:00 5.2 C 6.47 g/m*3 5.2 C 0 km/h
1814 24-12-2019 07:05:00 5.2 C 6.47 g/m*3 5.2 C 0 km/h
1815 24-12-2019 07:10:00 5.3 C 6.52 g/m*3 5.3 C 0 km/h
1816 24-12-2019 07:15:00 5.3 C 6.52 g/m*3 5.3 C 0 km/h
1817 24-12-2019 07:20:00 5.4 C 6.63 g/m*3 5.4 C 0 km/h
1818 24-12-2019 07:25:00 5.6 C 6.72 g/m*3 5.6 C 0 km/h
1819 24-12-2019 07:30:00 5.7 C 6.69 g/m*3 5.7 C 0 km/h
1820 24-12-2019 07:35:00 5.8 C 6.73 g/m*3 5.8 C 0 km/h
1821 24-12-2019 07:40:00 5.9 C 6.78 g/m*3 5.9 C 0 km/h
1822 24-12-2019 07:45:00 5.9 C 6.78 g/m*3 5.9 C 4.8 km/h
1823 24-12-2019 07:50:00 6 C 6.75 g/m*3 6 C 0 km/h
1824 24-12-2019 07:55:00 6.1 C 6.79 g/m*3 6.1 C 3.2 km/h
1825 24-12-2019 08:00:00 6.2 C 6.84 g/m*3 6.2 C 0 km/h
Sensor: Nr:Datum:Temp:Abs-Feuchte:Windchill:Wind:
Aussen-T/F 1826 24-12-2019 08:05:00 6.3 C 6.88 g/m*3 6.3 C 0 km/h
1827 24-12-2019 08:10:00 6.3 C 6.81 g/m*3 6.3 C 1.6 km/h
1828 24-12-2019 08:15:00 6.3 C 6.81 g/m*3 6.3 C 0 km/h
1829 24-12-2019 08:20:00 6.4 C 6.78 g/m*3 6.4 C 1.6 km/h
1830 24-12-2019 08:25:00 6.5 C 6.82 g/m*3 6.5 C 3.2 km/h
1831 24-12-2019 08:30:00 6.6 C 6.87 g/m*3 6.6 C 0 km/h
1832 24-12-2019 08:35:00 6.7 C 6.91 g/m*3 6.7 C 1.6 km/h
1833 24-12-2019 08:40:00 6.7 C 6.91 g/m*3 6.7 C 0 km/h
1834 24-12-2019 08:45:00 6.8 C 6.88 g/m*3 6.8 C 0 km/h
1835 24-12-2019 08:50:00 6.8 C 6.88 g/m*3 6.8 C 4.8 km/h
1836 24-12-2019 08:55:00 6.8 C 6.88 g/m*3 6.8 C 1.6 km/h
1837 24-12-2019 09:00:00 6.9 C 6.85 g/m*3 6.9 C 0 km/h
1838 24-12-2019 09:05:00 7 C 6.9 g/m*3 7 C 3.2 km/h
1839 24-12-2019 09:10:00 7.1 C 6.94 g/m*3 7.1 C 4.8 km/h
1840 24-12-2019 09:15:00 7.2 C 6.99 g/m*3 7.2 C 4.8 km/h
1841 24-12-2019 09:20:00 7.2 C 6.99 g/m*3 7.2 C 3.2 km/h
1842 24-12-2019 09:25:00 7.3 C 6.95 g/m*3 5.81 C 8.1 km/h
1843 24-12-2019 09:30:00 7.3 C 6.95 g/m*3 7.3 C 3.2 km/h
1844 24-12-2019 09:35:00 7.4 C 7 g/m*3 6.37 C 6.4 km/h
1845 24-12-2019 09:40:00 7.4 C 7 g/m*3 7.4 C 1.6 km/h
1846 24-12-2019 09:45:00 7.4 C 7 g/m*3 7.4 C 4.8 km/h
1847 24-12-2019 09:50:00 7.4 C 7 g/m*3 5.93 C 8.1 km/h
1848 24-12-2019 09:55:00 7.4 C 7 g/m*3 5.93 C 8.1 km/h
1849 24-12-2019 10:00:00 7.4 C 7.08 g/m*3 5.93 C 8.1 km/h
1850 24-12-2019 10:05:00 7.4 C 7.08 g/m*3 7.4 C 3.2 km/h
Sensor: Nr:Datum:Temp:Abs-Feuchte:Windchill:Wind:
Aussen-T/F 1851 24-12-2019 10:10:00 7.3 C 7.11 g/m*3 7.3 C 1.6 km/h
1852 24-12-2019 10:15:00 7.3 C 7.03 g/m*3 7.3 C 4.8 km/h
1853 24-12-2019 10:20:00 7.3 C 7.11 g/m*3 7.3 C 3.2 km/h
1854 24-12-2019 10:25:00 7.3 C 7.19 g/m*3 7.3 C 4.8 km/h
1855 24-12-2019 10:30:00 7.3 C 7.19 g/m*3 7.3 C 0 km/h
1856 24-12-2019 10:35:00 7.3 C 7.27 g/m*3 7.3 C 0 km/h
1857 24-12-2019 10:40:00 7.3 C 7.27 g/m*3 7.3 C 0 km/h
1858 24-12-2019 10:45:00 7.4 C 7.4 g/m*3 7.4 C 1.6 km/h
1859 24-12-2019 10:50:00 7.4 C 7.4 g/m*3 7.4 C 4.8 km/h
1860 24-12-2019 10:55:00 7.4 C 7.4 g/m*3 7.4 C 0 km/h
1861 24-12-2019 11:00:00 7.4 C 7.32 g/m*3 7.4 C 1.6 km/h
1862 24-12-2019 11:05:00 7.4 C 7.4 g/m*3 7.4 C 4.8 km/h
1863 24-12-2019 11:10:00 7.5 C 7.44 g/m*3 7.5 C 1.6 km/h
1864 24-12-2019 11:15:00 7.6 C 7.49 g/m*3 6.6 C 6.4 km/h
1865 24-12-2019 11:20:00 7.7 C 7.54 g/m*3 6.71 C 6.4 km/h
1866 24-12-2019 11:25:00 7.8 C 7.59 g/m*3 7.8 C 1.6 km/h
1867 24-12-2019 11:30:00 7.8 C 7.59 g/m*3 6.83 C 6.4 km/h
1868 24-12-2019 11:35:00 8 C 7.61 g/m*3 7.06 C 6.4 km/h
1869 24-12-2019 11:40:00 8.2 C 7.7 g/m*3 7.29 C 6.4 km/h
1870 24-12-2019 11:45:00 8.3 C 7.75 g/m*3 6.99 C 8.1 km/h
1871 24-12-2019 11:50:00 8.3 C 7.67 g/m*3 5.68 C 16.1 km/h
1872 24-12-2019 11:55:00 8.3 C 7.67 g/m*3 6.12 C 12.9 km/h
1873 24-12-2019 12:00:00 8.4 C 7.72 g/m*3 5.61 C 17.7 km/h
1874 24-12-2019 12:05:00 8.3 C 7.67 g/m*3 5.48 C 17.7 km/h
1875 24-12-2019 12:10:00 8.3 C 7.59 g/m*3 5.48 C 17.7 km/h
Sensor: Nr:Datum:Temp:Abs-Feuchte:Windchill:Wind:
Aussen-T/F 1876 24-12-2019 12:15:00 8.2 C 7.54 g/m*3 5.99 C 12.9 km/h
1877 24-12-2019 12:20:00 8.3 C 7.59 g/m*3 5.89 C 14.5 km/h
1878 24-12-2019 12:25:00 8.3 C 7.5 g/m*3 6.12 C 12.9 km/h
1879 24-12-2019 12:30:00 8.4 C 7.55 g/m*3 5.8 C 16.1 km/h
1880 24-12-2019 12:35:00 8.6 C 7.56 g/m*3 6.73 C 11.3 km/h
1881 24-12-2019 12:40:00 8.7 C 7.61 g/m*3 6.38 C 14.5 km/h
1882 24-12-2019 12:45:00 8.7 C 7.61 g/m*3 7.13 C 9.7 km/h
1883 24-12-2019 12:50:00 8.8 C 7.66 g/m*3 5.93 C 19.3 km/h
1884 24-12-2019 12:55:00 9 C 7.67 g/m*3 6.97 C 12.9 km/h
1885 24-12-2019 13:00:00 9.2 C 7.77 g/m*3 8.05 C 8.1 km/h
1886 24-12-2019 13:05:00 9.3 C 7.82 g/m*3 7.85 C 9.7 km/h
1887 24-12-2019 13:10:00 9.4 C 7.78 g/m*3 7.46 C 12.9 km/h
1888 24-12-2019 13:15:00 9.4 C 7.78 g/m*3 8.68 C 6.4 km/h
1889 24-12-2019 13:20:00 9.5 C 7.83 g/m*3 7.82 C 11.3 km/h
1890 24-12-2019 13:25:00 9.5 C 7.83 g/m*3 7.58 C 12.9 km/h
1891 24-12-2019 13:30:00 9.6 C 7.88 g/m*3 7.7 C 12.9 km/h
1892 24-12-2019 13:35:00 9.6 C 7.88 g/m*3 8.21 C 9.7 km/h
1893 24-12-2019 13:40:00 9.6 C 7.88 g/m*3 7.94 C 11.3 km/h
1894 24-12-2019 13:45:00 9.6 C 7.88 g/m*3 8.21 C 9.7 km/h
1895 24-12-2019 13:50:00 9.6 C 7.88 g/m*3 7.94 C 11.3 km/h
1896 24-12-2019 13:55:00 9.7 C 7.93 g/m*3 7.82 C 12.9 km/h
1897 24-12-2019 14:00:00 9.7 C 7.84 g/m*3 7.41 C 16.1 km/h
1898 24-12-2019 14:05:00 9.7 C 7.84 g/m*3 7.23 C 17.7 km/h
1899 24-12-2019 14:10:00 9.8 C 7.89 g/m*3 7.73 C 14.5 km/h
1900 24-12-2019 14:15:00 9.8 C 7.89 g/m*3 7.19 C 19.3 km/h
Sensor: Nr:Datum:Temp:Abs-Feuchte:Windchill:Wind:
Aussen-T/F 1901 24-12-2019 14:20:00 9.8 C 7.89 g/m*3 7.94 C 12.9 km/h
1902 24-12-2019 14:25:00 9.9 C 7.94 g/m*3 8.56 C 9.7 km/h
1903 24-12-2019 14:30:00 9.9 C 7.94 g/m*3 8.3 C 11.3 km/h
1904 24-12-2019 14:35:00 9.9 C 7.84 g/m*3 8.3 C 11.3 km/h
1905 24-12-2019 14:40:00 10 C 7.99 g/m*3 8.42 C 11.3 km/h
1906 24-12-2019 14:45:00 10 C 8.08 g/m*3 7.78 C 16.1 km/h
1907 24-12-2019 14:50:00 9.9 C 8.03 g/m*3 8.06 C 12.9 km/h
1908 24-12-2019 14:55:00 9.9 C 8.12 g/m*3 8.56 C 9.7 km/h
1909 24-12-2019 15:00:00 9.8 C 7.98 g/m*3 7.94 C 12.9 km/h
1910 24-12-2019 15:05:00 9.8 C 8.07 g/m*3 8.45 C 9.7 km/h
1911 24-12-2019 15:10:00 9.8 C 7.98 g/m*3 8.45 C 9.7 km/h
1912 24-12-2019 15:15:00 9.8 C 7.89 g/m*3 7.94 C 12.9 km/h
1913 24-12-2019 15:20:00 9.9 C 7.84 g/m*3 8.87 C 8.1 km/h
1914 24-12-2019 15:25:00 9.9 C 7.84 g/m*3 8.87 C 8.1 km/h
1915 24-12-2019 15:30:00 10 C 7.8 g/m*3 8.99 C 8.1 km/h
1916 24-12-2019 15:35:00 10.1 C 7.75 g/m*3 8.8 C 9.7 km/h
1917 24-12-2019 15:40:00 10.2 C 7.8 g/m*3 8.22 C 14.5 km/h
1918 24-12-2019 15:45:00 10.3 C 7.76 g/m*3 8.55 C 12.9 km/h
1919 24-12-2019 15:50:00 10.3 C 7.76 g/m*3 8.78 C 11.3 km/h
1920 24-12-2019 15:55:00 10.4 C 7.61 g/m*3 8.11 C 17.7 km/h
1921 24-12-2019 16:00:00 10.4 C 7.71 g/m*3 8.9 C 11.3 km/h
1922 24-12-2019 16:05:00 10.4 C 7.61 g/m*3 8.9 C 11.3 km/h
1923 24-12-2019 16:10:00 10.4 C 7.61 g/m*3 9.46 C 8.1 km/h
1924 24-12-2019 16:15:00 10.4 C 7.61 g/m*3 9.16 C 9.7 km/h
1925 24-12-2019 16:20:00 10.4 C 7.61 g/m*3 8.67 C 12.9 km/h
Sensor: Nr:Datum:Temp:Abs-Feuchte:Windchill:Wind:
Aussen-T/F 1926 24-12-2019 16:25:00 10.4 C 7.61 g/m*3 8.67 C 12.9 km/h
1927 24-12-2019 16:30:00 10.3 C 7.66 g/m*3 10.3 C 4.8 km/h
1928 24-12-2019 16:35:00 10.3 C 7.66 g/m*3 9.72 C 6.4 km/h
1929 24-12-2019 16:40:00 10.2 C 7.71 g/m*3 9.22 C 8.1 km/h
1930 24-12-2019 16:45:00 10 C 7.61 g/m*3 9.37 C 6.4 km/h
1931 24-12-2019 16:50:00 10 C 7.61 g/m*3 8.42 C 11.3 km/h
1932 24-12-2019 16:55:00 10.1 C 7.56 g/m*3 8.54 C 11.3 km/h
1933 24-12-2019 17:00:00 10.1 C 7.56 g/m*3 8.54 C 11.3 km/h
1934 24-12-2019 17:05:00 10.1 C 7.56 g/m*3 8.8 C 9.7 km/h
1935 24-12-2019 17:10:00 10.1 C 7.56 g/m*3 8.1 C 14.5 km/h
1936 24-12-2019 17:15:00 10 C 7.52 g/m*3 7.78 C 16.1 km/h
1937 24-12-2019 17:20:00 9.9 C 7.47 g/m*3 8.3 C 11.3 km/h
1938 24-12-2019 17:25:00 9.8 C 7.33 g/m*3 7.73 C 14.5 km/h
1939 24-12-2019 17:30:00 9.8 C 7.33 g/m*3 8.18 C 11.3 km/h
1940 24-12-2019 17:35:00 9.8 C 7.42 g/m*3 7.54 C 16.1 km/h
1941 24-12-2019 17:40:00 9.7 C 7.38 g/m*3 8.06 C 11.3 km/h
1942 24-12-2019 17:45:00 9.6 C 7.33 g/m*3 7.29 C 16.1 km/h
1943 24-12-2019 17:50:00 9.6 C 7.33 g/m*3 8.52 C 8.1 km/h
1944 24-12-2019 17:55:00 9.6 C 7.33 g/m*3 8.52 C 8.1 km/h
1945 24-12-2019 18:00:00 9.6 C 7.33 g/m*3 8.52 C 8.1 km/h
1946 24-12-2019 18:05:00 9.6 C 7.51 g/m*3 8.52 C 8.1 km/h
1947 24-12-2019 18:10:00 9.5 C 7.55 g/m*3 8.09 C 9.7 km/h
1948 24-12-2019 18:15:00 9.4 C 7.6 g/m*3 8.68 C 6.4 km/h
1949 24-12-2019 18:20:00 9.3 C 7.55 g/m*3 8.56 C 6.4 km/h
1950 24-12-2019 18:25:00 9.3 C 7.55 g/m*3 7.58 C 11.3 km/h
Sensor: Nr:Datum:Temp:Abs-Feuchte:Windchill:Wind:
Aussen-T/F 1951 24-12-2019 18:30:00 9.3 C 7.64 g/m*3 8.56 C 6.4 km/h
1952 24-12-2019 18:35:00 9.3 C 7.73 g/m*3 6.73 C 17.7 km/h
1953 24-12-2019 18:40:00 9.1 C 7.72 g/m*3 7.61 C 9.7 km/h
1954 24-12-2019 18:45:00 9 C 7.76 g/m*3 9 C 4.8 km/h
1955 24-12-2019 18:50:00 8.8 C 7.75 g/m*3 7.25 C 9.7 km/h
1956 24-12-2019 18:55:00 8.6 C 7.73 g/m*3 7.01 C 9.7 km/h
1957 24-12-2019 19:00:00 8.4 C 7.63 g/m*3 5.8 C 16.1 km/h
1958 24-12-2019 19:05:00 8.3 C 7.59 g/m*3 5.68 C 16.1 km/h
1959 24-12-2019 19:10:00 8.2 C 7.45 g/m*3 5.99 C 12.9 km/h
1960 24-12-2019 19:15:00 8 C 7.44 g/m*3 5.52 C 14.5 km/h
1961 24-12-2019 19:20:00 7.8 C 7.35 g/m*3 6.4 C 8.1 km/h
1962 24-12-2019 19:25:00 7.7 C 7.38 g/m*3 7.7 C 4.8 km/h
1963 24-12-2019 19:30:00 7.5 C 7.28 g/m*3 6.48 C 6.4 km/h
1964 24-12-2019 19:35:00 7.4 C 7.32 g/m*3 5.93 C 8.1 km/h
1965 24-12-2019 19:40:00 7.3 C 7.27 g/m*3 5.81 C 8.1 km/h
1966 24-12-2019 19:45:00 7.2 C 7.22 g/m*3 5.69 C 8.1 km/h
1967 24-12-2019 19:50:00 7.2 C 7.3 g/m*3 6.13 C 6.4 km/h
1968 24-12-2019 19:55:00 7.1 C 7.25 g/m*3 5.58 C 8.1 km/h
1969 24-12-2019 20:00:00 7.1 C 7.25 g/m*3 7.1 C 3.2 km/h
1970 24-12-2019 20:05:00 7.1 C 7.25 g/m*3 5.58 C 8.1 km/h
1971 24-12-2019 20:10:00 7.1 C 7.25 g/m*3 5.23 C 9.7 km/h
1972 24-12-2019 20:15:00 7.2 C 7.3 g/m*3 6.13 C 6.4 km/h
1973 24-12-2019 20:20:00 7.2 C 7.3 g/m*3 7.2 C 4.8 km/h
1974 24-12-2019 20:25:00 7.3 C 7.35 g/m*3 5.81 C 8.1 km/h
1975 24-12-2019 20:30:00 7.3 C 7.35 g/m*3 5.16 C 11.3 km/h
Sensor: Nr:Datum:Temp:Abs-Feuchte:Windchill:Wind:
Aussen-T/F 1976 24-12-2019 20:35:00 7.4 C 7.4 g/m*3 6.37 C 6.4 km/h
1977 24-12-2019 20:40:00 7.4 C 7.32 g/m*3 6.37 C 6.4 km/h
1978 24-12-2019 20:45:00 7.3 C 7.27 g/m*3 5.81 C 8.1 km/h
1979 24-12-2019 20:50:00 7.4 C 7.32 g/m*3 5.02 C 12.9 km/h
1980 24-12-2019 20:55:00 7.4 C 7.32 g/m*3 5.28 C 11.3 km/h
1981 24-12-2019 21:00:00 7.5 C 7.36 g/m*3 6.05 C 8.1 km/h
1982 24-12-2019 21:05:00 7.5 C 7.36 g/m*3 6.05 C 8.1 km/h
1983 24-12-2019 21:10:00 7.6 C 7.41 g/m*3 6.16 C 8.1 km/h
1984 24-12-2019 21:15:00 7.7 C 7.46 g/m*3 5.65 C 11.3 km/h
1985 24-12-2019 21:20:00 7.8 C 7.43 g/m*3 5.77 C 11.3 km/h
1986 24-12-2019 21:25:00 7.8 C 7.43 g/m*3 6.06 C 9.7 km/h
1987 24-12-2019 21:30:00 7.8 C 7.43 g/m*3 6.83 C 6.4 km/h
1988 24-12-2019 21:35:00 7.8 C 7.43 g/m*3 5.51 C 12.9 km/h
1989 24-12-2019 21:40:00 8 C 7.52 g/m*3 6.3 C 9.7 km/h
1990 24-12-2019 21:45:00 8.1 C 7.49 g/m*3 6.13 C 11.3 km/h
1991 24-12-2019 21:50:00 8.3 C 7.5 g/m*3 6.12 C 12.9 km/h
1992 24-12-2019 21:55:00 8.3 C 7.42 g/m*3 6.37 C 11.3 km/h
1993 24-12-2019 22:00:00 8.5 C 7.51 g/m*3 5.73 C 17.7 km/h
1994 24-12-2019 22:05:00 8.7 C 7.52 g/m*3 6.85 C 11.3 km/h
1995 24-12-2019 22:10:00 8.7 C 7.44 g/m*3 7.13 C 9.7 km/h
1996 24-12-2019 22:15:00 8.7 C 7.44 g/m*3 6.85 C 11.3 km/h
1997 24-12-2019 22:20:00 8.7 C 7.44 g/m*3 6.6 C 12.9 km/h
1998 24-12-2019 22:25:00 8.7 C 7.44 g/m*3 6.6 C 12.9 km/h
1999 24-12-2019 22:30:00 8.7 C 7.44 g/m*3 5.81 C 19.3 km/h
2000 24-12-2019 22:35:00 8.7 C 7.44 g/m*3 6.85 C 11.3 km/h
Sensor: Nr:Datum:Temp:Abs-Feuchte:Windchill:Wind:
Aussen-T/F 2001 24-12-2019 22:40:00 8.7 C 7.44 g/m*3 7.46 C 8.1 km/h
2002 24-12-2019 22:45:00 8.7 C 7.52 g/m*3 8.7 C 4.8 km/h
2003 24-12-2019 22:50:00 8.7 C 7.52 g/m*3 8.7 C 4.8 km/h
2004 24-12-2019 22:55:00 8.7 C 7.52 g/m*3 8.7 C 4.8 km/h
2005 24-12-2019 23:00:00 8.7 C 7.61 g/m*3 6.38 C 14.5 km/h
2006 24-12-2019 23:05:00 8.7 C 7.61 g/m*3 7.87 C 6.4 km/h
2007 24-12-2019 23:10:00 8.7 C 7.61 g/m*3 6.85 C 11.3 km/h
2008 24-12-2019 23:15:00 8.7 C 7.61 g/m*3 7.13 C 9.7 km/h
2009 24-12-2019 23:20:00 8.7 C 7.52 g/m*3 6.85 C 11.3 km/h
2010 24-12-2019 23:25:00 8.7 C 7.61 g/m*3 6.17 C 16.1 km/h
2011 24-12-2019 23:30:00 8.7 C 7.61 g/m*3 6.85 C 11.3 km/h
2012 24-12-2019 23:35:00 8.7 C 7.61 g/m*3 7.46 C 8.1 km/h
2013 24-12-2019 23:40:00 8.8 C 7.66 g/m*3 6.3 C 16.1 km/h
2014 24-12-2019 23:45:00 8.8 C 7.57 g/m*3 7.58 C 8.1 km/h
2015 24-12-2019 23:50:00 8.8 C 7.66 g/m*3 6.97 C 11.3 km/h
2016 24-12-2019 23:55:00 8.8 C 7.57 g/m*3 6.5 C 14.5 km/h
2017 25-12-2019 00:00:00 8.8 C 7.57 g/m*3 6.97 C 11.3 km/h
2018 25-12-2019 00:05:00 8.8 C 7.66 g/m*3 6.72 C 12.9 km/h
2019 25-12-2019 00:10:00 8.8 C 7.66 g/m*3 6.72 C 12.9 km/h
2020 25-12-2019 00:15:00 8.8 C 7.66 g/m*3 6.5 C 14.5 km/h
2021 25-12-2019 00:20:00 8.8 C 7.66 g/m*3 6.11 C 17.7 km/h
2022 25-12-2019 00:25:00 8.8 C 7.75 g/m*3 6.5 C 14.5 km/h
2023 25-12-2019 00:30:00 8.8 C 7.75 g/m*3 6.97 C 11.3 km/h
2024 25-12-2019 00:35:00 8.8 C 7.75 g/m*3 6.3 C 16.1 km/h
2025 25-12-2019 00:40:00 8.8 C 7.75 g/m*3 6.97 C 11.3 km/h
Sensor: Nr:Datum:Temp:Abs-Feuchte:Windchill:Wind:
Aussen-T/F 2026 25-12-2019 00:45:00 8.8 C 7.75 g/m*3 7.25 C 9.7 km/h
2027 25-12-2019 00:50:00 8.8 C 7.75 g/m*3 6.97 C 11.3 km/h
2028 25-12-2019 00:55:00 8.8 C 7.75 g/m*3 6.3 C 16.1 km/h
2029 25-12-2019 01:00:00 8.8 C 7.75 g/m*3 6.97 C 11.3 km/h
2030 25-12-2019 01:05:00 8.7 C 7.78 g/m*3 7.46 C 8.1 km/h
2031 25-12-2019 01:10:00 8.7 C 7.78 g/m*3 6.6 C 12.9 km/h
2032 25-12-2019 01:15:00 8.6 C 7.82 g/m*3 7.01 C 9.7 km/h
2033 25-12-2019 01:20:00 8.5 C 7.77 g/m*3 8.5 C 4.8 km/h
2034 25-12-2019 01:25:00 8.3 C 7.67 g/m*3 8.3 C 4.8 km/h
2035 25-12-2019 01:30:00 8.2 C 7.7 g/m*3 7.29 C 6.4 km/h
2036 25-12-2019 01:35:00 8.2 C 7.7 g/m*3 6.54 C 9.7 km/h
2037 25-12-2019 01:40:00 8.2 C 7.7 g/m*3 7.29 C 6.4 km/h
2038 25-12-2019 01:45:00 8.2 C 7.7 g/m*3 6.25 C 11.3 km/h
2039 25-12-2019 01:50:00 8.2 C 7.7 g/m*3 6.87 C 8.1 km/h
2040 25-12-2019 01:55:00 8.2 C 7.7 g/m*3 6.87 C 8.1 km/h
2041 25-12-2019 02:00:00 8.2 C 7.7 g/m*3 7.29 C 6.4 km/h
2042 25-12-2019 02:05:00 8.2 C 7.7 g/m*3 7.29 C 6.4 km/h
2043 25-12-2019 02:10:00 8.2 C 7.7 g/m*3 5.76 C 14.5 km/h
2044 25-12-2019 02:15:00 8.3 C 7.75 g/m*3 6.37 C 11.3 km/h
2045 25-12-2019 02:20:00 8.3 C 7.67 g/m*3 6.12 C 12.9 km/h
2046 25-12-2019 02:25:00 8.3 C 7.67 g/m*3 6.99 C 8.1 km/h
2047 25-12-2019 02:30:00 8.3 C 7.67 g/m*3 7.41 C 6.4 km/h
2048 25-12-2019 02:35:00 8.3 C 7.67 g/m*3 6.66 C 9.7 km/h
2049 25-12-2019 02:40:00 8.3 C 7.67 g/m*3 7.41 C 6.4 km/h
2050 25-12-2019 02:45:00 8.3 C 7.67 g/m*3 5.89 C 14.5 km/h
Sensor: Nr:Datum:Temp:Abs-Feuchte:Windchill:Wind:
Aussen-T/F 2051 25-12-2019 02:50:00 8.3 C 7.67 g/m*3 6.66 C 9.7 km/h
2052 25-12-2019 02:55:00 8.4 C 7.72 g/m*3 7.11 C 8.1 km/h
2053 25-12-2019 03:00:00 8.4 C 7.72 g/m*3 7.11 C 8.1 km/h
2054 25-12-2019 03:05:00 8.4 C 7.8 g/m*3 6.78 C 9.7 km/h
2055 25-12-2019 03:10:00 8.4 C 7.72 g/m*3 7.11 C 8.1 km/h
2056 25-12-2019 03:15:00 8.5 C 7.77 g/m*3 7.64 C 6.4 km/h
2057 25-12-2019 03:20:00 8.6 C 7.82 g/m*3 6.25 C 14.5 km/h
2058 25-12-2019 03:25:00 8.6 C 7.82 g/m*3 7.34 C 8.1 km/h
2059 25-12-2019 03:30:00 8.7 C 7.87 g/m*3 7.13 C 9.7 km/h
2060 25-12-2019 03:35:00 8.7 C 7.87 g/m*3 7.13 C 9.7 km/h
2061 25-12-2019 03:40:00 8.7 C 7.87 g/m*3 7.46 C 8.1 km/h
2062 25-12-2019 03:45:00 8.7 C 7.87 g/m*3 6.85 C 11.3 km/h
2063 25-12-2019 03:50:00 8.8 C 7.92 g/m*3 6.97 C 11.3 km/h
2064 25-12-2019 03:55:00 8.8 C 7.92 g/m*3 7.58 C 8.1 km/h
2065 25-12-2019 04:00:00 8.8 C 7.92 g/m*3 8.8 C 3.2 km/h
2066 25-12-2019 04:05:00 8.7 C 7.87 g/m*3 7.46 C 8.1 km/h
2067 25-12-2019 04:10:00 8.7 C 7.96 g/m*3 7.87 C 6.4 km/h
2068 25-12-2019 04:15:00 8.7 C 7.96 g/m*3 7.87 C 6.4 km/h
2069 25-12-2019 04:20:00 8.7 C 7.96 g/m*3 7.46 C 8.1 km/h
2070 25-12-2019 04:25:00 8.7 C 7.96 g/m*3 7.87 C 6.4 km/h
2071 25-12-2019 04:30:00 8.7 C 8.04 g/m*3 8.7 C 4.8 km/h
2072 25-12-2019 04:35:00 8.7 C 8.04 g/m*3 7.87 C 6.4 km/h
2073 25-12-2019 04:40:00 8.7 C 8.04 g/m*3 8.7 C 3.2 km/h
2074 25-12-2019 04:45:00 8.6 C 7.99 g/m*3 7.34 C 8.1 km/h
2075 25-12-2019 04:50:00 8.6 C 7.99 g/m*3 7.75 C 6.4 km/h
Sensor: Nr:Datum:Temp:Abs-Feuchte:Windchill:Wind:
Aussen-T/F 2076 25-12-2019 04:55:00 8.6 C 7.99 g/m*3 8.6 C 4.8 km/h
2077 25-12-2019 05:00:00 8.6 C 7.99 g/m*3 7.34 C 8.1 km/h
2078 25-12-2019 05:05:00 8.7 C 8.04 g/m*3 8.7 C 3.2 km/h
2079 25-12-2019 05:10:00 8.7 C 8.13 g/m*3 8.7 C 4.8 km/h
2080 25-12-2019 05:15:00 8.6 C 8.08 g/m*3 8.6 C 3.2 km/h
2081 25-12-2019 05:20:00 8.6 C 8.08 g/m*3 8.6 C 3.2 km/h
2082 25-12-2019 05:25:00 8.6 C 8.08 g/m*3 8.6 C 3.2 km/h
2083 25-12-2019 05:30:00 8.5 C 8.03 g/m*3 8.5 C 3.2 km/h
2084 25-12-2019 05:35:00 8.4 C 7.97 g/m*3 7.11 C 8.1 km/h
2085 25-12-2019 05:40:00 8.4 C 7.97 g/m*3 8.4 C 4.8 km/h
2086 25-12-2019 05:45:00 8.4 C 7.97 g/m*3 8.4 C 4.8 km/h
2087 25-12-2019 05:50:00 8.3 C 7.84 g/m*3 8.3 C 4.8 km/h
2088 25-12-2019 05:55:00 8.2 C 7.79 g/m*3 7.29 C 6.4 km/h
2089 25-12-2019 06:00:00 8.2 C 7.79 g/m*3 7.29 C 6.4 km/h
2090 25-12-2019 06:05:00 8.2 C 7.79 g/m*3 8.2 C 4.8 km/h
2091 25-12-2019 06:10:00 8.1 C 7.74 g/m*3 8.1 C 0 km/h
2092 25-12-2019 06:15:00 8.1 C 7.74 g/m*3 8.1 C 3.2 km/h
2093 25-12-2019 06:20:00 8.1 C 7.74 g/m*3 8.1 C 0 km/h
2094 25-12-2019 06:25:00 8 C 7.69 g/m*3 8 C 0 km/h
2095 25-12-2019 06:30:00 8 C 7.77 g/m*3 8 C 0 km/h
2096 25-12-2019 06:35:00 8 C 7.77 g/m*3 8 C 0 km/h
2097 25-12-2019 06:40:00 8 C 7.77 g/m*3 8 C 0 km/h
2098 25-12-2019 06:45:00 8 C 7.77 g/m*3 8 C 0 km/h
2099 25-12-2019 06:50:00 8 C 7.77 g/m*3 8 C 0 km/h
2100 25-12-2019 06:55:00 8.1 C 7.82 g/m*3 6.75 C 8.1 km/h
Sensor: Nr:Datum:Temp:Abs-Feuchte:Windchill:Wind:
Aussen-T/F 2101 25-12-2019 07:00:00 8.1 C 7.74 g/m*3 6.42 C 9.7 km/h
2102 25-12-2019 07:05:00 8.1 C 7.66 g/m*3 7.17 C 6.4 km/h
2103 25-12-2019 07:10:00 8.1 C 7.66 g/m*3 7.17 C 6.4 km/h
2104 25-12-2019 07:15:00 8 C 7.61 g/m*3 8 C 4.8 km/h
2105 25-12-2019 07:20:00 8 C 7.61 g/m*3 8 C 1.6 km/h
2106 25-12-2019 07:25:00 7.9 C 7.56 g/m*3 7.9 C 1.6 km/h
2107 25-12-2019 07:30:00 7.9 C 7.56 g/m*3 7.9 C 0 km/h
2108 25-12-2019 07:35:00 7.9 C 7.64 g/m*3 7.9 C 0 km/h
2109 25-12-2019 07:40:00 7.8 C 7.59 g/m*3 7.8 C 1.6 km/h
2110 25-12-2019 07:45:00 7.8 C 7.51 g/m*3 7.8 C 3.2 km/h
2111 25-12-2019 07:50:00 7.7 C 7.54 g/m*3 7.7 C 1.6 km/h
2112 25-12-2019 07:55:00 7.7 C 7.54 g/m*3 7.7 C 0 km/h
2113 25-12-2019 08:00:00 7.7 C 7.46 g/m*3 3.92 C 25.7 km/h
2114 25-12-2019 08:05:00 7.7 C 7.38 g/m*3 3.92 C 25.7 km/h
2115 25-12-2019 08:10:00 7.6 C 7.33 g/m*3 5.26 C 12.9 km/h
2116 25-12-2019 08:15:00 7.4 C 7.16 g/m*3 4.78 C 14.5 km/h
2117 25-12-2019 08:20:00 7.4 C 7.16 g/m*3 5.58 C 9.7 km/h
2118 25-12-2019 08:25:00 7.4 C 7.16 g/m*3 5.93 C 8.1 km/h
2119 25-12-2019 08:30:00 7.3 C 7.11 g/m*3 5.16 C 11.3 km/h
2120 25-12-2019 08:35:00 7.3 C 7.11 g/m*3 7.3 C 3.2 km/h
2121 25-12-2019 08:40:00 7.3 C 7.11 g/m*3 7.3 C 1.6 km/h
2122 25-12-2019 08:45:00 7.3 C 7.11 g/m*3 4.9 C 12.9 km/h
2123 25-12-2019 08:50:00 7.3 C 7.19 g/m*3 5.81 C 8.1 km/h
2124 25-12-2019 08:55:00 7.3 C 7.19 g/m*3 5.81 C 8.1 km/h
2125 25-12-2019 09:00:00 7.4 C 7.16 g/m*3 5.58 C 9.7 km/h
Sensor: Nr:Datum:Temp:Abs-Feuchte:Windchill:Wind:
Aussen-T/F 2126 25-12-2019 09:05:00 7.4 C 7.16 g/m*3 6.37 C 6.4 km/h
2127 25-12-2019 09:10:00 7.5 C 7.2 g/m*3 6.48 C 6.4 km/h
2128 25-12-2019 09:15:00 7.6 C 7.17 g/m*3 5.53 C 11.3 km/h
2129 25-12-2019 09:20:00 7.6 C 7.17 g/m*3 7.6 C 0 km/h
2130 25-12-2019 09:25:00 7.6 C 7.17 g/m*3 7.6 C 4.8 km/h
2131 25-12-2019 09:30:00 7.6 C 7.17 g/m*3 5.53 C 11.3 km/h
2132 25-12-2019 09:35:00 7.6 C 7.09 g/m*3 6.6 C 6.4 km/h
2133 25-12-2019 09:40:00 7.7 C 7.14 g/m*3 6.28 C 8.1 km/h
2134 25-12-2019 09:45:00 7.8 C 7.1 g/m*3 7.8 C 4.8 km/h
2135 25-12-2019 09:50:00 7.8 C 7.1 g/m*3 6.83 C 6.4 km/h
2136 25-12-2019 09:55:00 7.9 C 7.06 g/m*3 7.9 C 4.8 km/h
2137 25-12-2019 10:00:00 7.9 C 7.15 g/m*3 7.9 C 3.2 km/h
2138 25-12-2019 10:05:00 8 C 7.19 g/m*3 8 C 0 km/h
2139 25-12-2019 10:10:00 7.9 C 7.15 g/m*3 7.9 C 4.8 km/h
2140 25-12-2019 10:15:00 7.8 C 7.18 g/m*3 7.8 C 4.8 km/h
2141 25-12-2019 10:20:00 7.8 C 7.1 g/m*3 5.51 C 12.9 km/h
2142 25-12-2019 10:25:00 7.8 C 7.02 g/m*3 6.83 C 6.4 km/h
2143 25-12-2019 10:30:00 7.9 C 7.06 g/m*3 6.94 C 6.4 km/h
2144 25-12-2019 10:35:00 7.9 C 7.06 g/m*3 6.52 C 8.1 km/h
2145 25-12-2019 10:40:00 7.9 C 7.06 g/m*3 6.52 C 8.1 km/h
2146 25-12-2019 10:45:00 8 C 7.03 g/m*3 5.3 C 16.1 km/h
2147 25-12-2019 10:50:00 8.1 C 7.07 g/m*3 6.42 C 9.7 km/h
2148 25-12-2019 10:55:00 8.1 C 7.16 g/m*3 7.17 C 6.4 km/h
2149 25-12-2019 11:00:00 8.1 C 7.16 g/m*3 6.75 C 8.1 km/h
2150 25-12-2019 11:05:00 8.1 C 7.16 g/m*3 6.75 C 8.1 km/h
Sensor: Nr:Datum:Temp:Abs-Feuchte:Windchill:Wind:
Aussen-T/F 2151 25-12-2019 11:10:00 8.1 C 7.16 g/m*3 6.13 C 11.3 km/h
2152 25-12-2019 11:15:00 8.1 C 7.16 g/m*3 8.1 C 4.8 km/h
2153 25-12-2019 11:20:00 8.1 C 7.16 g/m*3 6.13 C 11.3 km/h
2154 25-12-2019 11:25:00 8.1 C 7.16 g/m*3 6.13 C 11.3 km/h
2155 25-12-2019 11:30:00 8.2 C 7.2 g/m*3 8.2 C 4.8 km/h
2156 25-12-2019 11:35:00 8.2 C 7.2 g/m*3 6.25 C 11.3 km/h
2157 25-12-2019 11:40:00 8.2 C 7.2 g/m*3 6.54 C 9.7 km/h
2158 25-12-2019 11:45:00 8.2 C 7.2 g/m*3 5.99 C 12.9 km/h
2159 25-12-2019 11:50:00 8.1 C 7.24 g/m*3 5.64 C 14.5 km/h
2160 25-12-2019 11:55:00 8.1 C 7.32 g/m*3 6.42 C 9.7 km/h
2161 25-12-2019 12:00:00 8 C 7.28 g/m*3 6.01 C 11.3 km/h
2162 25-12-2019 12:05:00 8 C 7.36 g/m*3 6.01 C 11.3 km/h
2163 25-12-2019 12:10:00 8 C 7.36 g/m*3 6.01 C 11.3 km/h
2164 25-12-2019 12:15:00 8 C 7.19 g/m*3 4.6 C 22.5 km/h
2165 25-12-2019 12:20:00 8.1 C 7.24 g/m*3 6.75 C 8.1 km/h
2166 25-12-2019 12:25:00 8.1 C 7.32 g/m*3 8.1 C 4.8 km/h
2167 25-12-2019 12:30:00 8.2 C 7.29 g/m*3 5.55 C 16.1 km/h
2168 25-12-2019 12:35:00 8.2 C 7.29 g/m*3 5.76 C 14.5 km/h
2169 25-12-2019 12:40:00 8.2 C 7.29 g/m*3 5.76 C 14.5 km/h
2170 25-12-2019 12:45:00 8.2 C 7.29 g/m*3 5.99 C 12.9 km/h
2171 25-12-2019 12:50:00 8.2 C 7.37 g/m*3 7.29 C 6.4 km/h
2172 25-12-2019 12:55:00 8.2 C 7.37 g/m*3 8.2 C 4.8 km/h
2173 25-12-2019 13:00:00 8.1 C 7.32 g/m*3 6.13 C 11.3 km/h
2174 25-12-2019 13:05:00 8.1 C 7.41 g/m*3 5.87 C 12.9 km/h
2175 25-12-2019 13:10:00 8 C 7.36 g/m*3 7.06 C 6.4 km/h
Sensor: Nr:Datum:Temp:Abs-Feuchte:Windchill:Wind:
Aussen-T/F 2176 25-12-2019 13:15:00 8 C 7.44 g/m*3 8 C 4.8 km/h
2177 25-12-2019 13:20:00 7.9 C 7.39 g/m*3 6.18 C 9.7 km/h
2178 25-12-2019 13:25:00 7.9 C 7.39 g/m*3 6.18 C 9.7 km/h
2179 25-12-2019 13:30:00 7.9 C 7.39 g/m*3 6.52 C 8.1 km/h
2180 25-12-2019 13:35:00 7.9 C 7.39 g/m*3 5.89 C 11.3 km/h
2181 25-12-2019 13:40:00 7.9 C 7.39 g/m*3 6.52 C 8.1 km/h
2182 25-12-2019 13:45:00 7.8 C 7.35 g/m*3 6.83 C 6.4 km/h
2183 25-12-2019 13:50:00 7.8 C 7.26 g/m*3 6.4 C 8.1 km/h
2184 25-12-2019 13:55:00 7.8 C 7.26 g/m*3 6.4 C 8.1 km/h
2185 25-12-2019 14:00:00 7.8 C 7.26 g/m*3 6.83 C 6.4 km/h
2186 25-12-2019 14:05:00 7.9 C 7.39 g/m*3 7.9 C 4.8 km/h
2187 25-12-2019 14:10:00 7.9 C 7.39 g/m*3 5.63 C 12.9 km/h
2188 25-12-2019 14:15:00 7.9 C 7.31 g/m*3 7.9 C 4.8 km/h
2189 25-12-2019 14:20:00 8.1 C 7.41 g/m*3 7.17 C 6.4 km/h
2190 25-12-2019 14:25:00 8.1 C 7.41 g/m*3 6.13 C 11.3 km/h
2191 25-12-2019 14:30:00 8.1 C 7.41 g/m*3 5.43 C 16.1 km/h
2192 25-12-2019 14:35:00 8.2 C 7.45 g/m*3 6.54 C 9.7 km/h
2193 25-12-2019 14:40:00 8.2 C 7.45 g/m*3 6.87 C 8.1 km/h
2194 25-12-2019 14:45:00 8.2 C 7.45 g/m*3 6.54 C 9.7 km/h
2195 25-12-2019 14:50:00 8.2 C 7.45 g/m*3 6.54 C 9.7 km/h
2196 25-12-2019 14:55:00 8.1 C 7.49 g/m*3 5.87 C 12.9 km/h
2197 25-12-2019 15:00:00 8 C 7.44 g/m*3 5.75 C 12.9 km/h
2198 25-12-2019 15:05:00 8 C 7.44 g/m*3 5.52 C 14.5 km/h
2199 25-12-2019 15:10:00 8 C 7.44 g/m*3 6.3 C 9.7 km/h
2200 25-12-2019 15:15:00 8 C 7.44 g/m*3 6.3 C 9.7 km/h
Sensor: Nr:Datum:Temp:Abs-Feuchte:Windchill:Wind:
Aussen-T/F 2201 25-12-2019 15:20:00 7.9 C 7.39 g/m*3 7.9 C 4.8 km/h
2202 25-12-2019 15:25:00 7.9 C 7.39 g/m*3 7.9 C 4.8 km/h
2203 25-12-2019 15:30:00 8 C 7.44 g/m*3 8 C 3.2 km/h
2204 25-12-2019 15:35:00 8 C 7.44 g/m*3 8 C 3.2 km/h
2205 25-12-2019 15:40:00 8 C 7.44 g/m*3 8 C 3.2 km/h
2206 25-12-2019 15:45:00 8 C 7.36 g/m*3 7.06 C 6.4 km/h
2207 25-12-2019 15:50:00 8 C 7.36 g/m*3 6.3 C 9.7 km/h
2208 25-12-2019 15:55:00 7.9 C 7.31 g/m*3 6.18 C 9.7 km/h
2209 25-12-2019 16:00:00 7.9 C 7.31 g/m*3 7.9 C 4.8 km/h
2210 25-12-2019 16:05:00 7.9 C 7.31 g/m*3 6.52 C 8.1 km/h
2211 25-12-2019 16:10:00 7.9 C 7.31 g/m*3 7.9 C 4.8 km/h
2212 25-12-2019 16:15:00 7.9 C 7.31 g/m*3 7.9 C 3.2 km/h
2213 25-12-2019 16:20:00 7.8 C 7.35 g/m*3 7.8 C 4.8 km/h
2214 25-12-2019 16:25:00 7.8 C 7.35 g/m*3 7.8 C 1.6 km/h
2215 25-12-2019 16:30:00 7.8 C 7.35 g/m*3 7.8 C 1.6 km/h
2216 25-12-2019 16:35:00 7.7 C 7.3 g/m*3 7.7 C 0 km/h
2217 25-12-2019 16:40:00 7.6 C 7.25 g/m*3 7.6 C 3.2 km/h
2218 25-12-2019 16:45:00 7.6 C 7.17 g/m*3 6.16 C 8.1 km/h
2219 25-12-2019 16:50:00 7.6 C 7.17 g/m*3 7.6 C 3.2 km/h
2220 25-12-2019 16:55:00 7.6 C 7.17 g/m*3 7.6 C 1.6 km/h
2221 25-12-2019 17:00:00 7.6 C 7.17 g/m*3 7.6 C 1.6 km/h
2222 25-12-2019 17:05:00 7.5 C 7.2 g/m*3 7.5 C 1.6 km/h
2223 25-12-2019 17:10:00 7.5 C 7.12 g/m*3 7.5 C 1.6 km/h
2224 25-12-2019 17:15:00 7.5 C 7.12 g/m*3 7.5 C 1.6 km/h
2225 25-12-2019 17:20:00 7.4 C 7.16 g/m*3 7.4 C 0 km/h
Sensor: Nr:Datum:Temp:Abs-Feuchte:Windchill:Wind:
Aussen-T/F 2226 25-12-2019 17:25:00 7.4 C 7.16 g/m*3 7.4 C 4.8 km/h
2227 25-12-2019 17:30:00 7.3 C 7.11 g/m*3 7.3 C 0 km/h
2228 25-12-2019 17:35:00 7.2 C 6.99 g/m*3 7.2 C 0 km/h
2229 25-12-2019 17:40:00 7.1 C 6.94 g/m*3 7.1 C 1.6 km/h
2230 25-12-2019 17:45:00 6.9 C 6.85 g/m*3 6.9 C 1.6 km/h
2231 25-12-2019 17:50:00 6.8 C 6.88 g/m*3 6.8 C 1.6 km/h
2232 25-12-2019 17:55:00 6.8 C 6.88 g/m*3 6.8 C 1.6 km/h
2233 25-12-2019 18:00:00 6.8 C 6.96 g/m*3 6.8 C 0 km/h
2234 25-12-2019 18:05:00 6.8 C 6.96 g/m*3 6.8 C 3.2 km/h
2235 25-12-2019 18:10:00 6.8 C 6.96 g/m*3 6.8 C 3.2 km/h
2236 25-12-2019 18:15:00 6.8 C 6.96 g/m*3 6.8 C 0 km/h
2237 25-12-2019 18:20:00 6.8 C 6.96 g/m*3 6.8 C 1.6 km/h
2238 25-12-2019 18:25:00 6.8 C 6.96 g/m*3 6.8 C 0 km/h
2239 25-12-2019 18:30:00 6.8 C 6.96 g/m*3 6.8 C 0 km/h
2240 25-12-2019 18:35:00 6.8 C 6.96 g/m*3 6.8 C 0 km/h
2241 25-12-2019 18:40:00 6.8 C 6.96 g/m*3 6.8 C 0 km/h
2242 25-12-2019 18:45:00 6.8 C 6.96 g/m*3 6.8 C 1.6 km/h
2243 25-12-2019 18:50:00 6.8 C 6.96 g/m*3 6.8 C 0 km/h
2244 25-12-2019 18:55:00 6.8 C 6.96 g/m*3 6.8 C 1.6 km/h
2245 25-12-2019 19:00:00 6.8 C 6.96 g/m*3 6.8 C 1.6 km/h
2246 25-12-2019 19:05:00 6.8 C 6.96 g/m*3 6.8 C 3.2 km/h
2247 25-12-2019 19:10:00 6.8 C 6.96 g/m*3 6.8 C 3.2 km/h
2248 25-12-2019 19:15:00 6.7 C 6.91 g/m*3 6.7 C 0 km/h
2249 25-12-2019 19:20:00 6.7 C 6.91 g/m*3 6.7 C 3.2 km/h
2250 25-12-2019 19:25:00 6.7 C 6.91 g/m*3 6.7 C 0 km/h
Sensor: Nr:Datum:Temp:Abs-Feuchte:Windchill:Wind:
Aussen-T/F 2251 25-12-2019 19:30:00 6.7 C 6.91 g/m*3 6.7 C 1.6 km/h
2252 25-12-2019 19:35:00 6.7 C 6.91 g/m*3 6.7 C 1.6 km/h
2253 25-12-2019 19:40:00 6.7 C 6.99 g/m*3 6.7 C 0 km/h
2254 25-12-2019 19:45:00 6.7 C 6.99 g/m*3 6.7 C 1.6 km/h
2255 25-12-2019 19:50:00 6.7 C 6.91 g/m*3 6.7 C 1.6 km/h
2256 25-12-2019 19:55:00 6.7 C 6.91 g/m*3 6.7 C 0 km/h
2257 25-12-2019 20:00:00 6.7 C 6.91 g/m*3 6.7 C 0 km/h
2258 25-12-2019 20:05:00 6.7 C 6.99 g/m*3 6.7 C 3.2 km/h
2259 25-12-2019 20:10:00 6.7 C 6.99 g/m*3 6.7 C 3.2 km/h
2260 25-12-2019 20:15:00 6.7 C 6.99 g/m*3 6.7 C 1.6 km/h
2261 25-12-2019 20:20:00 6.7 C 6.99 g/m*3 6.7 C 3.2 km/h
2262 25-12-2019 20:25:00 6.6 C 6.95 g/m*3 6.6 C 1.6 km/h
2263 25-12-2019 20:30:00 6.6 C 6.95 g/m*3 6.6 C 1.6 km/h
2264 25-12-2019 20:35:00 6.6 C 6.95 g/m*3 5.44 C 6.4 km/h
2265 25-12-2019 20:40:00 6.6 C 6.95 g/m*3 6.6 C 0 km/h
2266 25-12-2019 20:45:00 6.6 C 6.95 g/m*3 6.6 C 1.6 km/h
2267 25-12-2019 20:50:00 6.6 C 6.95 g/m*3 6.6 C 1.6 km/h
2268 25-12-2019 20:55:00 6.6 C 6.95 g/m*3 6.6 C 3.2 km/h
2269 25-12-2019 21:00:00 6.5 C 6.9 g/m*3 6.5 C 1.6 km/h
2270 25-12-2019 21:05:00 6.5 C 6.97 g/m*3 6.5 C 0 km/h
2271 25-12-2019 21:10:00 6.4 C 6.93 g/m*3 6.4 C 0 km/h
2272 25-12-2019 21:15:00 6.4 C 6.93 g/m*3 6.4 C 3.2 km/h
2273 25-12-2019 21:20:00 6.4 C 6.93 g/m*3 6.4 C 4.8 km/h
2274 25-12-2019 21:25:00 6.3 C 6.88 g/m*3 6.3 C 0 km/h
2275 25-12-2019 21:30:00 6.3 C 6.96 g/m*3 6.3 C 1.6 km/h
Sensor: Nr:Datum:Temp:Abs-Feuchte:Windchill:Wind:
Aussen-T/F 2276 25-12-2019 21:35:00 6.3 C 6.96 g/m*3 6.3 C 3.2 km/h
2277 25-12-2019 21:40:00 6.3 C 6.96 g/m*3 6.3 C 0 km/h
2278 25-12-2019 21:45:00 6.2 C 6.91 g/m*3 6.2 C 0 km/h
2279 25-12-2019 21:50:00 6.2 C 6.91 g/m*3 6.2 C 1.6 km/h
2280 25-12-2019 21:55:00 6.2 C 6.91 g/m*3 6.2 C 0 km/h
2281 25-12-2019 22:00:00 6.2 C 6.91 g/m*3 6.2 C 1.6 km/h
2282 25-12-2019 22:05:00 6.2 C 6.99 g/m*3 6.2 C 0 km/h
2283 25-12-2019 22:10:00 6.1 C 6.87 g/m*3 6.1 C 1.6 km/h
2284 25-12-2019 22:15:00 6.1 C 6.94 g/m*3 6.1 C 0 km/h
2285 25-12-2019 22:20:00 6.1 C 6.94 g/m*3 6.1 C 3.2 km/h
2286 25-12-2019 22:25:00 6.1 C 6.94 g/m*3 6.1 C 1.6 km/h
2287 25-12-2019 22:30:00 6 C 6.9 g/m*3 6 C 1.6 km/h
2288 25-12-2019 22:35:00 6 C 6.9 g/m*3 6 C 0 km/h
2289 25-12-2019 22:40:00 6 C 6.9 g/m*3 6 C 0 km/h
2290 25-12-2019 22:45:00 6 C 6.9 g/m*3 6 C 0 km/h
2291 25-12-2019 22:50:00 5.9 C 6.85 g/m*3 5.9 C 0 km/h
2292 25-12-2019 22:55:00 5.9 C 6.85 g/m*3 5.9 C 0 km/h
2293 25-12-2019 23:00:00 6 C 6.9 g/m*3 6 C 3.2 km/h
2294 25-12-2019 23:05:00 6 C 6.9 g/m*3 6 C 1.6 km/h
2295 25-12-2019 23:10:00 6 C 6.9 g/m*3 6 C 0 km/h
2296 25-12-2019 23:15:00 6 C 6.9 g/m*3 6 C 1.6 km/h
2297 25-12-2019 23:20:00 6.1 C 6.94 g/m*3 6.1 C 0 km/h
2298 25-12-2019 23:25:00 6.1 C 6.94 g/m*3 6.1 C 0 km/h
2299 25-12-2019 23:30:00 6 C 6.9 g/m*3 6 C 1.6 km/h
2300 25-12-2019 23:35:00 6 C 6.9 g/m*3 6 C 0 km/h
Sensor: Nr:Datum:Temp:Abs-Feuchte:Windchill:Wind:
Aussen-T/F 2301 25-12-2019 23:40:00 5.9 C 6.85 g/m*3 5.9 C 0 km/h
2302 25-12-2019 23:45:00 5.9 C 6.85 g/m*3 5.9 C 0 km/h
2303 25-12-2019 23:50:00 5.7 C 6.76 g/m*3 5.7 C 0 km/h
2304 25-12-2019 23:55:00 5.6 C 6.72 g/m*3 5.6 C 0 km/h
2305 26-12-2019 00:00:00 5.5 C 6.67 g/m*3 5.5 C 1.6 km/h
2306 26-12-2019 00:05:00 5.4 C 6.63 g/m*3 5.4 C 0 km/h
2307 26-12-2019 00:10:00 5.4 C 6.63 g/m*3 5.4 C 0 km/h
2308 26-12-2019 00:15:00 5.3 C 6.58 g/m*3 5.3 C 0 km/h
2309 26-12-2019 00:20:00 5.1 C 6.5 g/m*3 5.1 C 0 km/h
2310 26-12-2019 00:25:00 4.9 C 6.41 g/m*3 4.9 C 0 km/h
2311 26-12-2019 00:30:00 4.8 C 6.37 g/m*3 4.8 C 0 km/h
2312 26-12-2019 00:35:00 4.7 C 6.33 g/m*3 4.7 C 0 km/h
2313 26-12-2019 00:40:00 4.6 C 6.29 g/m*3 4.6 C 0 km/h
2314 26-12-2019 00:45:00 4.6 C 6.29 g/m*3 4.6 C 0 km/h
2315 26-12-2019 00:50:00 4.7 C 6.39 g/m*3 4.7 C 3.2 km/h
2316 26-12-2019 00:55:00 4.8 C 6.44 g/m*3 4.8 C 0 km/h
2317 26-12-2019 01:00:00 4.9 C 6.48 g/m*3 4.9 C 0 km/h
2318 26-12-2019 01:05:00 4.9 C 6.48 g/m*3 4.9 C 0 km/h
2319 26-12-2019 01:10:00 5 C 6.52 g/m*3 5 C 1.6 km/h
2320 26-12-2019 01:15:00 5.1 C 6.57 g/m*3 5.1 C 0 km/h
2321 26-12-2019 01:20:00 5.1 C 6.57 g/m*3 5.1 C 1.6 km/h
2322 26-12-2019 01:25:00 5.2 C 6.61 g/m*3 5.2 C 0 km/h
2323 26-12-2019 01:30:00 5.2 C 6.61 g/m*3 5.2 C 0 km/h
2324 26-12-2019 01:35:00 5.2 C 6.61 g/m*3 5.2 C 0 km/h
2325 26-12-2019 01:40:00 5.2 C 6.61 g/m*3 5.2 C 0 km/h
Sensor: Nr:Datum:Temp:Abs-Feuchte:Windchill:Wind:
Aussen-T/F 2326 26-12-2019 01:45:00 5.2 C 6.61 g/m*3 5.2 C 3.2 km/h
2327 26-12-2019 01:50:00 5.2 C 6.61 g/m*3 5.2 C 4.8 km/h
2328 26-12-2019 01:55:00 5.2 C 6.61 g/m*3 5.2 C 1.6 km/h
2329 26-12-2019 02:00:00 5.2 C 6.61 g/m*3 5.2 C 3.2 km/h
2330 26-12-2019 02:05:00 5.2 C 6.61 g/m*3 5.2 C 3.2 km/h
2331 26-12-2019 02:10:00 5.2 C 6.61 g/m*3 5.2 C 0 km/h
2332 26-12-2019 02:15:00 5.2 C 6.61 g/m*3 5.2 C 0 km/h
2333 26-12-2019 02:20:00 5.2 C 6.61 g/m*3 5.2 C 1.6 km/h
2334 26-12-2019 02:25:00 5.2 C 6.61 g/m*3 5.2 C 0 km/h
2335 26-12-2019 02:30:00 5.1 C 6.57 g/m*3 5.1 C 0 km/h
2336 26-12-2019 02:35:00 5 C 6.52 g/m*3 5 C 0 km/h
2337 26-12-2019 02:40:00 4.9 C 6.48 g/m*3 4.9 C 1.6 km/h
2338 26-12-2019 02:45:00 4.9 C 6.48 g/m*3 4.9 C 0 km/h
2339 26-12-2019 02:50:00 4.9 C 6.48 g/m*3 4.9 C 1.6 km/h
2340 26-12-2019 02:55:00 4.9 C 6.48 g/m*3 4.9 C 1.6 km/h
2341 26-12-2019 03:00:00 5 C 6.52 g/m*3 5 C 0 km/h
2342 26-12-2019 03:05:00 5 C 6.52 g/m*3 5 C 0 km/h
2343 26-12-2019 03:10:00 5 C 6.52 g/m*3 5 C 0 km/h
2344 26-12-2019 03:15:00 5 C 6.52 g/m*3 5 C 0 km/h
2345 26-12-2019 03:20:00 5 C 6.52 g/m*3 5 C 0 km/h
2346 26-12-2019 03:25:00 5 C 6.52 g/m*3 5 C 0 km/h
2347 26-12-2019 03:30:00 4.9 C 6.48 g/m*3 4.9 C 0 km/h
2348 26-12-2019 03:35:00 4.9 C 6.48 g/m*3 4.9 C 0 km/h
2349 26-12-2019 03:40:00 4.9 C 6.48 g/m*3 4.9 C 0 km/h
2350 26-12-2019 03:45:00 4.9 C 6.48 g/m*3 4.9 C 3.2 km/h
Sensor: Nr:Datum:Temp:Abs-Feuchte:Windchill:Wind:
Aussen-T/F 2351 26-12-2019 03:50:00 4.9 C 6.48 g/m*3 4.9 C 0 km/h
2352 26-12-2019 03:55:00 4.8 C 6.44 g/m*3 4.8 C 0 km/h
2353 26-12-2019 04:00:00 4.8 C 6.44 g/m*3 4.8 C 0 km/h
2354 26-12-2019 04:05:00 4.7 C 6.39 g/m*3 4.7 C 0 km/h
2355 26-12-2019 04:10:00 4.6 C 6.35 g/m*3 4.6 C 1.6 km/h
2356 26-12-2019 04:15:00 4.6 C 6.35 g/m*3 4.6 C 1.6 km/h
2357 26-12-2019 04:20:00 4.5 C 6.31 g/m*3 4.5 C 0 km/h
2358 26-12-2019 04:25:00 4.5 C 6.31 g/m*3 4.5 C 0 km/h
2359 26-12-2019 04:30:00 4.4 C 6.27 g/m*3 4.4 C 0 km/h
2360 26-12-2019 04:35:00 4.3 C 6.23 g/m*3 4.3 C 1.6 km/h
2361 26-12-2019 04:40:00 4.2 C 6.19 g/m*3 4.2 C 3.2 km/h
2362 26-12-2019 04:45:00 4.1 C 6.14 g/m*3 4.1 C 0 km/h
2363 26-12-2019 04:50:00 4.1 C 6.14 g/m*3 4.1 C 0 km/h
2364 26-12-2019 04:55:00 4 C 6.1 g/m*3 4 C 0 km/h
2365 26-12-2019 05:00:00 4.1 C 6.14 g/m*3 4.1 C 0 km/h
2366 26-12-2019 05:05:00 4.1 C 6.14 g/m*3 4.1 C 1.6 km/h
2367 26-12-2019 05:10:00 4.2 C 6.25 g/m*3 4.2 C 0 km/h
2368 26-12-2019 05:15:00 4.2 C 6.25 g/m*3 4.2 C 0 km/h
2369 26-12-2019 05:20:00 4.3 C 6.29 g/m*3 4.3 C 0 km/h
2370 26-12-2019 05:25:00 4.3 C 6.29 g/m*3 4.3 C 0 km/h
2371 26-12-2019 05:30:00 4.3 C 6.29 g/m*3 4.3 C 0 km/h
2372 26-12-2019 05:35:00 4.4 C 6.33 g/m*3 4.4 C 0 km/h
2373 26-12-2019 05:40:00 4.3 C 6.29 g/m*3 4.3 C 0 km/h
2374 26-12-2019 05:45:00 4.3 C 6.29 g/m*3 4.3 C 0 km/h
2375 26-12-2019 05:50:00 4.3 C 6.29 g/m*3 4.3 C 0 km/h
Sensor: Nr:Datum:Temp:Abs-Feuchte:Windchill:Wind:
Aussen-T/F 2376 26-12-2019 05:55:00 4.3 C 6.29 g/m*3 4.3 C 0 km/h
2377 26-12-2019 06:00:00 4.3 C 6.29 g/m*3 4.3 C 0 km/h
2378 26-12-2019 06:05:00 4.3 C 6.29 g/m*3 4.3 C 0 km/h
2379 26-12-2019 06:10:00 4.3 C 6.29 g/m*3 4.3 C 0 km/h
2380 26-12-2019 06:15:00 4.3 C 6.29 g/m*3 4.3 C 0 km/h
2381 26-12-2019 06:20:00 4.3 C 6.29 g/m*3 4.3 C 0 km/h
2382 26-12-2019 06:25:00 4.3 C 6.29 g/m*3 4.3 C 0 km/h
2383 26-12-2019 06:30:00 4.3 C 6.29 g/m*3 4.3 C 0 km/h
2384 26-12-2019 06:35:00 4.3 C 6.29 g/m*3 4.3 C 0 km/h
2385 26-12-2019 06:40:00 4.3 C 6.29 g/m*3 4.3 C 0 km/h
2386 26-12-2019 06:45:00 4.4 C 6.33 g/m*3 4.4 C 0 km/h
2387 26-12-2019 06:50:00 4.4 C 6.33 g/m*3 4.4 C 0 km/h
2388 26-12-2019 06:55:00 4.4 C 6.33 g/m*3 4.4 C 0 km/h
2389 26-12-2019 07:00:00 4.4 C 6.33 g/m*3 4.4 C 0 km/h
2390 26-12-2019 07:05:00 4.4 C 6.33 g/m*3 4.4 C 0 km/h
2391 26-12-2019 07:10:00 4.4 C 6.33 g/m*3 4.4 C 0 km/h
2392 26-12-2019 07:15:00 4.3 C 6.29 g/m*3 4.3 C 0 km/h
2393 26-12-2019 07:20:00 4.3 C 6.29 g/m*3 4.3 C 0 km/h
2394 26-12-2019 07:25:00 4.3 C 6.29 g/m*3 4.3 C 0 km/h
2395 26-12-2019 07:30:00 4.3 C 6.29 g/m*3 4.3 C 0 km/h
2396 26-12-2019 07:35:00 4.3 C 6.29 g/m*3 4.3 C 0 km/h
2397 26-12-2019 07:40:00 4.3 C 6.29 g/m*3 4.3 C 0 km/h
2398 26-12-2019 07:45:00 4.3 C 6.29 g/m*3 4.3 C 0 km/h
2399 26-12-2019 07:50:00 4.3 C 6.29 g/m*3 4.3 C 0 km/h
2400 26-12-2019 07:55:00 4.3 C 6.29 g/m*3 4.3 C 0 km/h
Sensor: Nr:Datum:Temp:Abs-Feuchte:Windchill:Wind:
Aussen-T/F 2401 26-12-2019 08:00:00 4.2 C 6.25 g/m*3 4.2 C 0 km/h
2402 26-12-2019 08:05:00 4.2 C 6.25 g/m*3 4.2 C 0 km/h
2403 26-12-2019 08:10:00 4.2 C 6.25 g/m*3 4.2 C 0 km/h
2404 26-12-2019 08:15:00 4.2 C 6.25 g/m*3 4.2 C 0 km/h
2405 26-12-2019 08:20:00 4.2 C 6.25 g/m*3 4.2 C 0 km/h
2406 26-12-2019 08:25:00 4.2 C 6.25 g/m*3 4.2 C 0 km/h
2407 26-12-2019 08:30:00 4.2 C 6.25 g/m*3 4.2 C 0 km/h
2408 26-12-2019 08:35:00 4.2 C 6.25 g/m*3 4.2 C 0 km/h
2409 26-12-2019 08:40:00 4.3 C 6.29 g/m*3 4.3 C 0 km/h
2410 26-12-2019 08:45:00 4.3 C 6.29 g/m*3 4.3 C 0 km/h
2411 26-12-2019 08:50:00 4.3 C 6.29 g/m*3 4.3 C 0 km/h
2412 26-12-2019 08:55:00 4.3 C 6.29 g/m*3 4.3 C 0 km/h
2413 26-12-2019 09:00:00 4.3 C 6.29 g/m*3 4.3 C 0 km/h
2414 26-12-2019 09:05:00 4.3 C 6.29 g/m*3 4.3 C 0 km/h
2415 26-12-2019 09:10:00 4.3 C 6.29 g/m*3 4.3 C 0 km/h
2416 26-12-2019 09:15:00 4.3 C 6.29 g/m*3 4.3 C 0 km/h
2417 26-12-2019 09:20:00 4.3 C 6.29 g/m*3 4.3 C 0 km/h
2418 26-12-2019 09:25:00 4.3 C 6.29 g/m*3 4.3 C 0 km/h
2419 26-12-2019 09:30:00 4.3 C 6.29 g/m*3 4.3 C 0 km/h
2420 26-12-2019 09:35:00 4.4 C 6.33 g/m*3 4.4 C 0 km/h
2421 26-12-2019 09:40:00 4.4 C 6.33 g/m*3 4.4 C 0 km/h
2422 26-12-2019 09:45:00 4.4 C 6.33 g/m*3 4.4 C 0 km/h
2423 26-12-2019 09:50:00 4.4 C 6.33 g/m*3 4.4 C 0 km/h
2424 26-12-2019 09:55:00 4.5 C 6.38 g/m*3 4.5 C 0 km/h
2425 26-12-2019 10:00:00 4.5 C 6.38 g/m*3 4.5 C 0 km/h
Sensor: Nr:Datum:Temp:Abs-Feuchte:Windchill:Wind:
Aussen-T/F 2426 26-12-2019 10:05:00 4.5 C 6.38 g/m*3 4.5 C 0 km/h
2427 26-12-2019 10:10:00 4.5 C 6.38 g/m*3 4.5 C 0 km/h
2428 26-12-2019 10:15:00 4.5 C 6.38 g/m*3 4.5 C 0 km/h
2429 26-12-2019 10:20:00 4.6 C 6.42 g/m*3 4.6 C 0 km/h
2430 26-12-2019 10:25:00 4.6 C 6.42 g/m*3 4.6 C 0 km/h
2431 26-12-2019 10:30:00 4.6 C 6.42 g/m*3 4.6 C 0 km/h
2432 26-12-2019 10:35:00 4.7 C 6.46 g/m*3 4.7 C 0 km/h
2433 26-12-2019 10:40:00 4.8 C 6.5 g/m*3 4.8 C 0 km/h
2434 26-12-2019 10:45:00 4.8 C 6.5 g/m*3 4.8 C 0 km/h
2435 26-12-2019 10:50:00 4.9 C 6.55 g/m*3 4.9 C 0 km/h
2436 26-12-2019 10:55:00 4.9 C 6.55 g/m*3 4.9 C 0 km/h
2437 26-12-2019 11:00:00 5.1 C 6.63 g/m*3 5.1 C 0 km/h
2438 26-12-2019 11:05:00 5.1 C 6.63 g/m*3 5.1 C 0 km/h
2439 26-12-2019 11:10:00 5.2 C 6.68 g/m*3 5.2 C 0 km/h
2440 26-12-2019 11:15:00 5.3 C 6.72 g/m*3 5.3 C 0 km/h
2441 26-12-2019 11:20:00 5.4 C 6.77 g/m*3 5.4 C 1.6 km/h
2442 26-12-2019 11:25:00 5.6 C 6.86 g/m*3 5.6 C 0 km/h
2443 26-12-2019 11:30:00 5.6 C 6.86 g/m*3 5.6 C 0 km/h
2444 26-12-2019 11:35:00 5.7 C 6.9 g/m*3 5.7 C 0 km/h
2445 26-12-2019 11:40:00 5.7 C 6.9 g/m*3 5.7 C 0 km/h
2446 26-12-2019 11:45:00 5.7 C 6.9 g/m*3 5.7 C 0 km/h
2447 26-12-2019 11:50:00 5.8 C 6.95 g/m*3 5.8 C 0 km/h
2448 26-12-2019 11:55:00 5.8 C 6.95 g/m*3 5.8 C 0 km/h
2449 26-12-2019 12:00:00 5.7 C 6.9 g/m*3 5.7 C 0 km/h
2450 26-12-2019 12:05:00 5.8 C 6.95 g/m*3 5.8 C 0 km/h
Sensor: Nr:Datum:Temp:Abs-Feuchte:Windchill:Wind:
Aussen-T/F 2451 26-12-2019 12:10:00 5.7 C 6.9 g/m*3 5.7 C 0 km/h
2452 26-12-2019 12:15:00 5.8 C 6.95 g/m*3 5.8 C 0 km/h
2453 26-12-2019 12:20:00 5.7 C 6.9 g/m*3 5.7 C 0 km/h
2454 26-12-2019 12:25:00 5.8 C 6.95 g/m*3 5.8 C 0 km/h
2455 26-12-2019 12:30:00 5.9 C 6.99 g/m*3 5.9 C 0 km/h
2456 26-12-2019 12:35:00 5.9 C 6.99 g/m*3 5.9 C 0 km/h
2457 26-12-2019 12:40:00 6 C 7.04 g/m*3 6 C 0 km/h
2458 26-12-2019 12:45:00 6.1 C 7.09 g/m*3 6.1 C 0 km/h
2459 26-12-2019 12:50:00 6.1 C 7.09 g/m*3 6.1 C 0 km/h
2460 26-12-2019 12:55:00 6.2 C 7.06 g/m*3 6.2 C 0 km/h
2461 26-12-2019 13:00:00 6.2 C 7.06 g/m*3 6.2 C 0 km/h
2462 26-12-2019 13:05:00 6.2 C 7.06 g/m*3 6.2 C 0 km/h
2463 26-12-2019 13:10:00 6.3 C 7.11 g/m*3 6.3 C 0 km/h
2464 26-12-2019 13:15:00 6.3 C 7.11 g/m*3 6.3 C 0 km/h
2465 26-12-2019 13:20:00 6.3 C 7.11 g/m*3 6.3 C 0 km/h
2466 26-12-2019 13:25:00 6.3 C 7.11 g/m*3 6.3 C 0 km/h
2467 26-12-2019 13:30:00 6.3 C 7.11 g/m*3 6.3 C 0 km/h
2468 26-12-2019 13:35:00 6.3 C 7.11 g/m*3 6.3 C 0 km/h
2469 26-12-2019 13:40:00 6.3 C 7.11 g/m*3 6.3 C 0 km/h
2470 26-12-2019 13:45:00 6.3 C 7.11 g/m*3 6.3 C 0 km/h
2471 26-12-2019 13:50:00 6.2 C 7.06 g/m*3 6.2 C 0 km/h
2472 26-12-2019 13:55:00 6.2 C 7.06 g/m*3 6.2 C 0 km/h
2473 26-12-2019 14:00:00 6.2 C 7.06 g/m*3 6.2 C 0 km/h
2474 26-12-2019 14:05:00 6.2 C 7.06 g/m*3 6.2 C 0 km/h
2475 26-12-2019 14:10:00 6.2 C 7.06 g/m*3 6.2 C 0 km/h
Sensor: Nr:Datum:Temp:Abs-Feuchte:Windchill:Wind:
Aussen-T/F 2476 26-12-2019 14:15:00 6.3 C 7.11 g/m*3 6.3 C 0 km/h
2477 26-12-2019 14:20:00 6.3 C 7.11 g/m*3 6.3 C 0 km/h
2478 26-12-2019 14:25:00 6.3 C 7.11 g/m*3 6.3 C 0 km/h
2479 26-12-2019 14:30:00 6.3 C 7.03 g/m*3 6.3 C 0 km/h
2480 26-12-2019 14:35:00 6.3 C 7.03 g/m*3 6.3 C 0 km/h
2481 26-12-2019 14:40:00 6.3 C 7.03 g/m*3 6.3 C 0 km/h
2482 26-12-2019 14:45:00 6.3 C 7.03 g/m*3 6.3 C 0 km/h
2483 26-12-2019 14:50:00 6.3 C 7.03 g/m*3 6.3 C 0 km/h
2484 26-12-2019 14:55:00 6.3 C 7.03 g/m*3 6.3 C 0 km/h
2485 26-12-2019 15:00:00 6.3 C 7.03 g/m*3 6.3 C 0 km/h
2486 26-12-2019 15:05:00 6.2 C 6.99 g/m*3 6.2 C 0 km/h
2487 26-12-2019 15:10:00 6.2 C 6.99 g/m*3 6.2 C 0 km/h
2488 26-12-2019 15:15:00 6.2 C 6.99 g/m*3 6.2 C 0 km/h
2489 26-12-2019 15:20:00 6.1 C 6.94 g/m*3 6.1 C 0 km/h
2490 26-12-2019 15:25:00 6.1 C 6.94 g/m*3 6.1 C 0 km/h
2491 26-12-2019 15:30:00 6 C 6.9 g/m*3 6 C 0 km/h
2492 26-12-2019 15:35:00 5.9 C 6.85 g/m*3 5.9 C 0 km/h
2493 26-12-2019 15:40:00 5.8 C 6.81 g/m*3 5.8 C 0 km/h
2494 26-12-2019 15:45:00 5.8 C 6.81 g/m*3 5.8 C 0 km/h
2495 26-12-2019 15:50:00 5.8 C 6.81 g/m*3 5.8 C 0 km/h
2496 26-12-2019 15:55:00 5.7 C 6.76 g/m*3 5.7 C 0 km/h
2497 26-12-2019 16:00:00 5.6 C 6.72 g/m*3 5.6 C 0 km/h
2498 26-12-2019 16:05:00 5.6 C 6.72 g/m*3 5.6 C 0 km/h
2499 26-12-2019 16:10:00 5.5 C 6.67 g/m*3 5.5 C 0 km/h
2500 26-12-2019 16:15:00 5.4 C 6.63 g/m*3 5.4 C 0 km/h
Sensor: Nr:Datum:Temp:Abs-Feuchte:Windchill:Wind:
Aussen-T/F 2501 26-12-2019 16:20:00 5.3 C 6.58 g/m*3 5.3 C 0 km/h
2502 26-12-2019 16:25:00 5.3 C 6.58 g/m*3 5.3 C 0 km/h
2503 26-12-2019 16:30:00 5.3 C 6.58 g/m*3 5.3 C 0 km/h
2504 26-12-2019 16:35:00 5.3 C 6.58 g/m*3 5.3 C 0 km/h
2505 26-12-2019 16:40:00 5.2 C 6.54 g/m*3 5.2 C 0 km/h
2506 26-12-2019 16:45:00 5.2 C 6.54 g/m*3 5.2 C 0 km/h
2507 26-12-2019 16:50:00 5.2 C 6.61 g/m*3 5.2 C 0 km/h
2508 26-12-2019 16:55:00 5.2 C 6.61 g/m*3 5.2 C 0 km/h
2509 26-12-2019 17:00:00 5.2 C 6.61 g/m*3 5.2 C 0 km/h
2510 26-12-2019 17:05:00 5.1 C 6.57 g/m*3 5.1 C 0 km/h
2511 26-12-2019 17:10:00 5.1 C 6.57 g/m*3 5.1 C 0 km/h
2512 26-12-2019 17:15:00 5.1 C 6.57 g/m*3 5.1 C 0 km/h
2513 26-12-2019 17:20:00 5.1 C 6.57 g/m*3 5.1 C 0 km/h
2514 26-12-2019 17:25:00 5.1 C 6.57 g/m*3 5.1 C 0 km/h
2515 26-12-2019 17:30:00 5 C 6.52 g/m*3 5 C 0 km/h
2516 26-12-2019 17:35:00 5 C 6.52 g/m*3 5 C 0 km/h
2517 26-12-2019 17:40:00 5 C 6.52 g/m*3 5 C 3.2 km/h
2518 26-12-2019 17:45:00 4.9 C 6.48 g/m*3 4.9 C 0 km/h
2519 26-12-2019 17:50:00 4.9 C 6.48 g/m*3 4.9 C 0 km/h
2520 26-12-2019 17:55:00 4.9 C 6.48 g/m*3 4.9 C 0 km/h
2521 26-12-2019 18:00:00 4.9 C 6.48 g/m*3 4.9 C 0 km/h
2522 26-12-2019 18:05:00 4.9 C 6.48 g/m*3 4.9 C 0 km/h
2523 26-12-2019 18:10:00 4.8 C 6.44 g/m*3 4.8 C 0 km/h
2524 26-12-2019 18:15:00 4.8 C 6.44 g/m*3 4.8 C 0 km/h
2525 26-12-2019 18:20:00 4.8 C 6.44 g/m*3 4.8 C 0 km/h
Sensor: Nr:Datum:Temp:Abs-Feuchte:Windchill:Wind:
Aussen-T/F 2526 26-12-2019 18:25:00 4.8 C 6.44 g/m*3 4.8 C 0 km/h
2527 26-12-2019 18:30:00 4.8 C 6.44 g/m*3 4.8 C 0 km/h
2528 26-12-2019 18:35:00 4.8 C 6.44 g/m*3 4.8 C 0 km/h
2529 26-12-2019 18:40:00 4.8 C 6.44 g/m*3 4.8 C 0 km/h
2530 26-12-2019 18:45:00 4.8 C 6.44 g/m*3 4.8 C 0 km/h
2531 26-12-2019 18:50:00 4.8 C 6.44 g/m*3 4.8 C 0 km/h
2532 26-12-2019 18:55:00 4.8 C 6.44 g/m*3 4.8 C 0 km/h
2533 26-12-2019 19:00:00 4.8 C 6.44 g/m*3 4.8 C 0 km/h
2534 26-12-2019 19:05:00 4.8 C 6.44 g/m*3 4.8 C 1.6 km/h
2535 26-12-2019 19:10:00 4.8 C 6.44 g/m*3 4.8 C 0 km/h
2536 26-12-2019 19:15:00 4.8 C 6.44 g/m*3 4.8 C 0 km/h
2537 26-12-2019 19:20:00 4.8 C 6.44 g/m*3 4.8 C 0 km/h
2538 26-12-2019 19:25:00 4.8 C 6.44 g/m*3 4.8 C 0 km/h
2539 26-12-2019 19:30:00 4.7 C 6.39 g/m*3 4.7 C 0 km/h
2540 26-12-2019 19:35:00 4.7 C 6.39 g/m*3 4.7 C 0 km/h
2541 26-12-2019 19:40:00 4.7 C 6.39 g/m*3 4.7 C 0 km/h
2542 26-12-2019 19:45:00 4.7 C 6.39 g/m*3 4.7 C 0 km/h
2543 26-12-2019 19:50:00 4.7 C 6.39 g/m*3 4.7 C 0 km/h
2544 26-12-2019 19:55:00 4.6 C 6.35 g/m*3 4.6 C 0 km/h
2545 26-12-2019 20:00:00 4.6 C 6.35 g/m*3 4.6 C 0 km/h
2546 26-12-2019 20:05:00 4.6 C 6.35 g/m*3 4.6 C 3.2 km/h
2547 26-12-2019 20:10:00 4.7 C 6.39 g/m*3 4.7 C 0 km/h
2548 26-12-2019 20:15:00 4.7 C 6.39 g/m*3 4.7 C 0 km/h
2549 26-12-2019 20:20:00 4.7 C 6.39 g/m*3 4.7 C 0 km/h
2550 26-12-2019 20:25:00 4.7 C 6.39 g/m*3 4.7 C 0 km/h
Sensor: Nr:Datum:Temp:Abs-Feuchte:Windchill:Wind:
Aussen-T/F 2551 26-12-2019 20:30:00 4.8 C 6.44 g/m*3 4.8 C 0 km/h
2552 26-12-2019 20:35:00 4.7 C 6.39 g/m*3 4.7 C 0 km/h
2553 26-12-2019 20:40:00 4.8 C 6.44 g/m*3 4.8 C 0 km/h
2554 26-12-2019 20:45:00 4.7 C 6.39 g/m*3 4.7 C 0 km/h
2555 26-12-2019 20:50:00 4.8 C 6.44 g/m*3 4.8 C 0 km/h
2556 26-12-2019 20:55:00 4.8 C 6.44 g/m*3 4.8 C 0 km/h
2557 26-12-2019 21:00:00 4.7 C 6.39 g/m*3 4.7 C 1.6 km/h
2558 26-12-2019 21:05:00 4.8 C 6.44 g/m*3 4.8 C 0 km/h
2559 26-12-2019 21:10:00 4.8 C 6.44 g/m*3 4.8 C 0 km/h
2560 26-12-2019 21:15:00 4.8 C 6.44 g/m*3 4.8 C 0 km/h
2561 26-12-2019 21:20:00 4.8 C 6.44 g/m*3 4.8 C 0 km/h
2562 26-12-2019 21:25:00 4.8 C 6.44 g/m*3 4.8 C 0 km/h
2563 26-12-2019 21:30:00 4.8 C 6.44 g/m*3 4.8 C 0 km/h
2564 26-12-2019 21:35:00 4.8 C 6.44 g/m*3 4.8 C 1.6 km/h
2565 26-12-2019 21:40:00 4.8 C 6.44 g/m*3 4.8 C 3.2 km/h
2566 26-12-2019 21:45:00 4.8 C 6.44 g/m*3 4.8 C 0 km/h
2567 26-12-2019 21:50:00 4.8 C 6.44 g/m*3 4.8 C 0 km/h
2568 26-12-2019 21:55:00 4.8 C 6.44 g/m*3 4.8 C 0 km/h
2569 26-12-2019 22:00:00 4.8 C 6.44 g/m*3 4.8 C 0 km/h
2570 26-12-2019 22:05:00 4.9 C 6.48 g/m*3 4.9 C 0 km/h
2571 26-12-2019 22:10:00 4.9 C 6.48 g/m*3 4.9 C 0 km/h
2572 26-12-2019 22:15:00 4.9 C 6.48 g/m*3 4.9 C 0 km/h
2573 26-12-2019 22:20:00 4.9 C 6.48 g/m*3 4.9 C 1.6 km/h
2574 26-12-2019 22:25:00 4.9 C 6.48 g/m*3 4.9 C 0 km/h
2575 26-12-2019 22:30:00 4.9 C 6.48 g/m*3 4.9 C 0 km/h
Sensor: Nr:Datum:Temp:Abs-Feuchte:Windchill:Wind:
Aussen-T/F 2576 26-12-2019 22:35:00 4.9 C 6.48 g/m*3 4.9 C 0 km/h
2577 26-12-2019 22:40:00 4.9 C 6.48 g/m*3 4.9 C 0 km/h
2578 26-12-2019 22:45:00 4.9 C 6.48 g/m*3 4.9 C 0 km/h
2579 26-12-2019 22:50:00 4.9 C 6.48 g/m*3 4.9 C 0 km/h
2580 26-12-2019 22:55:00 4.9 C 6.48 g/m*3 4.9 C 0 km/h
2581 26-12-2019 23:00:00 4.9 C 6.48 g/m*3 4.9 C 0 km/h
2582 26-12-2019 23:05:00 4.9 C 6.48 g/m*3 4.9 C 3.2 km/h
2583 26-12-2019 23:10:00 4.9 C 6.48 g/m*3 4.9 C 0 km/h
2584 26-12-2019 23:15:00 4.9 C 6.48 g/m*3 4.9 C 0 km/h
2585 26-12-2019 23:20:00 4.9 C 6.48 g/m*3 4.9 C 0 km/h
2586 26-12-2019 23:25:00 4.9 C 6.48 g/m*3 4.9 C 0 km/h
2587 26-12-2019 23:30:00 4.9 C 6.48 g/m*3 4.9 C 1.6 km/h
2588 26-12-2019 23:35:00 4.9 C 6.48 g/m*3 4.9 C 0 km/h
2589 26-12-2019 23:40:00 4.9 C 6.48 g/m*3 4.9 C 0 km/h
2590 26-12-2019 23:45:00 4.9 C 6.48 g/m*3 4.9 C 0 km/h
2591 26-12-2019 23:50:00 4.9 C 6.48 g/m*3 4.9 C 0 km/h
2592 26-12-2019 23:55:00 4.9 C 6.48 g/m*3 4.9 C 0 km/h
2593 27-12-2019 00:00:00 4.9 C 6.48 g/m*3 4.9 C 0 km/h
2594 27-12-2019 00:05:00 4.9 C 6.48 g/m*3 4.9 C 0 km/h
2595 27-12-2019 00:10:00 4.9 C 6.48 g/m*3 4.9 C 0 km/h
2596 27-12-2019 00:15:00 4.9 C 6.48 g/m*3 4.9 C 0 km/h
2597 27-12-2019 00:20:00 4.9 C 6.48 g/m*3 4.9 C 0 km/h
2598 27-12-2019 00:25:00 4.9 C 6.48 g/m*3 4.9 C 0 km/h
2599 27-12-2019 00:30:00 4.9 C 6.48 g/m*3 4.9 C 0 km/h
2600 27-12-2019 00:35:00 4.9 C 6.48 g/m*3 4.9 C 0 km/h
Sensor: Nr:Datum:Temp:Abs-Feuchte:Windchill:Wind:
Aussen-T/F 2601 27-12-2019 00:40:00 4.9 C 6.48 g/m*3 4.9 C 0 km/h
2602 27-12-2019 00:45:00 4.9 C 6.48 g/m*3 4.9 C 0 km/h
2603 27-12-2019 00:50:00 4.9 C 6.55 g/m*3 4.9 C 0 km/h
2604 27-12-2019 00:55:00 4.9 C 6.55 g/m*3 4.9 C 0 km/h
2605 27-12-2019 01:00:00 4.9 C 6.55 g/m*3 4.9 C 0 km/h
2606 27-12-2019 01:05:00 4.9 C 6.55 g/m*3 4.9 C 0 km/h
2607 27-12-2019 01:10:00 4.9 C 6.55 g/m*3 4.9 C 0 km/h
2608 27-12-2019 01:15:00 4.9 C 6.55 g/m*3 4.9 C 0 km/h
2609 27-12-2019 01:20:00 4.9 C 6.55 g/m*3 4.9 C 0 km/h
2610 27-12-2019 01:25:00 4.9 C 6.55 g/m*3 4.9 C 0 km/h
2611 27-12-2019 01:30:00 4.9 C 6.55 g/m*3 4.9 C 0 km/h
2612 27-12-2019 01:35:00 4.9 C 6.55 g/m*3 4.9 C 0 km/h
2613 27-12-2019 01:40:00 4.9 C 6.55 g/m*3 4.9 C 0 km/h
2614 27-12-2019 01:45:00 4.9 C 6.55 g/m*3 4.9 C 0 km/h
2615 27-12-2019 01:50:00 5 C 6.59 g/m*3 5 C 0 km/h
2616 27-12-2019 01:55:00 5 C 6.59 g/m*3 5 C 0 km/h
2617 27-12-2019 02:00:00 5 C 6.59 g/m*3 5 C 0 km/h
2618 27-12-2019 02:05:00 5 C 6.59 g/m*3 5 C 0 km/h
2619 27-12-2019 02:10:00 5 C 6.59 g/m*3 5 C 0 km/h
2620 27-12-2019 02:15:00 5 C 6.59 g/m*3 5 C 0 km/h
2621 27-12-2019 02:20:00 5 C 6.59 g/m*3 5 C 0 km/h
2622 27-12-2019 02:25:00 5 C 6.59 g/m*3 5 C 0 km/h
2623 27-12-2019 02:30:00 5 C 6.59 g/m*3 5 C 0 km/h
2624 27-12-2019 02:35:00 5 C 6.59 g/m*3 5 C 0 km/h
2625 27-12-2019 02:40:00 4.9 C 6.55 g/m*3 4.9 C 0 km/h
Sensor: Nr:Datum:Temp:Abs-Feuchte:Windchill:Wind:
Aussen-T/F 2626 27-12-2019 02:45:00 4.9 C 6.55 g/m*3 4.9 C 0 km/h
2627 27-12-2019 02:50:00 5 C 6.59 g/m*3 5 C 0 km/h
2628 27-12-2019 02:55:00 5 C 6.59 g/m*3 5 C 0 km/h
2629 27-12-2019 03:00:00 5 C 6.59 g/m*3 5 C 0 km/h
2630 27-12-2019 03:05:00 5 C 6.59 g/m*3 5 C 0 km/h
2631 27-12-2019 03:10:00 5.1 C 6.63 g/m*3 5.1 C 0 km/h
2632 27-12-2019 03:15:00 5.1 C 6.63 g/m*3 5.1 C 0 km/h
2633 27-12-2019 03:20:00 5.1 C 6.63 g/m*3 5.1 C 0 km/h
2634 27-12-2019 03:25:00 5.1 C 6.63 g/m*3 5.1 C 0 km/h
2635 27-12-2019 03:30:00 5.1 C 6.63 g/m*3 5.1 C 0 km/h
2636 27-12-2019 03:35:00 5.1 C 6.63 g/m*3 5.1 C 0 km/h
2637 27-12-2019 03:40:00 5.1 C 6.63 g/m*3 5.1 C 0 km/h
2638 27-12-2019 03:45:00 5.1 C 6.63 g/m*3 5.1 C 0 km/h
2639 27-12-2019 03:50:00 5.1 C 6.63 g/m*3 5.1 C 0 km/h
2640 27-12-2019 03:55:00 5.1 C 6.63 g/m*3 5.1 C 0 km/h
2641 27-12-2019 04:00:00 5.1 C 6.63 g/m*3 5.1 C 0 km/h
2642 27-12-2019 04:05:00 5.1 C 6.63 g/m*3 5.1 C 0 km/h
2643 27-12-2019 04:10:00 5.1 C 6.63 g/m*3 5.1 C 0 km/h
2644 27-12-2019 04:15:00 5.1 C 6.63 g/m*3 5.1 C 0 km/h
2645 27-12-2019 04:20:00 5.1 C 6.63 g/m*3 5.1 C 0 km/h
2646 27-12-2019 04:25:00 5.2 C 6.68 g/m*3 5.2 C 0 km/h
2647 27-12-2019 04:30:00 5.2 C 6.68 g/m*3 5.2 C 0 km/h
2648 27-12-2019 04:35:00 5.2 C 6.68 g/m*3 5.2 C 0 km/h
2649 27-12-2019 04:40:00 5.2 C 6.68 g/m*3 5.2 C 0 km/h
2650 27-12-2019 04:45:00 5.2 C 6.68 g/m*3 5.2 C 0 km/h
Sensor: Nr:Datum:Temp:Abs-Feuchte:Windchill:Wind:
Aussen-T/F 2651 27-12-2019 04:50:00 5.2 C 6.68 g/m*3 5.2 C 0 km/h
2652 27-12-2019 04:55:00 5.2 C 6.68 g/m*3 5.2 C 0 km/h
2653 27-12-2019 05:00:00 5.2 C 6.68 g/m*3 5.2 C 0 km/h
2654 27-12-2019 05:05:00 5.2 C 6.68 g/m*3 5.2 C 0 km/h
2655 27-12-2019 05:10:00 5.2 C 6.68 g/m*3 5.2 C 0 km/h
2656 27-12-2019 05:15:00 5.2 C 6.68 g/m*3 5.2 C 0 km/h
2657 27-12-2019 05:20:00 5.2 C 6.68 g/m*3 5.2 C 0 km/h
2658 27-12-2019 05:25:00 5.2 C 6.68 g/m*3 5.2 C 0 km/h
2659 27-12-2019 05:30:00 5.2 C 6.68 g/m*3 5.2 C 0 km/h
2660 27-12-2019 05:35:00 5.2 C 6.68 g/m*3 5.2 C 0 km/h
2661 27-12-2019 05:40:00 5.2 C 6.68 g/m*3 5.2 C 0 km/h
2662 27-12-2019 05:45:00 5.2 C 6.68 g/m*3 5.2 C 0 km/h
2663 27-12-2019 05:50:00 5.2 C 6.68 g/m*3 5.2 C 0 km/h
2664 27-12-2019 05:55:00 5.2 C 6.68 g/m*3 5.2 C 0 km/h
2665 27-12-2019 06:00:00 5.2 C 6.68 g/m*3 5.2 C 0 km/h
2666 27-12-2019 06:05:00 5.3 C 6.72 g/m*3 5.3 C 0 km/h
2667 27-12-2019 06:10:00 5.3 C 6.72 g/m*3 5.3 C 0 km/h
2668 27-12-2019 06:15:00 5.3 C 6.72 g/m*3 5.3 C 0 km/h
2669 27-12-2019 06:20:00 5.3 C 6.72 g/m*3 5.3 C 0 km/h
2670 27-12-2019 06:25:00 5.3 C 6.72 g/m*3 5.3 C 0 km/h
2671 27-12-2019 06:30:00 5.3 C 6.72 g/m*3 5.3 C 0 km/h
2672 27-12-2019 06:35:00 5.3 C 6.72 g/m*3 5.3 C 0 km/h
2673 27-12-2019 06:40:00 5.3 C 6.72 g/m*3 5.3 C 0 km/h
2674 27-12-2019 06:45:00 5.3 C 6.72 g/m*3 5.3 C 0 km/h
2675 27-12-2019 06:50:00 5.3 C 6.72 g/m*3 5.3 C 0 km/h
Sensor: Nr:Datum:Temp:Abs-Feuchte:Windchill:Wind:
Aussen-T/F 2676 27-12-2019 06:55:00 5.3 C 6.72 g/m*3 5.3 C 0 km/h
2677 27-12-2019 07:00:00 5.3 C 6.72 g/m*3 5.3 C 0 km/h
2678 27-12-2019 07:05:00 5.3 C 6.72 g/m*3 5.3 C 0 km/h
2679 27-12-2019 07:10:00 5.3 C 6.72 g/m*3 5.3 C 0 km/h
2680 27-12-2019 07:15:00 5.3 C 6.72 g/m*3 5.3 C 0 km/h
2681 27-12-2019 07:20:00 5.3 C 6.72 g/m*3 5.3 C 0 km/h
2682 27-12-2019 07:25:00 5.3 C 6.72 g/m*3 5.3 C 0 km/h
2683 27-12-2019 07:30:00 5.3 C 6.72 g/m*3 5.3 C 0 km/h
2684 27-12-2019 07:35:00 5.3 C 6.72 g/m*3 5.3 C 0 km/h
2685 27-12-2019 07:40:00 5.3 C 6.72 g/m*3 5.3 C 0 km/h
2686 27-12-2019 07:45:00 5.3 C 6.72 g/m*3 5.3 C 0 km/h
2687 27-12-2019 07:50:00 5.3 C 6.72 g/m*3 5.3 C 0 km/h
2688 27-12-2019 07:55:00 5.3 C 6.72 g/m*3 5.3 C 0 km/h
2689 27-12-2019 08:00:00 5.2 C 6.68 g/m*3 5.2 C 0 km/h
2690 27-12-2019 08:05:00 5.2 C 6.68 g/m*3 5.2 C 3.2 km/h
2691 27-12-2019 08:10:00 5.2 C 6.68 g/m*3 5.2 C 0 km/h
2692 27-12-2019 08:15:00 5.2 C 6.68 g/m*3 5.2 C 0 km/h
2693 27-12-2019 08:20:00 5.1 C 6.63 g/m*3 5.1 C 0 km/h
2694 27-12-2019 08:25:00 5.1 C 6.63 g/m*3 5.1 C 0 km/h
2695 27-12-2019 08:30:00 5.1 C 6.63 g/m*3 5.1 C 0 km/h
2696 27-12-2019 08:35:00 5.1 C 6.63 g/m*3 5.1 C 0 km/h
2697 27-12-2019 08:40:00 5.1 C 6.63 g/m*3 5.1 C 0 km/h
2698 27-12-2019 08:45:00 5.1 C 6.63 g/m*3 5.1 C 0 km/h
2699 27-12-2019 08:50:00 5.1 C 6.63 g/m*3 5.1 C 0 km/h
2700 27-12-2019 08:55:00 5.1 C 6.63 g/m*3 5.1 C 0 km/h
Sensor: Nr:Datum:Temp:Abs-Feuchte:Windchill:Wind:
Aussen-T/F 2701 27-12-2019 09:00:00 5.2 C 6.68 g/m*3 5.2 C 3.2 km/h
2702 27-12-2019 09:05:00 5.2 C 6.68 g/m*3 5.2 C 0 km/h
2703 27-12-2019 09:10:00 5.2 C 6.68 g/m*3 5.2 C 1.6 km/h
2704 27-12-2019 09:15:00 5.3 C 6.72 g/m*3 5.3 C 0 km/h
2705 27-12-2019 09:20:00 5.2 C 6.68 g/m*3 5.2 C 1.6 km/h
2706 27-12-2019 09:25:00 5.2 C 6.68 g/m*3 5.2 C 0 km/h
2707 27-12-2019 09:30:00 5.2 C 6.68 g/m*3 5.2 C 0 km/h
2708 27-12-2019 09:35:00 5.3 C 6.72 g/m*3 5.3 C 1.6 km/h
2709 27-12-2019 09:40:00 5.3 C 6.72 g/m*3 5.3 C 0 km/h
2710 27-12-2019 09:45:00 5.3 C 6.72 g/m*3 5.3 C 0 km/h
2711 27-12-2019 09:50:00 5.3 C 6.72 g/m*3 5.3 C 4.8 km/h
2712 27-12-2019 09:55:00 5.4 C 6.77 g/m*3 5.4 C 1.6 km/h
2713 27-12-2019 10:00:00 5.4 C 6.77 g/m*3 5.4 C 0 km/h
2714 27-12-2019 10:05:00 5.5 C 6.81 g/m*3 5.5 C 0 km/h
2715 27-12-2019 10:10:00 5.5 C 6.81 g/m*3 5.5 C 0 km/h
2716 27-12-2019 10:15:00 5.6 C 6.86 g/m*3 5.6 C 3.2 km/h
2717 27-12-2019 10:20:00 5.6 C 6.86 g/m*3 5.6 C 0 km/h
2718 27-12-2019 10:25:00 5.6 C 6.86 g/m*3 5.6 C 0 km/h
2719 27-12-2019 10:30:00 5.6 C 6.86 g/m*3 5.6 C 0 km/h
2720 27-12-2019 10:35:00 5.6 C 6.86 g/m*3 5.6 C 0 km/h
2721 27-12-2019 10:40:00 5.6 C 6.86 g/m*3 5.6 C 0 km/h
2722 27-12-2019 10:45:00 5.6 C 6.86 g/m*3 5.6 C 1.6 km/h
2723 27-12-2019 10:50:00 5.6 C 6.86 g/m*3 5.6 C 0 km/h
2724 27-12-2019 10:55:00 5.7 C 6.9 g/m*3 5.7 C 0 km/h
2725 27-12-2019 11:00:00 5.7 C 6.9 g/m*3 5.7 C 0 km/h
Sensor: Nr:Datum:Temp:Abs-Feuchte:Windchill:Wind:
Aussen-T/F 2726 27-12-2019 11:05:00 5.7 C 6.9 g/m*3 5.7 C 3.2 km/h
2727 27-12-2019 11:10:00 5.6 C 6.86 g/m*3 5.6 C 3.2 km/h
2728 27-12-2019 11:15:00 5.6 C 6.86 g/m*3 5.6 C 1.6 km/h
2729 27-12-2019 11:20:00 5.6 C 6.86 g/m*3 5.6 C 0 km/h
2730 27-12-2019 11:25:00 5.6 C 6.86 g/m*3 5.6 C 0 km/h
2731 27-12-2019 11:30:00 5.7 C 6.9 g/m*3 5.7 C 0 km/h
2732 27-12-2019 11:35:00 5.7 C 6.9 g/m*3 5.7 C 0 km/h
2733 27-12-2019 11:40:00 5.8 C 6.95 g/m*3 5.8 C 0 km/h
2734 27-12-2019 11:45:00 5.8 C 6.95 g/m*3 5.8 C 0 km/h
2735 27-12-2019 11:50:00 5.8 C 6.95 g/m*3 5.8 C 4.8 km/h
2736 27-12-2019 11:55:00 5.8 C 6.95 g/m*3 5.8 C 3.2 km/h
2737 27-12-2019 12:00:00 5.8 C 6.95 g/m*3 5.8 C 4.8 km/h
2738 27-12-2019 12:05:00 5.9 C 6.92 g/m*3 5.9 C 4.8 km/h
2739 27-12-2019 12:10:00 5.9 C 6.92 g/m*3 5.9 C 4.8 km/h
2740 27-12-2019 12:15:00 6 C 6.97 g/m*3 6 C 4.8 km/h
2741 27-12-2019 12:20:00 6.1 C 6.94 g/m*3 6.1 C 4.8 km/h
2742 27-12-2019 12:25:00 6.1 C 6.94 g/m*3 4.86 C 6.4 km/h
2743 27-12-2019 12:30:00 6.1 C 6.94 g/m*3 6.1 C 1.6 km/h
2744 27-12-2019 12:35:00 6.2 C 6.99 g/m*3 6.2 C 1.6 km/h
2745 27-12-2019 12:40:00 6.3 C 7.03 g/m*3 6.3 C 0 km/h
2746 27-12-2019 12:45:00 6.3 C 6.96 g/m*3 6.3 C 3.2 km/h
2747 27-12-2019 12:50:00 6.3 C 6.96 g/m*3 6.3 C 0 km/h
2748 27-12-2019 12:55:00 6.3 C 6.96 g/m*3 6.3 C 3.2 km/h
2749 27-12-2019 13:00:00 6.3 C 6.96 g/m*3 6.3 C 3.2 km/h
2750 27-12-2019 13:05:00 6.2 C 6.84 g/m*3 6.2 C 4.8 km/h
Sensor: Nr:Datum:Temp:Abs-Feuchte:Windchill:Wind:
Aussen-T/F 2751 27-12-2019 13:10:00 6.2 C 6.84 g/m*3 6.2 C 3.2 km/h
2752 27-12-2019 13:15:00 6.2 C 6.84 g/m*3 6.2 C 1.6 km/h
2753 27-12-2019 13:20:00 6.2 C 6.84 g/m*3 6.2 C 1.6 km/h
2754 27-12-2019 13:25:00 6.2 C 6.84 g/m*3 6.2 C 4.8 km/h
2755 27-12-2019 13:30:00 6.1 C 6.79 g/m*3 4.86 C 6.4 km/h
2756 27-12-2019 13:35:00 6.1 C 6.79 g/m*3 4.86 C 6.4 km/h
2757 27-12-2019 13:40:00 6.2 C 6.84 g/m*3 6.2 C 0 km/h
2758 27-12-2019 13:45:00 6.1 C 6.72 g/m*3 6.1 C 1.6 km/h
2759 27-12-2019 13:50:00 6.2 C 6.84 g/m*3 6.2 C 0 km/h
2760 27-12-2019 13:55:00 6.2 C 6.77 g/m*3 6.2 C 0 km/h
2761 27-12-2019 14:00:00 6.2 C 6.77 g/m*3 6.2 C 0 km/h
2762 27-12-2019 14:05:00 6.2 C 6.77 g/m*3 6.2 C 4.8 km/h
2763 27-12-2019 14:10:00 6.3 C 6.81 g/m*3 6.3 C 4.8 km/h
2764 27-12-2019 14:15:00 6.3 C 6.74 g/m*3 6.3 C 1.6 km/h
2765 27-12-2019 14:20:00 6.3 C 6.74 g/m*3 6.3 C 3.2 km/h
2766 27-12-2019 14:25:00 6.3 C 6.74 g/m*3 6.3 C 3.2 km/h
2767 27-12-2019 14:30:00 6.3 C 6.74 g/m*3 6.3 C 0 km/h
2768 27-12-2019 14:35:00 6.4 C 6.78 g/m*3 6.4 C 0 km/h
2769 27-12-2019 14:40:00 6.3 C 6.66 g/m*3 6.3 C 3.2 km/h
2770 27-12-2019 14:45:00 6.3 C 6.51 g/m*3 5.1 C 6.4 km/h
2771 27-12-2019 14:50:00 6.2 C 6.47 g/m*3 4.98 C 6.4 km/h
2772 27-12-2019 14:55:00 6.2 C 6.47 g/m*3 6.2 C 1.6 km/h
2773 27-12-2019 15:00:00 6.2 C 6.4 g/m*3 4.52 C 8.1 km/h
2774 27-12-2019 15:05:00 6.2 C 6.47 g/m*3 6.2 C 1.6 km/h
2775 27-12-2019 15:10:00 6.2 C 6.47 g/m*3 6.2 C 0 km/h
Sensor: Nr:Datum:Temp:Abs-Feuchte:Windchill:Wind:
Aussen-T/F 2776 27-12-2019 15:15:00 6.2 C 6.47 g/m*3 6.2 C 0 km/h
2777 27-12-2019 15:20:00 6.3 C 6.59 g/m*3 6.3 C 0 km/h
2778 27-12-2019 15:25:00 6.3 C 6.59 g/m*3 6.3 C 0 km/h
2779 27-12-2019 15:30:00 6.2 C 6.55 g/m*3 6.2 C 1.6 km/h
2780 27-12-2019 15:35:00 6.2 C 6.55 g/m*3 6.2 C 0 km/h
2781 27-12-2019 15:40:00 6.2 C 6.55 g/m*3 6.2 C 0 km/h
2782 27-12-2019 15:45:00 6.2 C 6.55 g/m*3 6.2 C 0 km/h
2783 27-12-2019 15:50:00 6.2 C 6.55 g/m*3 6.2 C 0 km/h
2784 27-12-2019 15:55:00 6.2 C 6.62 g/m*3 6.2 C 0 km/h
2785 27-12-2019 16:00:00 6.1 C 6.58 g/m*3 6.1 C 0 km/h
2786 27-12-2019 16:05:00 6.1 C 6.58 g/m*3 6.1 C 0 km/h
2787 27-12-2019 16:10:00 6.1 C 6.58 g/m*3 6.1 C 0 km/h
2788 27-12-2019 16:15:00 6 C 6.6 g/m*3 6 C 0 km/h
2789 27-12-2019 16:20:00 5.9 C 6.56 g/m*3 5.9 C 0 km/h
2790 27-12-2019 16:25:00 5.8 C 6.52 g/m*3 5.8 C 0 km/h
2791 27-12-2019 16:30:00 5.8 C 6.52 g/m*3 5.8 C 0 km/h
2792 27-12-2019 16:35:00 5.7 C 6.48 g/m*3 5.7 C 0 km/h
2793 27-12-2019 16:40:00 5.6 C 6.43 g/m*3 5.6 C 0 km/h
2794 27-12-2019 16:45:00 5.6 C 6.5 g/m*3 5.6 C 0 km/h
2795 27-12-2019 16:50:00 5.5 C 6.46 g/m*3 5.5 C 0 km/h
2796 27-12-2019 16:55:00 5.4 C 6.42 g/m*3 5.4 C 0 km/h
2797 27-12-2019 17:00:00 5.4 C 6.42 g/m*3 5.4 C 0 km/h
2798 27-12-2019 17:05:00 5.4 C 6.42 g/m*3 5.4 C 0 km/h
2799 27-12-2019 17:10:00 5.3 C 6.38 g/m*3 5.3 C 0 km/h
2800 27-12-2019 17:15:00 5.3 C 6.45 g/m*3 5.3 C 0 km/h
Sensor: Nr:Datum:Temp:Abs-Feuchte:Windchill:Wind:
Aussen-T/F 2801 27-12-2019 17:20:00 5.3 C 6.45 g/m*3 5.3 C 0 km/h
2802 27-12-2019 17:25:00 5.2 C 6.4 g/m*3 5.2 C 0 km/h
2803 27-12-2019 17:30:00 5.2 C 6.4 g/m*3 5.2 C 0 km/h
2804 27-12-2019 17:35:00 5.2 C 6.4 g/m*3 5.2 C 0 km/h
2805 27-12-2019 17:40:00 5.2 C 6.4 g/m*3 5.2 C 0 km/h
2806 27-12-2019 17:45:00 5.2 C 6.4 g/m*3 5.2 C 0 km/h
2807 27-12-2019 17:50:00 5.2 C 6.4 g/m*3 5.2 C 0 km/h
2808 27-12-2019 17:55:00 5.2 C 6.4 g/m*3 5.2 C 0 km/h
2809 27-12-2019 18:00:00 5.1 C 6.36 g/m*3 5.1 C 3.2 km/h
2810 27-12-2019 18:05:00 5.1 C 6.36 g/m*3 5.1 C 1.6 km/h
2811 27-12-2019 18:10:00 5.1 C 6.36 g/m*3 5.1 C 0 km/h
2812 27-12-2019 18:15:00 5.1 C 6.36 g/m*3 5.1 C 1.6 km/h
2813 27-12-2019 18:20:00 5 C 6.32 g/m*3 5 C 3.2 km/h
2814 27-12-2019 18:25:00 5 C 6.32 g/m*3 5 C 1.6 km/h
2815 27-12-2019 18:30:00 5 C 6.32 g/m*3 5 C 0 km/h
2816 27-12-2019 18:35:00 5 C 6.32 g/m*3 5 C 0 km/h
2817 27-12-2019 18:40:00 5 C 6.32 g/m*3 5 C 0 km/h
2818 27-12-2019 18:45:00 5 C 6.32 g/m*3 5 C 0 km/h
2819 27-12-2019 18:50:00 4.9 C 6.28 g/m*3 4.9 C 0 km/h
2820 27-12-2019 18:55:00 4.9 C 6.28 g/m*3 4.9 C 0 km/h
2821 27-12-2019 19:00:00 4.9 C 6.28 g/m*3 4.9 C 0 km/h
2822 27-12-2019 19:05:00 4.9 C 6.28 g/m*3 4.9 C 1.6 km/h
2823 27-12-2019 19:10:00 4.9 C 6.28 g/m*3 4.9 C 0 km/h
2824 27-12-2019 19:15:00 4.8 C 6.24 g/m*3 4.8 C 0 km/h
2825 27-12-2019 19:20:00 4.8 C 6.24 g/m*3 4.8 C 3.2 km/h
Sensor: Nr:Datum:Temp:Abs-Feuchte:Windchill:Wind:
Aussen-T/F 2826 27-12-2019 19:25:00 4.7 C 6.19 g/m*3 4.7 C 3.2 km/h
2827 27-12-2019 19:30:00 4.7 C 6.19 g/m*3 4.7 C 1.6 km/h
2828 27-12-2019 19:35:00 4.7 C 6.19 g/m*3 4.7 C 0 km/h
2829 27-12-2019 19:40:00 4.7 C 6.19 g/m*3 4.7 C 0 km/h
2830 27-12-2019 19:45:00 4.7 C 6.19 g/m*3 4.7 C 0 km/h
2831 27-12-2019 19:50:00 4.7 C 6.19 g/m*3 4.7 C 0 km/h
2832 27-12-2019 19:55:00 4.7 C 6.19 g/m*3 4.7 C 0 km/h
2833 27-12-2019 20:00:00 4.6 C 6.15 g/m*3 4.6 C 0 km/h
2834 27-12-2019 20:05:00 4.6 C 6.15 g/m*3 4.6 C 0 km/h
2835 27-12-2019 20:10:00 4.5 C 6.11 g/m*3 4.5 C 0 km/h
2836 27-12-2019 20:15:00 4.5 C 6.11 g/m*3 4.5 C 0 km/h
2837 27-12-2019 20:20:00 4.5 C 6.11 g/m*3 4.5 C 0 km/h
2838 27-12-2019 20:25:00 4.5 C 6.11 g/m*3 4.5 C 0 km/h
2839 27-12-2019 20:30:00 4.5 C 6.11 g/m*3 4.5 C 0 km/h
2840 27-12-2019 20:35:00 4.5 C 6.11 g/m*3 4.5 C 0 km/h
2841 27-12-2019 20:40:00 4.6 C 6.15 g/m*3 4.6 C 0 km/h
2842 27-12-2019 20:45:00 4.6 C 6.15 g/m*3 4.6 C 0 km/h
2843 27-12-2019 20:50:00 4.6 C 6.15 g/m*3 4.6 C 0 km/h
2844 27-12-2019 20:55:00 4.6 C 6.15 g/m*3 4.6 C 0 km/h
2845 27-12-2019 21:00:00 4.6 C 6.22 g/m*3 4.6 C 0 km/h
2846 27-12-2019 21:05:00 4.6 C 6.15 g/m*3 4.6 C 0 km/h
2847 27-12-2019 21:10:00 4.6 C 6.15 g/m*3 4.6 C 0 km/h
2848 27-12-2019 21:15:00 4.6 C 6.15 g/m*3 4.6 C 0 km/h
2849 27-12-2019 21:20:00 4.6 C 6.15 g/m*3 4.6 C 0 km/h
2850 27-12-2019 21:25:00 4.6 C 6.15 g/m*3 4.6 C 0 km/h
Sensor: Nr:Datum:Temp:Abs-Feuchte:Windchill:Wind:
Aussen-T/F 2851 27-12-2019 21:30:00 4.6 C 6.15 g/m*3 4.6 C 0 km/h
2852 27-12-2019 21:35:00 4.5 C 6.11 g/m*3 4.5 C 0 km/h
2853 27-12-2019 21:40:00 4.4 C 6.07 g/m*3 4.4 C 0 km/h
2854 27-12-2019 21:45:00 4.4 C 6.07 g/m*3 4.4 C 0 km/h
2855 27-12-2019 21:50:00 4.4 C 6.07 g/m*3 4.4 C 0 km/h
2856 27-12-2019 21:55:00 4.4 C 6.07 g/m*3 4.4 C 0 km/h
2857 27-12-2019 22:00:00 4.3 C 6.03 g/m*3 4.3 C 0 km/h
2858 27-12-2019 22:05:00 4.3 C 5.97 g/m*3 4.3 C 0 km/h
2859 27-12-2019 22:10:00 4.2 C 5.93 g/m*3 4.2 C 0 km/h
2860 27-12-2019 22:15:00 4.1 C 5.89 g/m*3 4.1 C 0 km/h
2861 27-12-2019 22:20:00 4 C 5.85 g/m*3 4 C 0 km/h
2862 27-12-2019 22:25:00 3.9 C 5.81 g/m*3 3.9 C 0 km/h
2863 27-12-2019 22:30:00 3.8 C 5.77 g/m*3 3.8 C 0 km/h
2864 27-12-2019 22:35:00 3.6 C 5.63 g/m*3 3.6 C 0 km/h
2865 27-12-2019 22:40:00 3.3 C 5.52 g/m*3 3.3 C 0 km/h
2866 27-12-2019 22:45:00 3.2 C 5.48 g/m*3 3.2 C 0 km/h
2867 27-12-2019 22:50:00 3 C 5.41 g/m*3 3 C 0 km/h
2868 27-12-2019 22:55:00 2.8 C 5.4 g/m*3 2.8 C 0 km/h
2869 27-12-2019 23:00:00 2.7 C 5.36 g/m*3 2.7 C 0 km/h
2870 27-12-2019 23:05:00 2.6 C 5.32 g/m*3 2.6 C 0 km/h
2871 27-12-2019 23:10:00 2.4 C 5.25 g/m*3 2.4 C 0 km/h
2872 27-12-2019 23:15:00 2.3 C 5.22 g/m*3 2.3 C 0 km/h
2873 27-12-2019 23:20:00 2.2 C 5.18 g/m*3 2.2 C 0 km/h
2874 27-12-2019 23:25:00 2 C 5.17 g/m*3 2 C 0 km/h
2875 27-12-2019 23:30:00 1.9 C 5.13 g/m*3 1.9 C 0 km/h
Sensor: Nr:Datum:Temp:Abs-Feuchte:Windchill:Wind:
Aussen-T/F 2876 27-12-2019 23:35:00 1.8 C 5.1 g/m*3 1.8 C 0 km/h
2877 27-12-2019 23:40:00 1.7 C 5.06 g/m*3 1.7 C 0 km/h
2878 27-12-2019 23:45:00 1.6 C 5.03 g/m*3 1.6 C 0 km/h
2879 27-12-2019 23:50:00 1.5 C 4.99 g/m*3 1.5 C 0 km/h
2880 27-12-2019 23:55:00 1.4 C 4.96 g/m*3 1.4 C 1.6 km/h
2881 28-12-2019 00:00:00 1.4 C 5.01 g/m*3 1.4 C 0 km/h
2882 28-12-2019 00:05:00 1.3 C 4.98 g/m*3 1.3 C 0 km/h
2883 28-12-2019 00:10:00 1.3 C 4.98 g/m*3 1.3 C 0 km/h
2884 28-12-2019 00:15:00 1.2 C 4.95 g/m*3 1.2 C 0 km/h
2885 28-12-2019 00:20:00 1.2 C 4.95 g/m*3 1.2 C 1.6 km/h
2886 28-12-2019 00:25:00 1.1 C 4.91 g/m*3 1.1 C 3.2 km/h
2887 28-12-2019 00:30:00 1.1 C 4.91 g/m*3 1.1 C 3.2 km/h
2888 28-12-2019 00:35:00 1 C 4.88 g/m*3 1 C 1.6 km/h
2889 28-12-2019 00:40:00 0.9 C 4.85 g/m*3 0.9 C 3.2 km/h
2890 28-12-2019 00:45:00 0.8 C 4.81 g/m*3 0.8 C 3.2 km/h
2891 28-12-2019 00:50:00 0.8 C 4.81 g/m*3 0.8 C 4.8 km/h
2892 28-12-2019 00:55:00 0.8 C 4.81 g/m*3 0.8 C 3.2 km/h
2893 28-12-2019 01:00:00 0.8 C 4.86 g/m*3 0.8 C 1.6 km/h
2894 28-12-2019 01:05:00 0.8 C 4.81 g/m*3 0.8 C 0 km/h
2895 28-12-2019 01:10:00 0.8 C 4.81 g/m*3 0.8 C 1.6 km/h
2896 28-12-2019 01:15:00 0.7 C 4.78 g/m*3 0.7 C 1.6 km/h
2897 28-12-2019 01:20:00 0.6 C 4.8 g/m*3 0.6 C 0 km/h
2898 28-12-2019 01:25:00 0.6 C 4.8 g/m*3 0.6 C 0 km/h
2899 28-12-2019 01:30:00 0.5 C 4.71 g/m*3 0.5 C 0 km/h
2900 28-12-2019 01:35:00 0.4 C 4.73 g/m*3 0.4 C 0 km/h
Sensor: Nr:Datum:Temp:Abs-Feuchte:Windchill:Wind:
Aussen-T/F 2901 28-12-2019 01:40:00 0.4 C 4.73 g/m*3 0.4 C 0 km/h
2902 28-12-2019 01:45:00 0.3 C 4.7 g/m*3 0.3 C 0 km/h
2903 28-12-2019 01:50:00 0.3 C 4.7 g/m*3 0.3 C 0 km/h
2904 28-12-2019 01:55:00 0.2 C 4.67 g/m*3 0.2 C 0 km/h
2905 28-12-2019 02:00:00 0.2 C 4.67 g/m*3 0.2 C 0 km/h
2906 28-12-2019 02:05:00 0.1 C 4.63 g/m*3 0.1 C 0 km/h
2907 28-12-2019 02:10:00 0.1 C 4.63 g/m*3 0.1 C 0 km/h
2908 28-12-2019 02:15:00 0 C 4.6 g/m*3 0 C 0 km/h
2909 28-12-2019 02:20:00 -0.1 C 4.57 g/m*3 -0.1 C 0 km/h
2910 28-12-2019 02:25:00 -0.1 C 4.57 g/m*3 -0.1 C 0 km/h
2911 28-12-2019 02:30:00 -0.2 C 4.54 g/m*3 -0.2 C 0 km/h
2912 28-12-2019 02:35:00 -0.2 C 4.54 g/m*3 -0.2 C 0 km/h
2913 28-12-2019 02:40:00 -0.3 C 4.51 g/m*3 -0.3 C 0 km/h
2914 28-12-2019 02:45:00 -0.3 C 4.51 g/m*3 -0.3 C 0 km/h
2915 28-12-2019 02:50:00 -0.4 C 4.48 g/m*3 -0.4 C 0 km/h
2916 28-12-2019 02:55:00 -0.4 C 4.48 g/m*3 -0.4 C 0 km/h
2917 28-12-2019 03:00:00 -0.3 C 4.51 g/m*3 -0.3 C 0 km/h
2918 28-12-2019 03:05:00 -0.4 C 4.48 g/m*3 -0.4 C 0 km/h
2919 28-12-2019 03:10:00 -0.4 C 4.48 g/m*3 -0.4 C 0 km/h
2920 28-12-2019 03:15:00 -0.5 C 4.45 g/m*3 -0.5 C 0 km/h
2921 28-12-2019 03:20:00 -0.6 C 4.42 g/m*3 -0.6 C 0 km/h
2922 28-12-2019 03:25:00 -0.6 C 4.42 g/m*3 -0.6 C 0 km/h
2923 28-12-2019 03:30:00 -0.7 C 4.39 g/m*3 -0.7 C 0 km/h
2924 28-12-2019 03:35:00 -0.7 C 4.39 g/m*3 -0.7 C 0 km/h
2925 28-12-2019 03:40:00 -0.7 C 4.43 g/m*3 -0.7 C 0 km/h
Sensor: Nr:Datum:Temp:Abs-Feuchte:Windchill:Wind:
Aussen-T/F 2926 28-12-2019 03:45:00 -0.7 C 4.43 g/m*3 -0.7 C 0 km/h
2927 28-12-2019 03:50:00 -0.7 C 4.43 g/m*3 -0.7 C 0 km/h
2928 28-12-2019 03:55:00 -0.7 C 4.43 g/m*3 -0.7 C 0 km/h
2929 28-12-2019 04:00:00 -0.7 C 4.39 g/m*3 -0.7 C 0 km/h
2930 28-12-2019 04:05:00 -0.8 C 4.35 g/m*3 -0.8 C 0 km/h
2931 28-12-2019 04:10:00 -0.8 C 4.4 g/m*3 -0.8 C 0 km/h
2932 28-12-2019 04:15:00 -0.8 C 4.4 g/m*3 -0.8 C 0 km/h
2933 28-12-2019 04:20:00 -0.9 C 4.37 g/m*3 -0.9 C 0 km/h
2934 28-12-2019 04:25:00 -0.9 C 4.37 g/m*3 -0.9 C 0 km/h
2935 28-12-2019 04:30:00 -0.9 C 4.37 g/m*3 -0.9 C 0 km/h
2936 28-12-2019 04:35:00 -1 C 4.34 g/m*3 -1 C 0 km/h
2937 28-12-2019 04:40:00 -0.9 C 4.37 g/m*3 -0.9 C 0 km/h
2938 28-12-2019 04:45:00 -1 C 4.34 g/m*3 -1 C 0 km/h
2939 28-12-2019 04:50:00 -1 C 4.34 g/m*3 -1 C 0 km/h
2940 28-12-2019 04:55:00 -1.1 C 4.31 g/m*3 -1.1 C 0 km/h
2941 28-12-2019 05:00:00 -1.1 C 4.31 g/m*3 -1.1 C 0 km/h
2942 28-12-2019 05:05:00 -1.1 C 4.31 g/m*3 -1.1 C 0 km/h
2943 28-12-2019 05:10:00 -1.1 C 4.31 g/m*3 -1.1 C 0 km/h
2944 28-12-2019 05:15:00 -1.2 C 4.28 g/m*3 -1.2 C 0 km/h
2945 28-12-2019 05:20:00 -1.2 C 4.28 g/m*3 -1.2 C 0 km/h
2946 28-12-2019 05:25:00 -1.2 C 4.28 g/m*3 -1.2 C 0 km/h
2947 28-12-2019 05:30:00 -1.2 C 4.28 g/m*3 -1.2 C 0 km/h
2948 28-12-2019 05:35:00 -1.2 C 4.28 g/m*3 -1.2 C 0 km/h
2949 28-12-2019 05:40:00 -1.3 C 4.25 g/m*3 -1.3 C 0 km/h
2950 28-12-2019 05:45:00 -1.2 C 4.28 g/m*3 -1.2 C 0 km/h
Sensor: Nr:Datum:Temp:Abs-Feuchte:Windchill:Wind:
Aussen-T/F 2951 28-12-2019 05:50:00 -1.2 C 4.28 g/m*3 -1.2 C 0 km/h
2952 28-12-2019 05:55:00 -1.2 C 4.28 g/m*3 -1.2 C 0 km/h
2953 28-12-2019 06:00:00 -1.2 C 4.28 g/m*3 -1.2 C 1.6 km/h
2954 28-12-2019 06:05:00 -1.2 C 4.28 g/m*3 -1.2 C 0 km/h
2955 28-12-2019 06:10:00 -1.2 C 4.28 g/m*3 -1.2 C 0 km/h
2956 28-12-2019 06:15:00 -1.2 C 4.28 g/m*3 -1.2 C 0 km/h
2957 28-12-2019 06:20:00 -1.2 C 4.28 g/m*3 -1.2 C 0 km/h
2958 28-12-2019 06:25:00 -1.3 C 4.25 g/m*3 -1.3 C 0 km/h
2959 28-12-2019 06:30:00 -1.3 C 4.25 g/m*3 -1.3 C 0 km/h
2960 28-12-2019 06:35:00 -1.3 C 4.25 g/m*3 -1.3 C 0 km/h
2961 28-12-2019 06:40:00 -1.3 C 4.25 g/m*3 -1.3 C 0 km/h
2962 28-12-2019 06:45:00 -1.3 C 4.25 g/m*3 -1.3 C 0 km/h
2963 28-12-2019 06:50:00 -1.3 C 4.25 g/m*3 -1.3 C 0 km/h
2964 28-12-2019 06:55:00 -1.3 C 4.25 g/m*3 -1.3 C 0 km/h
2965 28-12-2019 07:00:00 -1.3 C 4.25 g/m*3 -1.3 C 0 km/h
2966 28-12-2019 07:05:00 -1.3 C 4.25 g/m*3 -1.3 C 0 km/h
2967 28-12-2019 07:10:00 -1.3 C 4.25 g/m*3 -1.3 C 0 km/h
2968 28-12-2019 07:15:00 -1.3 C 4.25 g/m*3 -1.3 C 0 km/h
2969 28-12-2019 07:20:00 -1.3 C 4.25 g/m*3 -1.3 C 0 km/h
2970 28-12-2019 07:25:00 -1.4 C 4.22 g/m*3 -1.4 C 0 km/h
2971 28-12-2019 07:30:00 -1.4 C 4.22 g/m*3 -1.4 C 0 km/h
2972 28-12-2019 07:35:00 -1.4 C 4.22 g/m*3 -1.4 C 0 km/h
2973 28-12-2019 07:40:00 -1.4 C 4.22 g/m*3 -1.4 C 0 km/h
2974 28-12-2019 07:45:00 -1.4 C 4.22 g/m*3 -1.4 C 0 km/h
2975 28-12-2019 07:50:00 -1.4 C 4.22 g/m*3 -1.4 C 0 km/h
Sensor: Nr:Datum:Temp:Abs-Feuchte:Windchill:Wind:
Aussen-T/F 2976 28-12-2019 07:55:00 -1.4 C 4.22 g/m*3 -1.4 C 0 km/h
2977 28-12-2019 08:00:00 -1.5 C 4.19 g/m*3 -1.5 C 0 km/h
2978 28-12-2019 08:05:00 -1.5 C 4.19 g/m*3 -1.5 C 0 km/h
2979 28-12-2019 08:10:00 -1.5 C 4.19 g/m*3 -1.5 C 0 km/h
2980 28-12-2019 08:15:00 -1.6 C 4.16 g/m*3 -1.6 C 0 km/h
2981 28-12-2019 08:20:00 -1.6 C 4.16 g/m*3 -1.6 C 0 km/h
2982 28-12-2019 08:25:00 -1.6 C 4.16 g/m*3 -1.6 C 0 km/h
2983 28-12-2019 08:30:00 -1.6 C 4.16 g/m*3 -1.6 C 0 km/h
2984 28-12-2019 08:35:00 -1.7 C 4.13 g/m*3 -1.7 C 0 km/h
2985 28-12-2019 08:40:00 -1.7 C 4.13 g/m*3 -1.7 C 0 km/h
2986 28-12-2019 08:45:00 -1.7 C 4.13 g/m*3 -1.7 C 0 km/h
2987 28-12-2019 08:50:00 -1.7 C 4.13 g/m*3 -1.7 C 0 km/h
2988 28-12-2019 08:55:00 -1.7 C 4.13 g/m*3 -1.7 C 0 km/h
2989 28-12-2019 09:00:00 -1.7 C 4.13 g/m*3 -1.7 C 0 km/h
2990 28-12-2019 09:05:00 -1.6 C 4.16 g/m*3 -1.6 C 0 km/h
2991 28-12-2019 09:10:00 -1.6 C 4.16 g/m*3 -1.6 C 0 km/h
2992 28-12-2019 09:15:00 -1.6 C 4.16 g/m*3 -1.6 C 0 km/h
2993 28-12-2019 09:20:00 -1.6 C 4.16 g/m*3 -1.6 C 0 km/h
2994 28-12-2019 09:25:00 -1.6 C 4.16 g/m*3 -1.6 C 0 km/h
2995 28-12-2019 09:30:00 -1.6 C 4.16 g/m*3 -1.6 C 0 km/h
2996 28-12-2019 09:35:00 -1.6 C 4.16 g/m*3 -1.6 C 0 km/h
2997 28-12-2019 09:40:00 -1.6 C 4.16 g/m*3 -1.6 C 0 km/h
2998 28-12-2019 09:45:00 -1.4 C 4.22 g/m*3 -1.4 C 1.6 km/h
2999 28-12-2019 09:50:00 -1.3 C 4.29 g/m*3 -1.3 C 0 km/h
3000 28-12-2019 09:55:00 -1.1 C 4.35 g/m*3 -1.1 C 0 km/h
Sensor: Nr:Datum:Temp:Abs-Feuchte:Windchill:Wind:
Aussen-T/F 3001 28-12-2019 10:00:00 -0.9 C 4.42 g/m*3 -0.9 C 0 km/h
3002 28-12-2019 10:05:00 -0.8 C 4.45 g/m*3 -0.8 C 0 km/h
3003 28-12-2019 10:10:00 -0.8 C 4.45 g/m*3 -0.8 C 0 km/h
3004 28-12-2019 10:15:00 -0.8 C 4.45 g/m*3 -0.8 C 0 km/h
3005 28-12-2019 10:20:00 -0.8 C 4.45 g/m*3 -0.8 C 0 km/h
3006 28-12-2019 10:25:00 -0.7 C 4.48 g/m*3 -0.7 C 0 km/h
3007 28-12-2019 10:30:00 -0.6 C 4.51 g/m*3 -0.6 C 3.2 km/h
3008 28-12-2019 10:35:00 -0.6 C 4.51 g/m*3 -0.6 C 0 km/h
3009 28-12-2019 10:40:00 -0.5 C 4.54 g/m*3 -0.5 C 0 km/h
3010 28-12-2019 10:45:00 -0.4 C 4.57 g/m*3 -0.4 C 3.2 km/h
3011 28-12-2019 10:50:00 -0.4 C 4.57 g/m*3 -0.4 C 3.2 km/h
3012 28-12-2019 10:55:00 -0.3 C 4.6 g/m*3 -0.3 C 1.6 km/h
3013 28-12-2019 11:00:00 -0.3 C 4.6 g/m*3 -0.3 C 0 km/h
3014 28-12-2019 11:05:00 -0.2 C 4.64 g/m*3 -0.2 C 0 km/h
3015 28-12-2019 11:10:00 -0.2 C 4.64 g/m*3 -0.2 C 1.6 km/h
3016 28-12-2019 11:15:00 -0.2 C 4.64 g/m*3 -0.2 C 0 km/h
3017 28-12-2019 11:20:00 -0.2 C 4.64 g/m*3 -0.2 C 3.2 km/h
3018 28-12-2019 11:25:00 -0.1 C 4.67 g/m*3 -0.1 C 1.6 km/h
3019 28-12-2019 11:30:00 0 C 4.7 g/m*3 0 C 0 km/h
3020 28-12-2019 11:35:00 0.1 C 4.73 g/m*3 0.1 C 0 km/h
3021 28-12-2019 11:40:00 0.1 C 4.73 g/m*3 0.1 C 0 km/h
3022 28-12-2019 11:45:00 0.1 C 4.73 g/m*3 0.1 C 0 km/h
3023 28-12-2019 11:50:00 0.1 C 4.73 g/m*3 0.1 C 0 km/h
3024 28-12-2019 11:55:00 0.1 C 4.73 g/m*3 0.1 C 0 km/h
3025 28-12-2019 12:00:00 0.2 C 4.77 g/m*3 0.2 C 0 km/h
Sensor: Nr:Datum:Temp:Abs-Feuchte:Windchill:Wind:
Aussen-T/F 3026 28-12-2019 12:05:00 0.2 C 4.77 g/m*3 0.2 C 0 km/h
3027 28-12-2019 12:10:00 0.3 C 4.8 g/m*3 0.3 C 0 km/h
3028 28-12-2019 12:15:00 0.4 C 4.83 g/m*3 0.4 C 0 km/h
3029 28-12-2019 12:20:00 0.5 C 4.86 g/m*3 0.5 C 0 km/h
3030 28-12-2019 12:25:00 0.6 C 4.9 g/m*3 0.6 C 0 km/h
3031 28-12-2019 12:30:00 0.6 C 4.9 g/m*3 0.6 C 0 km/h
3032 28-12-2019 12:35:00 0.6 C 4.9 g/m*3 0.6 C 0 km/h
3033 28-12-2019 12:40:00 0.7 C 4.93 g/m*3 0.7 C 0 km/h
3034 28-12-2019 12:45:00 0.7 C 4.93 g/m*3 0.7 C 0 km/h
3035 28-12-2019 12:50:00 0.8 C 4.97 g/m*3 0.8 C 0 km/h
3036 28-12-2019 12:55:00 0.8 C 4.97 g/m*3 0.8 C 0 km/h
3037 28-12-2019 13:00:00 0.9 C 5 g/m*3 0.9 C 0 km/h
3038 28-12-2019 13:05:00 0.9 C 5 g/m*3 0.9 C 0 km/h
3039 28-12-2019 13:10:00 1 C 5.03 g/m*3 1 C 0 km/h
3040 28-12-2019 13:15:00 1.1 C 5.07 g/m*3 1.1 C 0 km/h
3041 28-12-2019 13:20:00 1.2 C 5.1 g/m*3 1.2 C 0 km/h
3042 28-12-2019 13:25:00 1.2 C 5.1 g/m*3 1.2 C 0 km/h
3043 28-12-2019 13:30:00 1.3 C 5.14 g/m*3 1.3 C 0 km/h
3044 28-12-2019 13:35:00 1.3 C 5.14 g/m*3 1.3 C 0 km/h
3045 28-12-2019 13:40:00 1.3 C 5.14 g/m*3 1.3 C 0 km/h
3046 28-12-2019 13:45:00 1.3 C 5.14 g/m*3 1.3 C 0 km/h
3047 28-12-2019 13:50:00 1.3 C 5.14 g/m*3 1.3 C 1.6 km/h
3048 28-12-2019 13:55:00 1.3 C 5.14 g/m*3 1.3 C 0 km/h
3049 28-12-2019 14:00:00 1.3 C 5.14 g/m*3 1.3 C 0 km/h
3050 28-12-2019 14:05:00 1.3 C 5.14 g/m*3 1.3 C 0 km/h
Sensor: Nr:Datum:Temp:Abs-Feuchte:Windchill:Wind:
Aussen-T/F 3051 28-12-2019 14:10:00 1.3 C 5.14 g/m*3 1.3 C 0 km/h
3052 28-12-2019 14:15:00 1.3 C 5.14 g/m*3 1.3 C 0 km/h
3053 28-12-2019 14:20:00 1.4 C 5.17 g/m*3 1.4 C 0 km/h
3054 28-12-2019 14:25:00 1.4 C 5.17 g/m*3 1.4 C 0 km/h
3055 28-12-2019 14:30:00 1.4 C 5.17 g/m*3 1.4 C 0 km/h
3056 28-12-2019 14:35:00 1.4 C 5.17 g/m*3 1.4 C 0 km/h
3057 28-12-2019 14:40:00 1.3 C 5.14 g/m*3 1.3 C 0 km/h
3058 28-12-2019 14:45:00 1.3 C 5.14 g/m*3 1.3 C 0 km/h
3059 28-12-2019 14:50:00 1.3 C 5.14 g/m*3 1.3 C 0 km/h
3060 28-12-2019 14:55:00 1.2 C 5.1 g/m*3 1.2 C 3.2 km/h
3061 28-12-2019 15:00:00 1.2 C 5.1 g/m*3 1.2 C 1.6 km/h
3062 28-12-2019 15:05:00 1.2 C 5.05 g/m*3 1.2 C 1.6 km/h
3063 28-12-2019 15:10:00 1.2 C 5.05 g/m*3 1.2 C 0 km/h
3064 28-12-2019 15:15:00 1.1 C 5.02 g/m*3 1.1 C 0 km/h
3065 28-12-2019 15:20:00 1.1 C 5.02 g/m*3 1.1 C 0 km/h
3066 28-12-2019 15:25:00 1.1 C 5.02 g/m*3 1.1 C 0 km/h
3067 28-12-2019 15:30:00 1.1 C 5.02 g/m*3 1.1 C 0 km/h
3068 28-12-2019 15:35:00 1 C 4.98 g/m*3 1 C 0 km/h
3069 28-12-2019 15:40:00 1 C 4.98 g/m*3 1 C 0 km/h
3070 28-12-2019 15:45:00 1 C 4.98 g/m*3 1 C 0 km/h
3071 28-12-2019 15:50:00 1 C 4.98 g/m*3 1 C 0 km/h
3072 28-12-2019 15:55:00 1 C 4.98 g/m*3 1 C 0 km/h
3073 28-12-2019 16:00:00 1 C 4.98 g/m*3 1 C 0 km/h
3074 28-12-2019 16:05:00 0.9 C 4.95 g/m*3 0.9 C 0 km/h
3075 28-12-2019 16:10:00 0.9 C 4.95 g/m*3 0.9 C 0 km/h
Sensor: Nr:Datum:Temp:Abs-Feuchte:Windchill:Wind:
Aussen-T/F 3076 28-12-2019 16:15:00 0.8 C 4.91 g/m*3 0.8 C 0 km/h
3077 28-12-2019 16:20:00 0.8 C 4.91 g/m*3 0.8 C 0 km/h
3078 28-12-2019 16:25:00 0.8 C 4.91 g/m*3 0.8 C 0 km/h
3079 28-12-2019 16:30:00 0.7 C 4.88 g/m*3 0.7 C 0 km/h
3080 28-12-2019 16:35:00 0.6 C 4.85 g/m*3 0.6 C 0 km/h
3081 28-12-2019 16:40:00 0.6 C 4.85 g/m*3 0.6 C 0 km/h
3082 28-12-2019 16:45:00 0.5 C 4.81 g/m*3 0.5 C 0 km/h
3083 28-12-2019 16:50:00 0.4 C 4.78 g/m*3 0.4 C 0 km/h
3084 28-12-2019 16:55:00 0.4 C 4.78 g/m*3 0.4 C 0 km/h
3085 28-12-2019 17:00:00 0.3 C 4.75 g/m*3 0.3 C 0 km/h
3086 28-12-2019 17:05:00 0.3 C 4.75 g/m*3 0.3 C 0 km/h
3087 28-12-2019 17:10:00 0.3 C 4.75 g/m*3 0.3 C 0 km/h
3088 28-12-2019 17:15:00 0.3 C 4.75 g/m*3 0.3 C 0 km/h
3089 28-12-2019 17:20:00 0.3 C 4.75 g/m*3 0.3 C 0 km/h
3090 28-12-2019 17:25:00 0.2 C 4.72 g/m*3 0.2 C 0 km/h
3091 28-12-2019 17:30:00 0.2 C 4.72 g/m*3 0.2 C 0 km/h
3092 28-12-2019 17:35:00 0.2 C 4.72 g/m*3 0.2 C 0 km/h
3093 28-12-2019 17:40:00 0.1 C 4.68 g/m*3 0.1 C 0 km/h
3094 28-12-2019 17:45:00 0.1 C 4.68 g/m*3 0.1 C 0 km/h
3095 28-12-2019 17:50:00 0.1 C 4.68 g/m*3 0.1 C 0 km/h
3096 28-12-2019 17:55:00 -0.1 C 4.62 g/m*3 -0.1 C 0 km/h
3097 28-12-2019 18:00:00 -0.1 C 4.57 g/m*3 -0.1 C 0 km/h
3098 28-12-2019 18:05:00 -0.2 C 4.54 g/m*3 -0.2 C 0 km/h
3099 28-12-2019 18:10:00 -0.2 C 4.59 g/m*3 -0.2 C 0 km/h
3100 28-12-2019 18:15:00 -0.3 C 4.56 g/m*3 -0.3 C 0 km/h
Sensor: Nr:Datum:Temp:Abs-Feuchte:Windchill:Wind:
Aussen-T/F 3101 28-12-2019 18:20:00 -0.3 C 4.56 g/m*3 -0.3 C 0 km/h
3102 28-12-2019 18:25:00 -0.3 C 4.56 g/m*3 -0.3 C 0 km/h
3103 28-12-2019 18:30:00 -0.3 C 4.56 g/m*3 -0.3 C 0 km/h
3104 28-12-2019 18:35:00 -0.3 C 4.56 g/m*3 -0.3 C 0 km/h
3105 28-12-2019 18:40:00 -0.3 C 4.56 g/m*3 -0.3 C 0 km/h
3106 28-12-2019 18:45:00 -0.3 C 4.56 g/m*3 -0.3 C 0 km/h
3107 28-12-2019 18:50:00 -0.3 C 4.56 g/m*3 -0.3 C 0 km/h
3108 28-12-2019 18:55:00 -0.4 C 4.52 g/m*3 -0.4 C 0 km/h
3109 28-12-2019 19:00:00 -0.4 C 4.52 g/m*3 -0.4 C 0 km/h
3110 28-12-2019 19:05:00 -0.4 C 4.52 g/m*3 -0.4 C 0 km/h
3111 28-12-2019 19:10:00 -0.4 C 4.52 g/m*3 -0.4 C 0 km/h
3112 28-12-2019 19:15:00 -0.5 C 4.49 g/m*3 -0.5 C 0 km/h
3113 28-12-2019 19:20:00 -0.5 C 4.49 g/m*3 -0.5 C 0 km/h
3114 28-12-2019 19:25:00 -0.5 C 4.49 g/m*3 -0.5 C 0 km/h
3115 28-12-2019 19:30:00 -0.5 C 4.49 g/m*3 -0.5 C 0 km/h
3116 28-12-2019 19:35:00 -0.6 C 4.46 g/m*3 -0.6 C 0 km/h
3117 28-12-2019 19:40:00 -0.6 C 4.46 g/m*3 -0.6 C 0 km/h
3118 28-12-2019 19:45:00 -0.6 C 4.46 g/m*3 -0.6 C 0 km/h
3119 28-12-2019 19:50:00 -0.7 C 4.43 g/m*3 -0.7 C 0 km/h
3120 28-12-2019 19:55:00 -0.6 C 4.46 g/m*3 -0.6 C 0 km/h
3121 28-12-2019 20:00:00 -0.6 C 4.46 g/m*3 -0.6 C 0 km/h
3122 28-12-2019 20:05:00 -0.6 C 4.46 g/m*3 -0.6 C 0 km/h
3123 28-12-2019 20:10:00 -0.7 C 4.43 g/m*3 -0.7 C 0 km/h
3124 28-12-2019 20:15:00 -0.6 C 4.46 g/m*3 -0.6 C 0 km/h
3125 28-12-2019 20:20:00 -0.6 C 4.46 g/m*3 -0.6 C 3.2 km/h
Sensor: Nr:Datum:Temp:Abs-Feuchte:Windchill:Wind:
Aussen-T/F 3126 28-12-2019 20:25:00 -0.6 C 4.46 g/m*3 -0.6 C 0 km/h
3127 28-12-2019 20:30:00 -0.4 C 4.52 g/m*3 -0.4 C 0 km/h
3128 28-12-2019 20:35:00 -0.3 C 4.56 g/m*3 -0.3 C 0 km/h
3129 28-12-2019 20:40:00 -0.3 C 4.56 g/m*3 -0.3 C 0 km/h
3130 28-12-2019 20:45:00 -0.3 C 4.56 g/m*3 -0.3 C 0 km/h
3131 28-12-2019 20:50:00 -0.3 C 4.56 g/m*3 -0.3 C 0 km/h
3132 28-12-2019 20:55:00 -0.3 C 4.56 g/m*3 -0.3 C 0 km/h
3133 28-12-2019 21:00:00 -0.3 C 4.56 g/m*3 -0.3 C 0 km/h
3134 28-12-2019 21:05:00 -0.3 C 4.56 g/m*3 -0.3 C 0 km/h
3135 28-12-2019 21:10:00 -0.4 C 4.52 g/m*3 -0.4 C 0 km/h
3136 28-12-2019 21:15:00 -0.4 C 4.52 g/m*3 -0.4 C 4.8 km/h
3137 28-12-2019 21:20:00 -0.4 C 4.52 g/m*3 -0.4 C 1.6 km/h
3138 28-12-2019 21:25:00 -0.4 C 4.52 g/m*3 -0.4 C 0 km/h
3139 28-12-2019 21:30:00 -0.4 C 4.52 g/m*3 -0.4 C 0 km/h
3140 28-12-2019 21:35:00 -0.4 C 4.52 g/m*3 -0.4 C 0 km/h
3141 28-12-2019 21:40:00 -0.5 C 4.49 g/m*3 -0.5 C 0 km/h
3142 28-12-2019 21:45:00 -0.6 C 4.46 g/m*3 -0.6 C 0 km/h
3143 28-12-2019 21:50:00 -0.6 C 4.46 g/m*3 -0.6 C 3.2 km/h
3144 28-12-2019 21:55:00 -0.7 C 4.43 g/m*3 -0.7 C 0 km/h
3145 28-12-2019 22:00:00 -0.8 C 4.4 g/m*3 -0.8 C 0 km/h
3146 28-12-2019 22:05:00 -0.8 C 4.4 g/m*3 -0.8 C 0 km/h
3147 28-12-2019 22:10:00 -0.8 C 4.4 g/m*3 -0.8 C 0 km/h
3148 28-12-2019 22:15:00 -0.9 C 4.37 g/m*3 -0.9 C 0 km/h
3149 28-12-2019 22:20:00 -0.9 C 4.37 g/m*3 -0.9 C 0 km/h
3150 28-12-2019 22:25:00 -1 C 4.34 g/m*3 -1 C 0 km/h
Sensor: Nr:Datum:Temp:Abs-Feuchte:Windchill:Wind:
Aussen-T/F 3151 28-12-2019 22:30:00 -1 C 4.34 g/m*3 -1 C 0 km/h
3152 28-12-2019 22:35:00 -1.1 C 4.31 g/m*3 -1.1 C 0 km/h
3153 28-12-2019 22:40:00 -1.1 C 4.31 g/m*3 -1.1 C 0 km/h
3154 28-12-2019 22:45:00 -1.1 C 4.31 g/m*3 -1.1 C 0 km/h
3155 28-12-2019 22:50:00 -1.1 C 4.31 g/m*3 -1.1 C 0 km/h
3156 28-12-2019 22:55:00 -1.1 C 4.31 g/m*3 -1.1 C 0 km/h
3157 28-12-2019 23:00:00 -1.2 C 4.28 g/m*3 -1.2 C 0 km/h
3158 28-12-2019 23:05:00 -1.2 C 4.28 g/m*3 -1.2 C 0 km/h
3159 28-12-2019 23:10:00 -1.2 C 4.28 g/m*3 -1.2 C 0 km/h
3160 28-12-2019 23:15:00 -1.2 C 4.28 g/m*3 -1.2 C 0 km/h
3161 28-12-2019 23:20:00 -1.2 C 4.28 g/m*3 -1.2 C 0 km/h
3162 28-12-2019 23:25:00 -1.2 C 4.28 g/m*3 -1.2 C 0 km/h
3163 28-12-2019 23:30:00 -1.3 C 4.25 g/m*3 -1.3 C 0 km/h
3164 28-12-2019 23:35:00 -1.3 C 4.25 g/m*3 -1.3 C 0 km/h
3165 28-12-2019 23:40:00 -1.3 C 4.25 g/m*3 -1.3 C 0 km/h
3166 28-12-2019 23:45:00 -1.3 C 4.25 g/m*3 -1.3 C 0 km/h
3167 28-12-2019 23:50:00 -1.4 C 4.22 g/m*3 -1.4 C 0 km/h
3168 28-12-2019 23:55:00 -1.4 C 4.22 g/m*3 -1.4 C 0 km/h
3169 29-12-2019 00:00:00 -1.4 C 4.22 g/m*3 -1.4 C 0 km/h
3170 29-12-2019 00:05:00 -1.4 C 4.22 g/m*3 -1.4 C 0 km/h
3171 29-12-2019 00:10:00 -1.5 C 4.19 g/m*3 -1.5 C 0 km/h
3172 29-12-2019 00:15:00 -1.5 C 4.19 g/m*3 -1.5 C 0 km/h
3173 29-12-2019 00:20:00 -1.6 C 4.16 g/m*3 -1.6 C 0 km/h
3174 29-12-2019 00:25:00 -1.6 C 4.16 g/m*3 -1.6 C 0 km/h
3175 29-12-2019 00:30:00 -1.6 C 4.16 g/m*3 -1.6 C 0 km/h
Sensor: Nr:Datum:Temp:Abs-Feuchte:Windchill:Wind:
Aussen-T/F 3176 29-12-2019 00:35:00 -1.6 C 4.16 g/m*3 -1.6 C 0 km/h
3177 29-12-2019 00:40:00 -1.6 C 4.16 g/m*3 -1.6 C 0 km/h
3178 29-12-2019 00:45:00 -1.7 C 4.13 g/m*3 -1.7 C 0 km/h
3179 29-12-2019 00:50:00 -1.7 C 4.13 g/m*3 -1.7 C 0 km/h
3180 29-12-2019 00:55:00 -1.8 C 4.1 g/m*3 -1.8 C 0 km/h
3181 29-12-2019 01:00:00 -1.8 C 4.1 g/m*3 -1.8 C 0 km/h
3182 29-12-2019 01:05:00 -1.8 C 4.1 g/m*3 -1.8 C 0 km/h
3183 29-12-2019 01:10:00 -1.9 C 4.08 g/m*3 -1.9 C 0 km/h
3184 29-12-2019 01:15:00 -1.9 C 4.08 g/m*3 -1.9 C 0 km/h
3185 29-12-2019 01:20:00 -2 C 4.05 g/m*3 -2 C 0 km/h
3186 29-12-2019 01:25:00 -1.9 C 4.08 g/m*3 -1.9 C 0 km/h
3187 29-12-2019 01:30:00 -1.9 C 4.08 g/m*3 -1.9 C 0 km/h
3188 29-12-2019 01:35:00 -1.9 C 4.08 g/m*3 -1.9 C 0 km/h
3189 29-12-2019 01:40:00 -1.9 C 4.08 g/m*3 -1.9 C 0 km/h
3190 29-12-2019 01:45:00 -2 C 4.05 g/m*3 -2 C 0 km/h
3191 29-12-2019 01:50:00 -2 C 4.05 g/m*3 -2 C 0 km/h
3192 29-12-2019 01:55:00 -2.1 C 4.02 g/m*3 -2.1 C 0 km/h
3193 29-12-2019 02:00:00 -2.1 C 4.02 g/m*3 -2.1 C 0 km/h
3194 29-12-2019 02:05:00 -2.2 C 3.99 g/m*3 -2.2 C 0 km/h
3195 29-12-2019 02:10:00 -2.2 C 3.99 g/m*3 -2.2 C 0 km/h
3196 29-12-2019 02:15:00 -2.2 C 3.99 g/m*3 -2.2 C 0 km/h
3197 29-12-2019 02:20:00 -2.2 C 3.99 g/m*3 -2.2 C 0 km/h
3198 29-12-2019 02:25:00 -2.3 C 3.96 g/m*3 -2.3 C 0 km/h
3199 29-12-2019 02:30:00 -2.3 C 3.96 g/m*3 -2.3 C 0 km/h
3200 29-12-2019 02:35:00 -2.3 C 3.96 g/m*3 -2.3 C 0 km/h
Sensor: Nr:Datum:Temp:Abs-Feuchte:Windchill:Wind:
Aussen-T/F 3201 29-12-2019 02:40:00 -2.4 C 3.93 g/m*3 -2.4 C 0 km/h
3202 29-12-2019 02:45:00 -2.3 C 3.96 g/m*3 -2.3 C 0 km/h
3203 29-12-2019 02:50:00 -2.3 C 3.96 g/m*3 -2.3 C 0 km/h
3204 29-12-2019 02:55:00 -2.3 C 3.96 g/m*3 -2.3 C 0 km/h
3205 29-12-2019 03:00:00 -2.4 C 3.93 g/m*3 -2.4 C 0 km/h
3206 29-12-2019 03:05:00 -2.4 C 3.93 g/m*3 -2.4 C 0 km/h
3207 29-12-2019 03:10:00 -2.4 C 3.93 g/m*3 -2.4 C 0 km/h
3208 29-12-2019 03:15:00 -2.4 C 3.93 g/m*3 -2.4 C 0 km/h
3209 29-12-2019 03:20:00 -2.5 C 3.91 g/m*3 -2.5 C 0 km/h
3210 29-12-2019 03:25:00 -2.6 C 3.88 g/m*3 -2.6 C 0 km/h
3211 29-12-2019 03:30:00 -2.6 C 3.88 g/m*3 -2.6 C 0 km/h
3212 29-12-2019 03:35:00 -2.6 C 3.88 g/m*3 -2.6 C 0 km/h
3213 29-12-2019 03:40:00 -2.6 C 3.88 g/m*3 -2.6 C 0 km/h
3214 29-12-2019 03:45:00 -2.6 C 3.88 g/m*3 -2.6 C 0 km/h
3215 29-12-2019 03:50:00 -2.6 C 3.88 g/m*3 -2.6 C 0 km/h
3216 29-12-2019 03:55:00 -2.6 C 3.88 g/m*3 -2.6 C 0 km/h
3217 29-12-2019 04:00:00 -2.6 C 3.88 g/m*3 -2.6 C 0 km/h
3218 29-12-2019 04:05:00 -2.6 C 3.88 g/m*3 -2.6 C 0 km/h
3219 29-12-2019 04:10:00 -2.6 C 3.88 g/m*3 -2.6 C 0 km/h
3220 29-12-2019 04:15:00 -2.6 C 3.88 g/m*3 -2.6 C 0 km/h
3221 29-12-2019 04:20:00 -2.7 C 3.85 g/m*3 -2.7 C 0 km/h
3222 29-12-2019 04:25:00 -2.7 C 3.85 g/m*3 -2.7 C 0 km/h
3223 29-12-2019 04:30:00 -2.7 C 3.85 g/m*3 -2.7 C 0 km/h
3224 29-12-2019 04:35:00 -2.6 C 3.88 g/m*3 -2.6 C 0 km/h
3225 29-12-2019 04:40:00 -2.6 C 3.88 g/m*3 -2.6 C 0 km/h
Sensor: Nr:Datum:Temp:Abs-Feuchte:Windchill:Wind:
Aussen-T/F 3226 29-12-2019 04:45:00 -2.7 C 3.85 g/m*3 -2.7 C 0 km/h
3227 29-12-2019 04:50:00 -2.7 C 3.85 g/m*3 -2.7 C 0 km/h
3228 29-12-2019 04:55:00 -2.7 C 3.85 g/m*3 -2.7 C 0 km/h
3229 29-12-2019 05:00:00 -2.8 C 3.82 g/m*3 -2.8 C 0 km/h
3230 29-12-2019 05:05:00 -2.8 C 3.82 g/m*3 -2.8 C 0 km/h
3231 29-12-2019 05:10:00 -2.8 C 3.82 g/m*3 -2.8 C 0 km/h
3232 29-12-2019 05:15:00 -2.9 C 3.8 g/m*3 -2.9 C 0 km/h
3233 29-12-2019 05:20:00 -3 C 3.77 g/m*3 -3 C 0 km/h
3234 29-12-2019 05:25:00